<?xml version="1.0" encoding="UTF-8" standalone="no" ?>
<gpx xmlns="http://www.topografix.com/GPX/1/1" xmlns:xsi="http://www.w3.org/2001/XMLSchema-instance" xsi:schemaLocation="http://www.topografix.com/GPX/1/1 http://www.topografix.com/GPX/1/1/gpx.xsd" version="1.1" creator="VisuGPX - https://www.visugpx.com">
  <metadata>
    <name>80AubertThimougierobin</name>
  </metadata>
  <trk>
    <name><![CDATA[Mont ST Aubert Thimougie robin]]></name>
    <trkseg>
      <trkpt lat="50.50335" lon="3.46236">
        <ele>20.598982</ele>
        <time>2019-09-17T11:29:22.000Z</time>
      </trkpt>
      <trkpt lat="50.50335" lon="3.46236">
        <ele>20.598982</ele>
        <time>2019-09-17T11:29:22.044Z</time>
      </trkpt>
      <trkpt lat="50.50345" lon="3.46155">
        <ele>20.598982</ele>
        <time>2019-09-17T11:29:29.113Z</time>
      </trkpt>
      <trkpt lat="50.50361" lon="3.46074">
        <ele>20.521998</ele>
        <time>2019-09-17T11:29:36.139Z</time>
      </trkpt>
      <trkpt lat="50.50393" lon="3.45929">
        <ele>20.055269</ele>
        <time>2019-09-17T11:29:49.349Z</time>
      </trkpt>
      <trkpt lat="50.5041" lon="3.45851">
        <ele>19.803348</ele>
        <time>2019-09-17T11:29:56.223Z</time>
      </trkpt>
      <trkpt lat="50.50424" lon="3.45772">
        <ele>19.530973</ele>
        <time>2019-09-17T11:30:03.280Z</time>
      </trkpt>
      <trkpt lat="50.50433" lon="3.4572">
        <ele>19.345189</ele>
        <time>2019-09-17T11:30:07.934Z</time>
      </trkpt>
      <trkpt lat="50.50436" lon="3.45642">
        <ele>19.079425</ele>
        <time>2019-09-17T11:30:14.571Z</time>
      </trkpt>
      <trkpt lat="50.50437" lon="3.45631">
        <ele>19.041635</ele>
        <time>2019-09-17T11:30:15.380Z</time>
      </trkpt>
      <trkpt lat="50.5044" lon="3.45588">
        <ele>18.892207</ele>
        <time>2019-09-17T11:30:19.488Z</time>
      </trkpt>
      <trkpt lat="50.50441" lon="3.45573">
        <ele>18.839561</ele>
        <time>2019-09-17T11:30:20.641Z</time>
      </trkpt>
      <trkpt lat="50.50441" lon="3.45568">
        <ele>18.821972</ele>
        <time>2019-09-17T11:30:21.084Z</time>
      </trkpt>
      <trkpt lat="50.50443" lon="3.45552">
        <ele>18.762556</ele>
        <time>2019-09-17T11:30:22.438Z</time>
      </trkpt>
      <trkpt lat="50.50448" lon="3.45508">
        <ele>18.506614</ele>
        <time>2019-09-17T11:30:25.866Z</time>
      </trkpt>
      <trkpt lat="50.50447" lon="3.4549">
        <ele>18.398806</ele>
        <time>2019-09-17T11:30:27.301Z</time>
      </trkpt>
      <trkpt lat="50.50444" lon="3.45482">
        <ele>18.343782</ele>
        <time>2019-09-17T11:30:28.109Z</time>
      </trkpt>
      <trkpt lat="50.50448" lon="3.4547">
        <ele>18.265266</ele>
        <time>2019-09-17T11:30:29.091Z</time>
      </trkpt>
      <trkpt lat="50.50458" lon="3.45443">
        <ele>18.08223</ele>
        <time>2019-09-17T11:30:31.542Z</time>
      </trkpt>
      <trkpt lat="50.50468" lon="3.45372">
        <ele>17.659947</ele>
        <time>2019-09-17T11:30:37.229Z</time>
      </trkpt>
      <trkpt lat="50.50471" lon="3.45343">
        <ele>17.488313</ele>
        <time>2019-09-17T11:30:39.594Z</time>
      </trkpt>
      <trkpt lat="50.50473" lon="3.45332">
        <ele>17.42629</ele>
        <time>2019-09-17T11:30:40.397Z</time>
      </trkpt>
      <trkpt lat="50.50477" lon="3.45312">
        <ele>17.300933</ele>
        <time>2019-09-17T11:30:42.158Z</time>
      </trkpt>
      <trkpt lat="50.50513" lon="3.45201">
        <ele>16.749196</ele>
        <time>2019-09-17T11:30:52.075Z</time>
      </trkpt>
      <trkpt lat="50.50531" lon="3.45152">
        <ele>16.522226</ele>
        <time>2019-09-17T11:30:56.644Z</time>
      </trkpt>
      <trkpt lat="50.50539" lon="3.45133">
        <ele>16.429432</ele>
        <time>2019-09-17T11:30:58.454Z</time>
      </trkpt>
      <trkpt lat="50.50551" lon="3.45111">
        <ele>16.314982</ele>
        <time>2019-09-17T11:31:00.893Z</time>
      </trkpt>
      <trkpt lat="50.50599" lon="3.45026">
        <ele>15.962633</ele>
        <time>2019-09-17T11:31:10.870Z</time>
      </trkpt>
      <trkpt lat="50.50652" lon="3.44916">
        <ele>15.834823</ele>
        <time>2019-09-17T11:31:23.716Z</time>
      </trkpt>
      <trkpt lat="50.50661" lon="3.44894">
        <ele>15.810949</ele>
        <time>2019-09-17T11:31:25.982Z</time>
      </trkpt>
      <trkpt lat="50.50673" lon="3.44871">
        <ele>15.782971</ele>
        <time>2019-09-17T11:31:28.882Z</time>
      </trkpt>
      <trkpt lat="50.50707" lon="3.44823">
        <ele>15.7248</ele>
        <time>2019-09-17T11:31:35.358Z</time>
      </trkpt>
      <trkpt lat="50.51095" lon="3.44486">
        <ele>15.520637</ele>
        <time>2019-09-17T11:32:39.754Z</time>
      </trkpt>
      <trkpt lat="50.51116" lon="3.44468">
        <ele>15.535331</ele>
        <time>2019-09-17T11:32:43.542Z</time>
      </trkpt>
      <trkpt lat="50.51187" lon="3.44406">
        <ele>15.646608</ele>
        <time>2019-09-17T11:32:56.124Z</time>
      </trkpt>
      <trkpt lat="50.5119" lon="3.44403">
        <ele>15.663286</ele>
        <time>2019-09-17T11:32:56.919Z</time>
      </trkpt>
      <trkpt lat="50.51287" lon="3.44364">
        <ele>16.046411</ele>
        <time>2019-09-17T11:33:13.440Z</time>
      </trkpt>
      <trkpt lat="50.51322" lon="3.4435">
        <ele>16.183246</ele>
        <time>2019-09-17T11:33:19.310Z</time>
      </trkpt>
      <trkpt lat="50.5134" lon="3.44349">
        <ele>16.254724</ele>
        <time>2019-09-17T11:33:22.507Z</time>
      </trkpt>
      <trkpt lat="50.51346" lon="3.4435">
        <ele>16.270375</ele>
        <time>2019-09-17T11:33:23.453Z</time>
      </trkpt>
      <trkpt lat="50.5139" lon="3.44363">
        <ele>16.360366</ele>
        <time>2019-09-17T11:33:30.751Z</time>
      </trkpt>
      <trkpt lat="50.51573" lon="3.44428">
        <ele>16.471433</ele>
        <time>2019-09-17T11:33:59.677Z</time>
      </trkpt>
      <trkpt lat="50.51599" lon="3.44445">
        <ele>16.394836</ele>
        <time>2019-09-17T11:34:03.460Z</time>
      </trkpt>
      <trkpt lat="50.51714" lon="3.44519">
        <ele>16.05743</ele>
        <time>2019-09-17T11:34:19.935Z</time>
      </trkpt>
      <trkpt lat="50.51727" lon="3.44527">
        <ele>16.021638</ele>
        <time>2019-09-17T11:34:21.676Z</time>
      </trkpt>
      <trkpt lat="50.51818" lon="3.44585">
        <ele>15.761041</ele>
        <time>2019-09-17T11:34:35.097Z</time>
      </trkpt>
      <trkpt lat="50.51845" lon="3.44602">
        <ele>15.685263</ele>
        <time>2019-09-17T11:34:39.420Z</time>
      </trkpt>
      <trkpt lat="50.5192" lon="3.44671">
        <ele>15.950889</ele>
        <time>2019-09-17T11:34:53.200Z</time>
      </trkpt>
      <trkpt lat="50.51925" lon="3.44675">
        <ele>15.973048</ele>
        <time>2019-09-17T11:34:54.212Z</time>
      </trkpt>
      <trkpt lat="50.51933" lon="3.44684">
        <ele>16.0121</ele>
        <time>2019-09-17T11:34:56.206Z</time>
      </trkpt>
      <trkpt lat="50.51953" lon="3.44702">
        <ele>16.098185</ele>
        <time>2019-09-17T11:34:59.751Z</time>
      </trkpt>
      <trkpt lat="50.51991" lon="3.44724">
        <ele>16.254691</ele>
        <time>2019-09-17T11:35:06.693Z</time>
      </trkpt>
      <trkpt lat="50.52029" lon="3.44725">
        <ele>16.381065</ele>
        <time>2019-09-17T11:35:13.112Z</time>
      </trkpt>
      <trkpt lat="50.52034" lon="3.44722">
        <ele>16.393202</ele>
        <time>2019-09-17T11:35:14.155Z</time>
      </trkpt>
      <trkpt lat="50.52072" lon="3.44707">
        <ele>16.4896</ele>
        <time>2019-09-17T11:35:20.759Z</time>
      </trkpt>
      <trkpt lat="50.52089" lon="3.44693">
        <ele>16.53809</ele>
        <time>2019-09-17T11:35:23.808Z</time>
      </trkpt>
      <trkpt lat="50.52092" lon="3.44691">
        <ele>16.544647</ele>
        <time>2019-09-17T11:35:24.227Z</time>
      </trkpt>
      <trkpt lat="50.52105" lon="3.44679">
        <ele>16.581735</ele>
        <time>2019-09-17T11:35:26.703Z</time>
      </trkpt>
      <trkpt lat="50.52116" lon="3.44669">
        <ele>16.614443</ele>
        <time>2019-09-17T11:35:28.734Z</time>
      </trkpt>
      <trkpt lat="50.52143" lon="3.44666">
        <ele>16.679883</ele>
        <time>2019-09-17T11:35:32.907Z</time>
      </trkpt>
      <trkpt lat="50.52154" lon="3.44675">
        <ele>16.711195</ele>
        <time>2019-09-17T11:35:34.771Z</time>
      </trkpt>
      <trkpt lat="50.52189" lon="3.44712">
        <ele>16.779826</ele>
        <time>2019-09-17T11:35:40.943Z</time>
      </trkpt>
      <trkpt lat="50.52222" lon="3.44745">
        <ele>16.741854</ele>
        <time>2019-09-17T11:35:46.529Z</time>
      </trkpt>
      <trkpt lat="50.52251" lon="3.448">
        <ele>16.6981</ele>
        <time>2019-09-17T11:35:53.041Z</time>
      </trkpt>
      <trkpt lat="50.52281" lon="3.44844">
        <ele>16.658326</ele>
        <time>2019-09-17T11:35:58.949Z</time>
      </trkpt>
      <trkpt lat="50.52311" lon="3.44887">
        <ele>16.619685</ele>
        <time>2019-09-17T11:36:04.750Z</time>
      </trkpt>
      <trkpt lat="50.52348" lon="3.44962">
        <ele>16.690453</ele>
        <time>2019-09-17T11:36:13.785Z</time>
      </trkpt>
      <trkpt lat="50.52354" lon="3.44967">
        <ele>16.699929</ele>
        <time>2019-09-17T11:36:14.882Z</time>
      </trkpt>
      <trkpt lat="50.52364" lon="3.44971">
        <ele>16.713046</ele>
        <time>2019-09-17T11:36:16.447Z</time>
      </trkpt>
      <trkpt lat="50.52397" lon="3.4497">
        <ele>16.75607</ele>
        <time>2019-09-17T11:36:21.694Z</time>
      </trkpt>
      <trkpt lat="50.52446" lon="3.44967">
        <ele>16.819142</ele>
        <time>2019-09-17T11:36:29.366Z</time>
      </trkpt>
      <trkpt lat="50.52465" lon="3.44966">
        <ele>16.844242</ele>
        <time>2019-09-17T11:36:32.311Z</time>
      </trkpt>
      <trkpt lat="50.52496" lon="3.44968">
        <ele>16.89229</ele>
        <time>2019-09-17T11:36:37.211Z</time>
      </trkpt>
      <trkpt lat="50.52556" lon="3.44992">
        <ele>16.989012</ele>
        <time>2019-09-17T11:36:46.789Z</time>
      </trkpt>
      <trkpt lat="50.52569" lon="3.45007">
        <ele>17.015182</ele>
        <time>2019-09-17T11:36:49.206Z</time>
      </trkpt>
      <trkpt lat="50.52594" lon="3.45088">
        <ele>17.104725</ele>
        <time>2019-09-17T11:36:57.950Z</time>
      </trkpt>
      <trkpt lat="50.52608" lon="3.45115">
        <ele>17.151032</ele>
        <time>2019-09-17T11:37:01.183Z</time>
      </trkpt>
      <trkpt lat="50.52695" lon="3.45217">
        <ele>17.690389</ele>
        <time>2019-09-17T11:37:18.694Z</time>
      </trkpt>
      <trkpt lat="50.52698" lon="3.45225">
        <ele>17.722187</ele>
        <time>2019-09-17T11:37:19.861Z</time>
      </trkpt>
      <trkpt lat="50.52707" lon="3.45261">
        <ele>17.843382</ele>
        <time>2019-09-17T11:37:24.116Z</time>
      </trkpt>
      <trkpt lat="50.52719" lon="3.45338">
        <ele>18.142213</ele>
        <time>2019-09-17T11:37:33.300Z</time>
      </trkpt>
      <trkpt lat="50.52726" lon="3.45386">
        <ele>18.416506</ele>
        <time>2019-09-17T11:37:39.148Z</time>
      </trkpt>
      <trkpt lat="50.52741" lon="3.45438">
        <ele>18.734255</ele>
        <time>2019-09-17T11:37:46.068Z</time>
      </trkpt>
      <trkpt lat="50.52758" lon="3.45546">
        <ele>19.351322</ele>
        <time>2019-09-17T11:37:59.249Z</time>
      </trkpt>
      <trkpt lat="50.52769" lon="3.45601">
        <ele>19.654605</ele>
        <time>2019-09-17T11:38:05.778Z</time>
      </trkpt>
      <trkpt lat="50.52802" lon="3.4571">
        <ele>20.190873</ele>
        <time>2019-09-17T11:38:19.326Z</time>
      </trkpt>
      <trkpt lat="50.52899" lon="3.46191">
        <ele>22.663107</ele>
        <time>2019-09-17T11:39:15.557Z</time>
      </trkpt>
      <trkpt lat="50.52939" lon="3.46351">
        <ele>23.957303</ele>
        <time>2019-09-17T11:39:37.910Z</time>
      </trkpt>
      <trkpt lat="50.52951" lon="3.46484">
        <ele>25.071672</ele>
        <time>2019-09-17T11:39:55.544Z</time>
      </trkpt>
      <trkpt lat="50.53003" lon="3.46805">
        <ele>27.609594</ele>
        <time>2019-09-17T11:40:38.012Z</time>
      </trkpt>
      <trkpt lat="50.53008" lon="3.46817">
        <ele>27.699927</ele>
        <time>2019-09-17T11:40:39.718Z</time>
      </trkpt>
      <trkpt lat="50.53012" lon="3.46822">
        <ele>27.747762</ele>
        <time>2019-09-17T11:40:40.677Z</time>
      </trkpt>
      <trkpt lat="50.53018" lon="3.46828">
        <ele>27.825735</ele>
        <time>2019-09-17T11:40:42.161Z</time>
      </trkpt>
      <trkpt lat="50.53025" lon="3.46829">
        <ele>27.895141</ele>
        <time>2019-09-17T11:40:43.925Z</time>
      </trkpt>
      <trkpt lat="50.53175" lon="3.46773">
        <ele>27.95588</ele>
        <time>2019-09-17T11:41:08.913Z</time>
      </trkpt>
      <trkpt lat="50.53195" lon="3.46763">
        <ele>27.836387</ele>
        <time>2019-09-17T11:41:11.813Z</time>
      </trkpt>
      <trkpt lat="50.532" lon="3.46759">
        <ele>27.805091</ele>
        <time>2019-09-17T11:41:12.319Z</time>
      </trkpt>
      <trkpt lat="50.53267" lon="3.46704">
        <ele>27.23276</ele>
        <time>2019-09-17T11:41:20.810Z</time>
      </trkpt>
      <trkpt lat="50.53356" lon="3.46634">
        <ele>25.823935</ele>
        <time>2019-09-17T11:41:31.887Z</time>
      </trkpt>
      <trkpt lat="50.5341" lon="3.46593">
        <ele>24.978731</ele>
        <time>2019-09-17T11:41:39.201Z</time>
      </trkpt>
      <trkpt lat="50.53601" lon="3.4645">
        <ele>24.315489</ele>
        <time>2019-09-17T11:42:10.634Z</time>
      </trkpt>
      <trkpt lat="50.53712" lon="3.46368">
        <ele>23.120409</ele>
        <time>2019-09-17T11:42:25.561Z</time>
      </trkpt>
      <trkpt lat="50.53812" lon="3.46292">
        <ele>21.715546</ele>
        <time>2019-09-17T11:42:38.083Z</time>
      </trkpt>
      <trkpt lat="50.53844" lon="3.46263">
        <ele>21.220395</ele>
        <time>2019-09-17T11:42:42.286Z</time>
      </trkpt>
      <trkpt lat="50.53856" lon="3.46244">
        <ele>20.98386</ele>
        <time>2019-09-17T11:42:44.369Z</time>
      </trkpt>
      <trkpt lat="50.53878" lon="3.46181">
        <ele>20.38204</ele>
        <time>2019-09-17T11:42:49.837Z</time>
      </trkpt>
      <trkpt lat="50.5388" lon="3.46164">
        <ele>20.340825</ele>
        <time>2019-09-17T11:42:51.175Z</time>
      </trkpt>
      <trkpt lat="50.53949" lon="3.45679">
        <ele>19.381956</ele>
        <time>2019-09-17T11:43:35.757Z</time>
      </trkpt>
      <trkpt lat="50.54021" lon="3.45177">
        <ele>18.522435</ele>
        <time>2019-09-17T11:44:21.211Z</time>
      </trkpt>
      <trkpt lat="50.5404" lon="3.45071">
        <ele>18.340762</ele>
        <time>2019-09-17T11:44:30.870Z</time>
      </trkpt>
      <trkpt lat="50.54079" lon="3.44862">
        <ele>17.923582</ele>
        <time>2019-09-17T11:44:51.079Z</time>
      </trkpt>
      <trkpt lat="50.54083" lon="3.44841">
        <ele>17.881552</ele>
        <time>2019-09-17T11:44:52.800Z</time>
      </trkpt>
      <trkpt lat="50.54086" lon="3.44827">
        <ele>17.852594</ele>
        <time>2019-09-17T11:44:53.997Z</time>
      </trkpt>
      <trkpt lat="50.54086" lon="3.44823">
        <ele>17.84509</ele>
        <time>2019-09-17T11:44:54.485Z</time>
      </trkpt>
      <trkpt lat="50.5411" lon="3.4468">
        <ele>17.273244</ele>
        <time>2019-09-17T11:45:05.973Z</time>
      </trkpt>
      <trkpt lat="50.54123" lon="3.44691">
        <ele>17.177876</ele>
        <time>2019-09-17T11:45:07.935Z</time>
      </trkpt>
      <trkpt lat="50.54138" lon="3.44698">
        <ele>17.079381</ele>
        <time>2019-09-17T11:45:09.924Z</time>
      </trkpt>
      <trkpt lat="50.54141" lon="3.447">
        <ele>17.058027</ele>
        <time>2019-09-17T11:45:10.288Z</time>
      </trkpt>
      <trkpt lat="50.5416" lon="3.44707">
        <ele>16.931053</ele>
        <time>2019-09-17T11:45:13.148Z</time>
      </trkpt>
      <trkpt lat="50.5417" lon="3.44711">
        <ele>16.867094</ele>
        <time>2019-09-17T11:45:14.499Z</time>
      </trkpt>
      <trkpt lat="50.54179" lon="3.44715">
        <ele>16.805741</ele>
        <time>2019-09-17T11:45:15.722Z</time>
      </trkpt>
      <trkpt lat="50.54192" lon="3.4472">
        <ele>16.718869</ele>
        <time>2019-09-17T11:45:17.642Z</time>
      </trkpt>
      <trkpt lat="50.54222" lon="3.44731">
        <ele>16.725307</ele>
        <time>2019-09-17T11:45:21.847Z</time>
      </trkpt>
      <trkpt lat="50.54249" lon="3.44741">
        <ele>16.819608</ele>
        <time>2019-09-17T11:45:25.555Z</time>
      </trkpt>
      <trkpt lat="50.54262" lon="3.44741">
        <ele>16.864033</ele>
        <time>2019-09-17T11:45:27.358Z</time>
      </trkpt>
      <trkpt lat="50.5428" lon="3.44728">
        <ele>16.932794</ele>
        <time>2019-09-17T11:45:30.036Z</time>
      </trkpt>
      <trkpt lat="50.54288" lon="3.44721">
        <ele>16.964013</ele>
        <time>2019-09-17T11:45:31.617Z</time>
      </trkpt>
      <trkpt lat="50.54333" lon="3.44658">
        <ele>17.168451</ele>
        <time>2019-09-17T11:45:42.555Z</time>
      </trkpt>
      <trkpt lat="50.54387" lon="3.4459">
        <ele>17.535867</ele>
        <time>2019-09-17T11:45:56.052Z</time>
      </trkpt>
      <trkpt lat="50.54389" lon="3.44586">
        <ele>17.560936</ele>
        <time>2019-09-17T11:45:56.767Z</time>
      </trkpt>
      <trkpt lat="50.54403" lon="3.4458">
        <ele>17.655014</ele>
        <time>2019-09-17T11:45:59.562Z</time>
      </trkpt>
      <trkpt lat="50.54414" lon="3.4458">
        <ele>17.727536</ele>
        <time>2019-09-17T11:46:01.458Z</time>
      </trkpt>
      <trkpt lat="50.54423" lon="3.4458">
        <ele>17.78668</ele>
        <time>2019-09-17T11:46:02.998Z</time>
      </trkpt>
      <trkpt lat="50.54433" lon="3.44583">
        <ele>17.854479</ele>
        <time>2019-09-17T11:46:04.828Z</time>
      </trkpt>
      <trkpt lat="50.54444" lon="3.44586">
        <ele>17.936097</ele>
        <time>2019-09-17T11:46:06.941Z</time>
      </trkpt>
      <trkpt lat="50.54443" lon="3.44602">
        <ele>18.004842</ele>
        <time>2019-09-17T11:46:09.187Z</time>
      </trkpt>
      <trkpt lat="50.54438" lon="3.44687">
        <ele>18.365989</ele>
        <time>2019-09-17T11:46:21.004Z</time>
      </trkpt>
      <trkpt lat="50.54433" lon="3.44779">
        <ele>18.523959</ele>
        <time>2019-09-17T11:46:33.382Z</time>
      </trkpt>
      <trkpt lat="50.54443" lon="3.44924">
        <ele>18.62989</ele>
        <time>2019-09-17T11:46:51.816Z</time>
      </trkpt>
      <trkpt lat="50.54452" lon="3.44978">
        <ele>18.669756</ele>
        <time>2019-09-17T11:46:58.969Z</time>
      </trkpt>
      <trkpt lat="50.54568" lon="3.45465">
        <ele>20.613048</ele>
        <time>2019-09-17T11:48:14.315Z</time>
      </trkpt>
      <trkpt lat="50.54574" lon="3.45481">
        <ele>20.686792</ele>
        <time>2019-09-17T11:48:17.236Z</time>
      </trkpt>
      <trkpt lat="50.54552" lon="3.45503">
        <ele>20.854108</ele>
        <time>2019-09-17T11:48:23.027Z</time>
      </trkpt>
      <trkpt lat="50.54558" lon="3.45528">
        <ele>20.900068</ele>
        <time>2019-09-17T11:48:27.161Z</time>
      </trkpt>
      <trkpt lat="50.54783" lon="3.46437">
        <ele>22.251527</ele>
        <time>2019-09-17T11:50:38.143Z</time>
      </trkpt>
      <trkpt lat="50.54797" lon="3.46495">
        <ele>22.273231</ele>
        <time>2019-09-17T11:50:45.829Z</time>
      </trkpt>
      <trkpt lat="50.54807" lon="3.46548">
        <ele>22.292517</ele>
        <time>2019-09-17T11:51:24.560Z</time>
      </trkpt>
      <trkpt lat="50.54812" lon="3.46573">
        <ele>22.319127</ele>
        <time>2019-09-17T11:51:42.952Z</time>
      </trkpt>
      <trkpt lat="50.54824" lon="3.46616">
        <ele>22.407243</ele>
        <time>2019-09-17T11:51:48.998Z</time>
      </trkpt>
      <trkpt lat="50.54974" lon="3.47214">
        <ele>23.998772</ele>
        <time>2019-09-17T11:53:19.241Z</time>
      </trkpt>
      <trkpt lat="50.54985" lon="3.47264">
        <ele>24.147329</ele>
        <time>2019-09-17T11:53:26.636Z</time>
      </trkpt>
      <trkpt lat="50.54987" lon="3.47273">
        <ele>24.172338</ele>
        <time>2019-09-17T11:53:27.994Z</time>
      </trkpt>
      <trkpt lat="50.55024" lon="3.47426">
        <ele>24.635733</ele>
        <time>2019-09-17T11:53:50.704Z</time>
      </trkpt>
      <trkpt lat="50.55139" lon="3.47888">
        <ele>26.093577</ele>
        <time>2019-09-17T11:55:00.613Z</time>
      </trkpt>
      <trkpt lat="50.5518" lon="3.48053">
        <ele>26.638438</ele>
        <time>2019-09-17T11:55:25.316Z</time>
      </trkpt>
      <trkpt lat="50.55188" lon="3.48046">
        <ele>26.684003</ele>
        <time>2019-09-17T11:55:26.871Z</time>
      </trkpt>
      <trkpt lat="50.55197" lon="3.48034">
        <ele>26.739491</ele>
        <time>2019-09-17T11:55:28.742Z</time>
      </trkpt>
      <trkpt lat="50.55201" lon="3.48028">
        <ele>26.76762</ele>
        <time>2019-09-17T11:55:29.742Z</time>
      </trkpt>
      <trkpt lat="50.55205" lon="3.4802">
        <ele>26.797387</ele>
        <time>2019-09-17T11:55:30.842Z</time>
      </trkpt>
      <trkpt lat="50.5521" lon="3.48008">
        <ele>26.840855</ele>
        <time>2019-09-17T11:55:32.408Z</time>
      </trkpt>
      <trkpt lat="50.55261" lon="3.47984">
        <ele>27.21116</ele>
        <time>2019-09-17T11:55:41.587Z</time>
      </trkpt>
      <trkpt lat="50.55426" lon="3.47881">
        <ele>28.811265</ele>
        <time>2019-09-17T11:56:13.896Z</time>
      </trkpt>
      <trkpt lat="50.5553" lon="3.47818">
        <ele>30.297181</ele>
        <time>2019-09-17T11:56:36.736Z</time>
      </trkpt>
      <trkpt lat="50.55556" lon="3.47802">
        <ele>30.66374</ele>
        <time>2019-09-17T11:56:42.692Z</time>
      </trkpt>
      <trkpt lat="50.55584" lon="3.47785">
        <ele>31.021026</ele>
        <time>2019-09-17T11:56:49.299Z</time>
      </trkpt>
      <trkpt lat="50.55636" lon="3.47763">
        <ele>31.598754</ele>
        <time>2019-09-17T11:57:00.637Z</time>
      </trkpt>
      <trkpt lat="50.55658" lon="3.47761">
        <ele>31.833023</ele>
        <time>2019-09-17T11:57:05.241Z</time>
      </trkpt>
      <trkpt lat="50.55681" lon="3.4776">
        <ele>32.079766</ele>
        <time>2019-09-17T11:57:09.502Z</time>
      </trkpt>
      <trkpt lat="50.55701" lon="3.47748">
        <ele>32.314346</ele>
        <time>2019-09-17T11:57:13.302Z</time>
      </trkpt>
      <trkpt lat="50.55728" lon="3.47699">
        <ele>32.732926</ele>
        <time>2019-09-17T11:57:19.915Z</time>
      </trkpt>
      <trkpt lat="50.55744" lon="3.47681">
        <ele>32.754245</ele>
        <time>2019-09-17T11:57:22.937Z</time>
      </trkpt>
      <trkpt lat="50.55747" lon="3.47679">
        <ele>32.757434</ele>
        <time>2019-09-17T11:57:23.605Z</time>
      </trkpt>
      <trkpt lat="50.55752" lon="3.47676">
        <ele>32.764075</ele>
        <time>2019-09-17T11:57:24.473Z</time>
      </trkpt>
      <trkpt lat="50.55759" lon="3.47674">
        <ele>32.771385</ele>
        <time>2019-09-17T11:57:25.466Z</time>
      </trkpt>
      <trkpt lat="50.55776" lon="3.47674">
        <ele>32.78961</ele>
        <time>2019-09-17T11:57:28.085Z</time>
      </trkpt>
      <trkpt lat="50.55831" lon="3.47675">
        <ele>32.849529</ele>
        <time>2019-09-17T11:57:36.319Z</time>
      </trkpt>
      <trkpt lat="50.55848" lon="3.47676">
        <ele>32.868633</ele>
        <time>2019-09-17T11:57:38.775Z</time>
      </trkpt>
      <trkpt lat="50.55876" lon="3.47695">
        <ele>32.901543</ele>
        <time>2019-09-17T11:57:43.141Z</time>
      </trkpt>
      <trkpt lat="50.55915" lon="3.47765">
        <ele>33.171282</ele>
        <time>2019-09-17T11:57:51.735Z</time>
      </trkpt>
      <trkpt lat="50.56024" lon="3.47769">
        <ele>33.909727</ele>
        <time>2019-09-17T11:58:11.785Z</time>
      </trkpt>
      <trkpt lat="50.56079" lon="3.47789">
        <ele>34.334937</ele>
        <time>2019-09-17T11:58:22.384Z</time>
      </trkpt>
      <trkpt lat="50.56092" lon="3.47804">
        <ele>34.469349</ele>
        <time>2019-09-17T11:58:25.565Z</time>
      </trkpt>
      <trkpt lat="50.56104" lon="3.47783">
        <ele>34.625935</ele>
        <time>2019-09-17T11:58:28.758Z</time>
      </trkpt>
      <trkpt lat="50.56138" lon="3.47691">
        <ele>35.21583</ele>
        <time>2019-09-17T11:58:41.336Z</time>
      </trkpt>
      <trkpt lat="50.56142" lon="3.47684">
        <ele>35.267854</ele>
        <time>2019-09-17T11:58:42.361Z</time>
      </trkpt>
      <trkpt lat="50.5615" lon="3.4768">
        <ele>35.342567</ele>
        <time>2019-09-17T11:58:44.082Z</time>
      </trkpt>
      <trkpt lat="50.56158" lon="3.47679">
        <ele>35.405555</ele>
        <time>2019-09-17T11:58:45.475Z</time>
      </trkpt>
      <trkpt lat="50.56187" lon="3.47692">
        <ele>35.669619</ele>
        <time>2019-09-17T11:58:50.834Z</time>
      </trkpt>
      <trkpt lat="50.56193" lon="3.47696">
        <ele>35.723794</ele>
        <time>2019-09-17T11:58:52.177Z</time>
      </trkpt>
      <trkpt lat="50.5623" lon="3.47745">
        <ele>36.001859</ele>
        <time>2019-09-17T11:59:00.006Z</time>
      </trkpt>
      <trkpt lat="50.56236" lon="3.47754">
        <ele>36.054865</ele>
        <time>2019-09-17T11:59:01.508Z</time>
      </trkpt>
      <trkpt lat="50.5624" lon="3.47748">
        <ele>36.084258</ele>
        <time>2019-09-17T11:59:02.388Z</time>
      </trkpt>
      <trkpt lat="50.56298" lon="3.47689">
        <ele>36.489454</ele>
        <time>2019-09-17T11:59:14.113Z</time>
      </trkpt>
      <trkpt lat="50.56326" lon="3.47642">
        <ele>36.72634</ele>
        <time>2019-09-17T11:59:21.222Z</time>
      </trkpt>
      <trkpt lat="50.5639" lon="3.47615">
        <ele>37.297733</ele>
        <time>2019-09-17T11:59:32.907Z</time>
      </trkpt>
      <trkpt lat="50.56432" lon="3.47581">
        <ele>37.718333</ele>
        <time>2019-09-17T11:59:41.328Z</time>
      </trkpt>
      <trkpt lat="50.56483" lon="3.4754">
        <ele>38.229637</ele>
        <time>2019-09-17T11:59:52.279Z</time>
      </trkpt>
      <trkpt lat="50.56562" lon="3.47477">
        <ele>39.453336</ele>
        <time>2019-09-17T12:00:10.127Z</time>
      </trkpt>
      <trkpt lat="50.56576" lon="3.47466">
        <ele>39.696945</ele>
        <time>2019-09-17T12:00:13.985Z</time>
      </trkpt>
      <trkpt lat="50.56619" lon="3.47432">
        <ele>40.403224</ele>
        <time>2019-09-17T12:00:23.912Z</time>
      </trkpt>
      <trkpt lat="50.56634" lon="3.47422">
        <ele>40.656446</ele>
        <time>2019-09-17T12:00:27.406Z</time>
      </trkpt>
      <trkpt lat="50.56641" lon="3.47421">
        <ele>40.748563</ele>
        <time>2019-09-17T12:00:28.829Z</time>
      </trkpt>
      <trkpt lat="50.56648" lon="3.47418">
        <ele>40.856165</ele>
        <time>2019-09-17T12:00:30.404Z</time>
      </trkpt>
      <trkpt lat="50.56697" lon="3.47412">
        <ele>41.580374</ele>
        <time>2019-09-17T12:00:40.176Z</time>
      </trkpt>
      <trkpt lat="50.56701" lon="3.47411">
        <ele>41.645463</ele>
        <time>2019-09-17T12:00:41.275Z</time>
      </trkpt>
      <trkpt lat="50.56705" lon="3.47409">
        <ele>41.713422</ele>
        <time>2019-09-17T12:00:42.249Z</time>
      </trkpt>
      <trkpt lat="50.56717" lon="3.47403">
        <ele>41.891095</ele>
        <time>2019-09-17T12:00:44.955Z</time>
      </trkpt>
      <trkpt lat="50.56774" lon="3.47365">
        <ele>42.806024</ele>
        <time>2019-09-17T12:00:57.855Z</time>
      </trkpt>
      <trkpt lat="50.56807" lon="3.47489">
        <ele>43.962398</ele>
        <time>2019-09-17T12:01:15.388Z</time>
      </trkpt>
      <trkpt lat="50.56812" lon="3.47507">
        <ele>44.097187</ele>
        <time>2019-09-17T12:01:17.687Z</time>
      </trkpt>
      <trkpt lat="50.56815" lon="3.47518">
        <ele>44.185231</ele>
        <time>2019-09-17T12:01:19.097Z</time>
      </trkpt>
      <trkpt lat="50.5682" lon="3.47528">
        <ele>44.273913</ele>
        <time>2019-09-17T12:01:20.934Z</time>
      </trkpt>
      <trkpt lat="50.56838" lon="3.47544">
        <ele>44.500189</ele>
        <time>2019-09-17T12:01:24.776Z</time>
      </trkpt>
      <trkpt lat="50.56882" lon="3.47565">
        <ele>45.000018</ele>
        <time>2019-09-17T12:01:33.465Z</time>
      </trkpt>
      <trkpt lat="50.569" lon="3.47571">
        <ele>45.201953</ele>
        <time>2019-09-17T12:01:37.146Z</time>
      </trkpt>
      <trkpt lat="50.56943" lon="3.476">
        <ele>45.667923</ele>
        <time>2019-09-17T12:01:45.741Z</time>
      </trkpt>
      <trkpt lat="50.56963" lon="3.47614">
        <ele>45.767824</ele>
        <time>2019-09-17T12:01:49.998Z</time>
      </trkpt>
      <trkpt lat="50.57008" lon="3.47669">
        <ele>46.030741</ele>
        <time>2019-09-17T12:01:59.678Z</time>
      </trkpt>
      <trkpt lat="50.57068" lon="3.47744">
        <ele>46.381468</ele>
        <time>2019-09-17T12:02:11.880Z</time>
      </trkpt>
      <trkpt lat="50.57079" lon="3.47757">
        <ele>46.441933</ele>
        <time>2019-09-17T12:02:13.902Z</time>
      </trkpt>
      <trkpt lat="50.57106" lon="3.47799">
        <ele>46.55663</ele>
        <time>2019-09-17T12:02:19.612Z</time>
      </trkpt>
      <trkpt lat="50.57133" lon="3.47873">
        <ele>46.708601</ele>
        <time>2019-09-17T12:02:27.552Z</time>
      </trkpt>
      <trkpt lat="50.57171" lon="3.48065">
        <ele>47.322759</ele>
        <time>2019-09-17T12:02:49.082Z</time>
      </trkpt>
      <trkpt lat="50.57175" lon="3.4809">
        <ele>47.483414</ele>
        <time>2019-09-17T12:02:51.780Z</time>
      </trkpt>
      <trkpt lat="50.57179" lon="3.48099">
        <ele>47.557146</ele>
        <time>2019-09-17T12:02:53.446Z</time>
      </trkpt>
      <trkpt lat="50.57191" lon="3.48156">
        <ele>47.941429</ele>
        <time>2019-09-17T12:03:00.696Z</time>
      </trkpt>
      <trkpt lat="50.57235" lon="3.48362">
        <ele>49.154488</ele>
        <time>2019-09-17T12:03:28.452Z</time>
      </trkpt>
      <trkpt lat="50.5724" lon="3.48391">
        <ele>49.289223</ele>
        <time>2019-09-17T12:03:31.981Z</time>
      </trkpt>
      <trkpt lat="50.57246" lon="3.48417">
        <ele>49.411986</ele>
        <time>2019-09-17T12:03:34.953Z</time>
      </trkpt>
      <trkpt lat="50.57252" lon="3.48448">
        <ele>49.558291</ele>
        <time>2019-09-17T12:03:38.581Z</time>
      </trkpt>
      <trkpt lat="50.57263" lon="3.48501">
        <ele>49.81002</ele>
        <time>2019-09-17T12:03:46.321Z</time>
      </trkpt>
      <trkpt lat="50.57284" lon="3.48598">
        <ele>50.101694</ele>
        <time>2019-09-17T12:03:56.080Z</time>
      </trkpt>
      <trkpt lat="50.57308" lon="3.48672">
        <ele>50.214827</ele>
        <time>2019-09-17T12:04:06.530Z</time>
      </trkpt>
      <trkpt lat="50.57351" lon="3.48791">
        <ele>50.400383</ele>
        <time>2019-09-17T12:04:24.532Z</time>
      </trkpt>
      <trkpt lat="50.57355" lon="3.4881">
        <ele>50.500757</ele>
        <time>2019-09-17T12:04:27.358Z</time>
      </trkpt>
      <trkpt lat="50.57338" lon="3.48512">
        <ele>53.21493</ele>
        <time>2019-09-17T12:05:07.086Z</time>
      </trkpt>
      <trkpt lat="50.57343" lon="3.48486">
        <ele>53.586457</ele>
        <time>2019-09-17T12:05:11.209Z</time>
      </trkpt>
      <trkpt lat="50.57368" lon="3.48467">
        <ele>54.180656</ele>
        <time>2019-09-17T12:05:17.826Z</time>
      </trkpt>
      <trkpt lat="50.57614" lon="3.48354">
        <ele>59.651379</ele>
        <time>2019-09-17T12:06:18.926Z</time>
      </trkpt>
      <trkpt lat="50.57828" lon="3.48274">
        <ele>63.609052</ele>
        <time>2019-09-17T12:07:07.938Z</time>
      </trkpt>
      <trkpt lat="50.57835" lon="3.48271">
        <ele>63.618682</ele>
        <time>2019-09-17T12:07:09.615Z</time>
      </trkpt>
      <trkpt lat="50.57854" lon="3.48264">
        <ele>63.602251</ele>
        <time>2019-09-17T12:07:12.796Z</time>
      </trkpt>
      <trkpt lat="50.57903" lon="3.48269">
        <ele>63.558912</ele>
        <time>2019-09-17T12:07:21.065Z</time>
      </trkpt>
      <trkpt lat="50.57955" lon="3.48264">
        <ele>63.513477</ele>
        <time>2019-09-17T12:07:28.425Z</time>
      </trkpt>
      <trkpt lat="50.58057" lon="3.48288">
        <ele>62.338834</ele>
        <time>2019-09-17T12:07:40.579Z</time>
      </trkpt>
      <trkpt lat="50.58217" lon="3.48384">
        <ele>58.38998</ele>
        <time>2019-09-17T12:07:58.485Z</time>
      </trkpt>
      <trkpt lat="50.5826" lon="3.484">
        <ele>57.304979</ele>
        <time>2019-09-17T12:08:03.071Z</time>
      </trkpt>
      <trkpt lat="50.58269" lon="3.484">
        <ele>57.066234</ele>
        <time>2019-09-17T12:08:03.969Z</time>
      </trkpt>
      <trkpt lat="50.5853" lon="3.48404">
        <ele>51.902673</ele>
        <time>2019-09-17T12:08:32.862Z</time>
      </trkpt>
      <trkpt lat="50.58543" lon="3.4841">
        <ele>51.782579</ele>
        <time>2019-09-17T12:08:34.487Z</time>
      </trkpt>
      <trkpt lat="50.5859" lon="3.48481">
        <ele>51.392809</ele>
        <time>2019-09-17T12:08:42.967Z</time>
      </trkpt>
      <trkpt lat="50.58625" lon="3.48547">
        <ele>51.06758</ele>
        <time>2019-09-17T12:08:50.385Z</time>
      </trkpt>
      <trkpt lat="50.58634" lon="3.48585">
        <ele>50.912106</ele>
        <time>2019-09-17T12:08:54.015Z</time>
      </trkpt>
      <trkpt lat="50.58649" lon="3.48728">
        <ele>50.433178</ele>
        <time>2019-09-17T12:09:06.964Z</time>
      </trkpt>
      <trkpt lat="50.58665" lon="3.48769">
        <ele>50.280611</ele>
        <time>2019-09-17T12:09:11.218Z</time>
      </trkpt>
      <trkpt lat="50.58682" lon="3.48786">
        <ele>50.181943</ele>
        <time>2019-09-17T12:09:13.927Z</time>
      </trkpt>
      <trkpt lat="50.5871" lon="3.48796">
        <ele>50.041001</ele>
        <time>2019-09-17T12:09:17.585Z</time>
      </trkpt>
      <trkpt lat="50.58803" lon="3.48807">
        <ele>49.157264</ele>
        <time>2019-09-17T12:09:29.064Z</time>
      </trkpt>
      <trkpt lat="50.58813" lon="3.48812">
        <ele>49.025156</ele>
        <time>2019-09-17T12:09:30.342Z</time>
      </trkpt>
      <trkpt lat="50.58835" lon="3.48839">
        <ele>48.690981</ele>
        <time>2019-09-17T12:09:33.627Z</time>
      </trkpt>
      <trkpt lat="50.58847" lon="3.48855">
        <ele>48.501588</ele>
        <time>2019-09-17T12:09:35.396Z</time>
      </trkpt>
      <trkpt lat="50.58859" lon="3.48834">
        <ele>48.284845</ele>
        <time>2019-09-17T12:09:38.437Z</time>
      </trkpt>
      <trkpt lat="50.58869" lon="3.48814">
        <ele>48.098847</ele>
        <time>2019-09-17T12:09:40.953Z</time>
      </trkpt>
      <trkpt lat="50.58876" lon="3.488">
        <ele>47.955073</ele>
        <time>2019-09-17T12:09:42.959Z</time>
      </trkpt>
      <trkpt lat="50.58898" lon="3.48765">
        <ele>47.572764</ele>
        <time>2019-09-17T12:09:48.157Z</time>
      </trkpt>
      <trkpt lat="50.5893" lon="3.4871">
        <ele>46.963151</ele>
        <time>2019-09-17T12:09:56.022Z</time>
      </trkpt>
      <trkpt lat="50.58945" lon="3.48719">
        <ele>46.75412</ele>
        <time>2019-09-17T12:09:58.664Z</time>
      </trkpt>
      <trkpt lat="50.58963" lon="3.48724">
        <ele>46.512369</ele>
        <time>2019-09-17T12:10:01.768Z</time>
      </trkpt>
      <trkpt lat="50.5898" lon="3.48729">
        <ele>46.28852</ele>
        <time>2019-09-17T12:10:04.703Z</time>
      </trkpt>
      <trkpt lat="50.59022" lon="3.48704">
        <ele>45.719503</ele>
        <time>2019-09-17T12:10:12.076Z</time>
      </trkpt>
      <trkpt lat="50.59026" lon="3.48698">
        <ele>45.646863</ele>
        <time>2019-09-17T12:10:13.043Z</time>
      </trkpt>
      <trkpt lat="50.59035" lon="3.48686">
        <ele>45.495002</ele>
        <time>2019-09-17T12:10:15.043Z</time>
      </trkpt>
      <trkpt lat="50.59039" lon="3.48677">
        <ele>45.397094</ele>
        <time>2019-09-17T12:10:16.406Z</time>
      </trkpt>
      <trkpt lat="50.59042" lon="3.48665">
        <ele>45.327586</ele>
        <time>2019-09-17T12:10:17.654Z</time>
      </trkpt>
      <trkpt lat="50.59042" lon="3.48656">
        <ele>45.279765</ele>
        <time>2019-09-17T12:10:18.700Z</time>
      </trkpt>
      <trkpt lat="50.59042" lon="3.48628">
        <ele>45.130541</ele>
        <time>2019-09-17T12:10:21.869Z</time>
      </trkpt>
      <trkpt lat="50.59039" lon="3.48507">
        <ele>44.49848</ele>
        <time>2019-09-17T12:10:35.878Z</time>
      </trkpt>
      <trkpt lat="50.59042" lon="3.48498">
        <ele>44.442999</ele>
        <time>2019-09-17T12:10:36.984Z</time>
      </trkpt>
      <trkpt lat="50.59071" lon="3.48457">
        <ele>44.120095</ele>
        <time>2019-09-17T12:10:44.042Z</time>
      </trkpt>
      <trkpt lat="50.59089" lon="3.4842">
        <ele>43.85698</ele>
        <time>2019-09-17T12:10:49.408Z</time>
      </trkpt>
      <trkpt lat="50.59102" lon="3.48367">
        <ele>43.348478</ele>
        <time>2019-09-17T12:10:55.815Z</time>
      </trkpt>
      <trkpt lat="50.5911" lon="3.48351">
        <ele>43.170283</ele>
        <time>2019-09-17T12:10:57.982Z</time>
      </trkpt>
      <trkpt lat="50.59122" lon="3.48337">
        <ele>42.949773</ele>
        <time>2019-09-17T12:11:00.649Z</time>
      </trkpt>
      <trkpt lat="50.5914" lon="3.48328">
        <ele>42.682847</ele>
        <time>2019-09-17T12:11:03.698Z</time>
      </trkpt>
      <trkpt lat="50.59243" lon="3.48273">
        <ele>41.141207</ele>
        <time>2019-09-17T12:11:21.261Z</time>
      </trkpt>
      <trkpt lat="50.59263" lon="3.48244">
        <ele>40.756954</ele>
        <time>2019-09-17T12:11:25.325Z</time>
      </trkpt>
      <trkpt lat="50.59332" lon="3.48142">
        <ele>39.402292</ele>
        <time>2019-09-17T12:11:40.704Z</time>
      </trkpt>
      <trkpt lat="50.59369" lon="3.48082">
        <ele>38.795493</ele>
        <time>2019-09-17T12:11:50.127Z</time>
      </trkpt>
      <trkpt lat="50.59314" lon="3.48023">
        <ele>39.013209</ele>
        <time>2019-09-17T12:12:03.794Z</time>
      </trkpt>
      <trkpt lat="50.59304" lon="3.48014">
        <ele>39.052212</ele>
        <time>2019-09-17T12:12:06.783Z</time>
      </trkpt>
      <trkpt lat="50.59293" lon="3.48005">
        <ele>39.093435</ele>
        <time>2019-09-17T12:12:09.464Z</time>
      </trkpt>
      <trkpt lat="50.59219" lon="3.47937">
        <ele>39.375826</ele>
        <time>2019-09-17T12:12:29.610Z</time>
      </trkpt>
      <trkpt lat="50.59216" lon="3.4792">
        <ele>39.422416</ele>
        <time>2019-09-17T12:12:32.691Z</time>
      </trkpt>
      <trkpt lat="50.59222" lon="3.47886">
        <ele>39.514814</ele>
        <time>2019-09-17T12:12:37.708Z</time>
      </trkpt>
      <trkpt lat="50.59244" lon="3.47797">
        <ele>39.766307</ele>
        <time>2019-09-17T12:12:51.109Z</time>
      </trkpt>
      <trkpt lat="50.59249" lon="3.47785">
        <ele>39.802559</ele>
        <time>2019-09-17T12:12:52.905Z</time>
      </trkpt>
      <trkpt lat="50.59268" lon="3.47728">
        <ele>39.972251</ele>
        <time>2019-09-17T12:13:01.227Z</time>
      </trkpt>
      <trkpt lat="50.59314" lon="3.47621">
        <ele>40.207739</ele>
        <time>2019-09-17T12:13:18.452Z</time>
      </trkpt>
      <trkpt lat="50.59327" lon="3.47572">
        <ele>40.278037</ele>
        <time>2019-09-17T12:13:25.630Z</time>
      </trkpt>
      <trkpt lat="50.59327" lon="3.47572">
        <ele>40.278738</ele>
        <time>2019-09-17T12:13:25.690Z</time>
      </trkpt>
      <trkpt lat="50.59329" lon="3.47563">
        <ele>40.291911</ele>
        <time>2019-09-17T12:13:26.904Z</time>
      </trkpt>
      <trkpt lat="50.59341" lon="3.47519">
        <ele>40.355602</ele>
        <time>2019-09-17T12:13:33.461Z</time>
      </trkpt>
      <trkpt lat="50.59349" lon="3.47485">
        <ele>40.404309</ele>
        <time>2019-09-17T12:13:38.162Z</time>
      </trkpt>
      <trkpt lat="50.59356" lon="3.47475">
        <ele>40.424744</ele>
        <time>2019-09-17T12:13:40.489Z</time>
      </trkpt>
      <trkpt lat="50.59381" lon="3.47432">
        <ele>40.487685</ele>
        <time>2019-09-17T12:13:48.323Z</time>
      </trkpt>
      <trkpt lat="50.59515" lon="3.47314">
        <ele>40.616154</ele>
        <time>2019-09-17T12:14:20.471Z</time>
      </trkpt>
      <trkpt lat="50.59579" lon="3.47278">
        <ele>40.238263</ele>
        <time>2019-09-17T12:14:33.232Z</time>
      </trkpt>
      <trkpt lat="50.59579" lon="3.47291">
        <ele>40.175134</ele>
        <time>2019-09-17T12:14:34.409Z</time>
      </trkpt>
      <trkpt lat="50.59595" lon="3.47275">
        <ele>40.039298</ele>
        <time>2019-09-17T12:14:37.700Z</time>
      </trkpt>
      <trkpt lat="50.59637" lon="3.47245">
        <ele>39.703916</ele>
        <time>2019-09-17T12:14:45.816Z</time>
      </trkpt>
      <trkpt lat="50.59656" lon="3.47237">
        <ele>39.556431</ele>
        <time>2019-09-17T12:14:49.269Z</time>
      </trkpt>
      <trkpt lat="50.59662" lon="3.47236">
        <ele>39.509358</ele>
        <time>2019-09-17T12:14:50.395Z</time>
      </trkpt>
      <trkpt lat="50.59674" lon="3.47241">
        <ele>39.420229</ele>
        <time>2019-09-17T12:14:52.523Z</time>
      </trkpt>
      <trkpt lat="50.59694" lon="3.47157">
        <ele>38.694776</ele>
        <time>2019-09-17T12:15:02.277Z</time>
      </trkpt>
      <trkpt lat="50.59691" lon="3.47138">
        <ele>38.507152</ele>
        <time>2019-09-17T12:15:04.484Z</time>
      </trkpt>
      <trkpt lat="50.59693" lon="3.47125">
        <ele>38.388265</ele>
        <time>2019-09-17T12:15:05.838Z</time>
      </trkpt>
      <trkpt lat="50.5971" lon="3.47089">
        <ele>37.965306</ele>
        <time>2019-09-17T12:15:10.734Z</time>
      </trkpt>
      <trkpt lat="50.59713" lon="3.4708">
        <ele>37.877492</ele>
        <time>2019-09-17T12:15:11.730Z</time>
      </trkpt>
      <trkpt lat="50.59734" lon="3.46984">
        <ele>36.942535</ele>
        <time>2019-09-17T12:15:22.276Z</time>
      </trkpt>
      <trkpt lat="50.59748" lon="3.46916">
        <ele>36.069276</ele>
        <time>2019-09-17T12:15:29.589Z</time>
      </trkpt>
      <trkpt lat="50.59802" lon="3.4695">
        <ele>34.815788</ele>
        <time>2019-09-17T12:15:35.853Z</time>
      </trkpt>
      <trkpt lat="50.59859" lon="3.46986">
        <ele>33.489722</ele>
        <time>2019-09-17T12:15:42.366Z</time>
      </trkpt>
      <trkpt lat="50.59862" lon="3.46989">
        <ele>33.403541</ele>
        <time>2019-09-17T12:15:42.798Z</time>
      </trkpt>
      <trkpt lat="50.59938" lon="3.47033">
        <ele>31.720963</ele>
        <time>2019-09-17T12:15:51.471Z</time>
      </trkpt>
      <trkpt lat="50.59959" lon="3.47034">
        <ele>31.302534</ele>
        <time>2019-09-17T12:15:53.682Z</time>
      </trkpt>
      <trkpt lat="50.60084" lon="3.46996">
        <ele>28.601335</ele>
        <time>2019-09-17T12:16:07.882Z</time>
      </trkpt>
      <trkpt lat="50.60107" lon="3.47009">
        <ele>28.01103</ele>
        <time>2019-09-17T12:16:10.599Z</time>
      </trkpt>
      <trkpt lat="50.60118" lon="3.47021">
        <ele>27.684681</ele>
        <time>2019-09-17T12:16:12.119Z</time>
      </trkpt>
      <trkpt lat="50.60172" lon="3.47099">
        <ele>25.877345</ele>
        <time>2019-09-17T12:16:20.362Z</time>
      </trkpt>
      <trkpt lat="50.60256" lon="3.47185">
        <ele>22.464678</ele>
        <time>2019-09-17T12:16:30.118Z</time>
      </trkpt>
      <trkpt lat="50.60298" lon="3.47212">
        <ele>20.533125</ele>
        <time>2019-09-17T12:16:34.616Z</time>
      </trkpt>
      <trkpt lat="50.60304" lon="3.47216">
        <ele>20.242643</ele>
        <time>2019-09-17T12:16:35.241Z</time>
      </trkpt>
      <trkpt lat="50.6031" lon="3.47219">
        <ele>19.971829</ele>
        <time>2019-09-17T12:16:35.801Z</time>
      </trkpt>
      <trkpt lat="50.60354" lon="3.47232">
        <ele>18.087676</ele>
        <time>2019-09-17T12:16:40.205Z</time>
      </trkpt>
      <trkpt lat="50.60385" lon="3.47232">
        <ele>16.751591</ele>
        <time>2019-09-17T12:16:43.175Z</time>
      </trkpt>
      <trkpt lat="50.60496" lon="3.47205">
        <ele>11.86668</ele>
        <time>2019-09-17T12:16:53.858Z</time>
      </trkpt>
      <trkpt lat="50.60516" lon="3.47202">
        <ele>10.999264</ele>
        <time>2019-09-17T12:16:55.962Z</time>
      </trkpt>
      <trkpt lat="50.60535" lon="3.47205">
        <ele>10.184252</ele>
        <time>2019-09-17T12:16:57.722Z</time>
      </trkpt>
      <trkpt lat="50.60613" lon="3.47237">
        <ele>7.621531</ele>
        <time>2019-09-17T12:17:05.638Z</time>
      </trkpt>
      <trkpt lat="50.60758" lon="3.47353">
        <ele>4.874721</ele>
        <time>2019-09-17T12:17:23.011Z</time>
      </trkpt>
      <trkpt lat="50.60973" lon="3.47511">
        <ele>11.875449</ele>
        <time>2019-09-17T12:18:25.113Z</time>
      </trkpt>
      <trkpt lat="50.6098" lon="3.47517">
        <ele>12.290834</ele>
        <time>2019-09-17T12:18:28.724Z</time>
      </trkpt>
      <trkpt lat="50.61076" lon="3.47588">
        <ele>18.305852</ele>
        <time>2019-09-17T12:19:17.376Z</time>
      </trkpt>
      <trkpt lat="50.61119" lon="3.47603">
        <ele>21.315712</ele>
        <time>2019-09-17T12:19:38.548Z</time>
      </trkpt>
      <trkpt lat="50.61163" lon="3.47606">
        <ele>24.366677</ele>
        <time>2019-09-17T12:19:58.588Z</time>
      </trkpt>
      <trkpt lat="50.61212" lon="3.47601">
        <ele>27.717516</ele>
        <time>2019-09-17T12:20:17.595Z</time>
      </trkpt>
      <trkpt lat="50.6125" lon="3.47598">
        <ele>29.064079</ele>
        <time>2019-09-17T12:20:29.773Z</time>
      </trkpt>
      <trkpt lat="50.61314" lon="3.47606">
        <ele>30.580417</ele>
        <time>2019-09-17T12:20:46.771Z</time>
      </trkpt>
      <trkpt lat="50.61372" lon="3.47635">
        <ele>32.019791</ele>
        <time>2019-09-17T12:20:58.905Z</time>
      </trkpt>
      <trkpt lat="50.61462" lon="3.47684">
        <ele>32.530166</ele>
        <time>2019-09-17T12:21:13.316Z</time>
      </trkpt>
      <trkpt lat="50.61466" lon="3.47636">
        <ele>32.475058</ele>
        <time>2019-09-17T12:21:17.742Z</time>
      </trkpt>
      <trkpt lat="50.6152" lon="3.47351">
        <ele>31.467557</ele>
        <time>2019-09-17T12:21:42.477Z</time>
      </trkpt>
      <trkpt lat="50.6152" lon="3.4732">
        <ele>31.312629</ele>
        <time>2019-09-17T12:21:44.931Z</time>
      </trkpt>
      <trkpt lat="50.6153" lon="3.47319">
        <ele>31.234658</ele>
        <time>2019-09-17T12:21:46.552Z</time>
      </trkpt>
      <trkpt lat="50.61572" lon="3.47335">
        <ele>30.889145</ele>
        <time>2019-09-17T12:21:54.008Z</time>
      </trkpt>
      <trkpt lat="50.61588" lon="3.47334">
        <ele>30.694401</ele>
        <time>2019-09-17T12:21:56.785Z</time>
      </trkpt>
      <trkpt lat="50.61605" lon="3.47324">
        <ele>30.474732</ele>
        <time>2019-09-17T12:21:59.799Z</time>
      </trkpt>
      <trkpt lat="50.61623" lon="3.47297">
        <ele>30.173724</ele>
        <time>2019-09-17T12:22:04.030Z</time>
      </trkpt>
      <trkpt lat="50.61641" lon="3.47254">
        <ele>29.770655</ele>
        <time>2019-09-17T12:22:09.629Z</time>
      </trkpt>
      <trkpt lat="50.61646" lon="3.47231">
        <ele>29.584051</ele>
        <time>2019-09-17T12:22:12.133Z</time>
      </trkpt>
      <trkpt lat="50.61678" lon="3.47025">
        <ele>28.327326</ele>
        <time>2019-09-17T12:22:34.945Z</time>
      </trkpt>
      <trkpt lat="50.61682" lon="3.47002">
        <ele>28.23237</ele>
        <time>2019-09-17T12:22:37.786Z</time>
      </trkpt>
      <trkpt lat="50.61683" lon="3.46986">
        <ele>28.173031</ele>
        <time>2019-09-17T12:22:39.438Z</time>
      </trkpt>
      <trkpt lat="50.61694" lon="3.46906">
        <ele>27.85264</ele>
        <time>2019-09-17T12:22:49.496Z</time>
      </trkpt>
      <trkpt lat="50.61698" lon="3.46879">
        <ele>27.746096</ele>
        <time>2019-09-17T12:22:52.792Z</time>
      </trkpt>
      <trkpt lat="50.61695" lon="3.46819">
        <ele>27.697868</ele>
        <time>2019-09-17T12:23:00.622Z</time>
      </trkpt>
      <trkpt lat="50.6169" lon="3.46764">
        <ele>27.8908</ele>
        <time>2019-09-17T12:23:08.063Z</time>
      </trkpt>
      <trkpt lat="50.61692" lon="3.46679">
        <ele>28.189362</ele>
        <time>2019-09-17T12:23:20.631Z</time>
      </trkpt>
      <trkpt lat="50.61709" lon="3.46563">
        <ele>28.603966</ele>
        <time>2019-09-17T12:23:38.640Z</time>
      </trkpt>
      <trkpt lat="50.61711" lon="3.46408">
        <ele>28.859455</ele>
        <time>2019-09-17T12:24:00.566Z</time>
      </trkpt>
      <trkpt lat="50.61711" lon="3.464">
        <ele>28.873324</ele>
        <time>2019-09-17T12:24:01.805Z</time>
      </trkpt>
      <trkpt lat="50.61713" lon="3.46395">
        <ele>28.88252</ele>
        <time>2019-09-17T12:24:02.444Z</time>
      </trkpt>
      <trkpt lat="50.6172" lon="3.46243">
        <ele>28.919775</ele>
        <time>2019-09-17T12:24:21.589Z</time>
      </trkpt>
      <trkpt lat="50.61723" lon="3.46176">
        <ele>28.658043</ele>
        <time>2019-09-17T12:24:29.555Z</time>
      </trkpt>
      <trkpt lat="50.61716" lon="3.46153">
        <ele>28.560039</ele>
        <time>2019-09-17T12:24:32.430Z</time>
      </trkpt>
      <trkpt lat="50.61683" lon="3.4611">
        <ele>28.298981</ele>
        <time>2019-09-17T12:24:40.146Z</time>
      </trkpt>
      <trkpt lat="50.61682" lon="3.46092">
        <ele>28.227737</ele>
        <time>2019-09-17T12:24:42.190Z</time>
      </trkpt>
      <trkpt lat="50.61681" lon="3.46085">
        <ele>28.197998</ele>
        <time>2019-09-17T12:24:43.061Z</time>
      </trkpt>
      <trkpt lat="50.61681" lon="3.45992">
        <ele>27.803629</ele>
        <time>2019-09-17T12:24:53.496Z</time>
      </trkpt>
      <trkpt lat="50.61667" lon="3.45779">
        <ele>26.73519</ele>
        <time>2019-09-17T12:25:17.767Z</time>
      </trkpt>
      <trkpt lat="50.61641" lon="3.45579">
        <ele>25.721694</ele>
        <time>2019-09-17T12:25:41.081Z</time>
      </trkpt>
      <trkpt lat="50.6164" lon="3.45558">
        <ele>25.61455</ele>
        <time>2019-09-17T12:25:43.519Z</time>
      </trkpt>
      <trkpt lat="50.61651" lon="3.45518">
        <ele>25.405415</ele>
        <time>2019-09-17T12:25:48.314Z</time>
      </trkpt>
      <trkpt lat="50.6166" lon="3.45508">
        <ele>25.314646</ele>
        <time>2019-09-17T12:25:50.359Z</time>
      </trkpt>
      <trkpt lat="50.61692" lon="3.45475">
        <ele>25.019523</ele>
        <time>2019-09-17T12:25:57.036Z</time>
      </trkpt>
      <trkpt lat="50.61726" lon="3.45444">
        <ele>24.723635</ele>
        <time>2019-09-17T12:26:03.889Z</time>
      </trkpt>
      <trkpt lat="50.61743" lon="3.4543">
        <ele>24.584356</ele>
        <time>2019-09-17T12:26:07.180Z</time>
      </trkpt>
      <trkpt lat="50.61795" lon="3.45364">
        <ele>24.079096</ele>
        <time>2019-09-17T12:26:19.159Z</time>
      </trkpt>
      <trkpt lat="50.6181" lon="3.4535">
        <ele>23.9472</ele>
        <time>2019-09-17T12:26:22.276Z</time>
      </trkpt>
      <trkpt lat="50.61821" lon="3.45355">
        <ele>23.860074</ele>
        <time>2019-09-17T12:26:24.530Z</time>
      </trkpt>
      <trkpt lat="50.61851" lon="3.4537">
        <ele>23.85967</ele>
        <time>2019-09-17T12:26:30.481Z</time>
      </trkpt>
      <trkpt lat="50.61884" lon="3.45387">
        <ele>23.947172</ele>
        <time>2019-09-17T12:26:37.317Z</time>
      </trkpt>
      <trkpt lat="50.61966" lon="3.45458">
        <ele>24.181501</ele>
        <time>2019-09-17T12:26:57.719Z</time>
      </trkpt>
      <trkpt lat="50.62059" lon="3.45449">
        <ele>24.956095</ele>
        <time>2019-09-17T12:27:19.421Z</time>
      </trkpt>
      <trkpt lat="50.62075" lon="3.45456">
        <ele>25.137741</ele>
        <time>2019-09-17T12:27:23.901Z</time>
      </trkpt>
      <trkpt lat="50.62081" lon="3.45431">
        <ele>25.317531</ele>
        <time>2019-09-17T12:27:27.608Z</time>
      </trkpt>
      <trkpt lat="50.62097" lon="3.45343">
        <ele>25.946309</ele>
        <time>2019-09-17T12:27:42.771Z</time>
      </trkpt>
      <trkpt lat="50.62108" lon="3.45313">
        <ele>26.183438</ele>
        <time>2019-09-17T12:27:48.123Z</time>
      </trkpt>
      <trkpt lat="50.62145" lon="3.45249">
        <ele>26.764237</ele>
        <time>2019-09-17T12:28:02.962Z</time>
      </trkpt>
      <trkpt lat="50.62148" lon="3.4522">
        <ele>26.961252</ele>
        <time>2019-09-17T12:28:07.820Z</time>
      </trkpt>
      <trkpt lat="50.62135" lon="3.4515">
        <ele>27.448065</ele>
        <time>2019-09-17T12:28:19.206Z</time>
      </trkpt>
      <trkpt lat="50.62135" lon="3.45147">
        <ele>27.466866</ele>
        <time>2019-09-17T12:28:19.914Z</time>
      </trkpt>
      <trkpt lat="50.62138" lon="3.45044">
        <ele>28.037049</ele>
        <time>2019-09-17T12:28:34.984Z</time>
      </trkpt>
      <trkpt lat="50.62133" lon="3.44994">
        <ele>27.717115</ele>
        <time>2019-09-17T12:28:41.935Z</time>
      </trkpt>
      <trkpt lat="50.62124" lon="3.44947">
        <ele>27.401173</ele>
        <time>2019-09-17T12:28:47.619Z</time>
      </trkpt>
      <trkpt lat="50.6209" lon="3.44769">
        <ele>26.167319</ele>
        <time>2019-09-17T12:29:06.905Z</time>
      </trkpt>
      <trkpt lat="50.62086" lon="3.44732">
        <ele>25.765214</ele>
        <time>2019-09-17T12:29:10.470Z</time>
      </trkpt>
      <trkpt lat="50.62084" lon="3.4471">
        <ele>25.525994</ele>
        <time>2019-09-17T12:29:12.609Z</time>
      </trkpt>
      <trkpt lat="50.62071" lon="3.44504">
        <ele>23.261475</ele>
        <time>2019-09-17T12:29:33.696Z</time>
      </trkpt>
      <trkpt lat="50.62068" lon="3.4446">
        <ele>23.30854</ele>
        <time>2019-09-17T12:29:38.677Z</time>
      </trkpt>
      <trkpt lat="50.62063" lon="3.44405">
        <ele>23.44941</ele>
        <time>2019-09-17T12:29:45.652Z</time>
      </trkpt>
      <trkpt lat="50.62056" lon="3.44351">
        <ele>23.591833</ele>
        <time>2019-09-17T12:29:52.994Z</time>
      </trkpt>
      <trkpt lat="50.62079" lon="3.44305">
        <ele>23.741922</ele>
        <time>2019-09-17T12:30:08.304Z</time>
      </trkpt>
      <trkpt lat="50.62089" lon="3.44271">
        <ele>23.837752</ele>
        <time>2019-09-17T12:30:18.614Z</time>
      </trkpt>
      <trkpt lat="50.62105" lon="3.44239">
        <ele>23.980491</ele>
        <time>2019-09-17T12:30:29.847Z</time>
      </trkpt>
      <trkpt lat="50.62147" lon="3.44179">
        <ele>25.159037</ele>
        <time>2019-09-17T12:30:54.952Z</time>
      </trkpt>
      <trkpt lat="50.62164" lon="3.44163">
        <ele>25.571041</ele>
        <time>2019-09-17T12:31:04.300Z</time>
      </trkpt>
      <trkpt lat="50.62199" lon="3.44155">
        <ele>26.303363</ele>
        <time>2019-09-17T12:31:20.508Z</time>
      </trkpt>
      <trkpt lat="50.62217" lon="3.4415">
        <ele>26.67931</ele>
        <time>2019-09-17T12:31:28.577Z</time>
      </trkpt>
      <trkpt lat="50.6223" lon="3.44147">
        <ele>26.953965</ele>
        <time>2019-09-17T12:31:34.845Z</time>
      </trkpt>
      <trkpt lat="50.62246" lon="3.44129">
        <ele>27.354932</ele>
        <time>2019-09-17T12:31:43.621Z</time>
      </trkpt>
      <trkpt lat="50.62297" lon="3.44041">
        <ele>28.792068</ele>
        <time>2019-09-17T12:32:18.853Z</time>
      </trkpt>
      <trkpt lat="50.6231" lon="3.44004">
        <ele>29.291788</ele>
        <time>2019-09-17T12:32:31.051Z</time>
      </trkpt>
      <trkpt lat="50.62356" lon="3.43869">
        <ele>31.077301</ele>
        <time>2019-09-17T12:33:13.538Z</time>
      </trkpt>
      <trkpt lat="50.62371" lon="3.43846">
        <ele>31.363204</ele>
        <time>2019-09-17T12:33:22.212Z</time>
      </trkpt>
      <trkpt lat="50.62413" lon="3.43809">
        <ele>32.04236</ele>
        <time>2019-09-17T12:33:42.871Z</time>
      </trkpt>
      <trkpt lat="50.62449" lon="3.43901">
        <ele>33.001498</ele>
        <time>2019-09-17T12:33:56.473Z</time>
      </trkpt>
      <trkpt lat="50.62477" lon="3.43953">
        <ele>33.657821</ele>
        <time>2019-09-17T12:34:05.181Z</time>
      </trkpt>
      <trkpt lat="50.62505" lon="3.43977">
        <ele>34.343907</ele>
        <time>2019-09-17T12:34:11.618Z</time>
      </trkpt>
      <trkpt lat="50.62597" lon="3.44016">
        <ele>36.418447</ele>
        <time>2019-09-17T12:34:32.996Z</time>
      </trkpt>
      <trkpt lat="50.62701" lon="3.44059">
        <ele>39.27309</ele>
        <time>2019-09-17T12:35:03.600Z</time>
      </trkpt>
      <trkpt lat="50.6272" lon="3.44036">
        <ele>39.980568</ele>
        <time>2019-09-17T12:35:11.650Z</time>
      </trkpt>
      <trkpt lat="50.62745" lon="3.44011">
        <ele>40.887862</ele>
        <time>2019-09-17T12:35:22.091Z</time>
      </trkpt>
      <trkpt lat="50.62979" lon="3.43782">
        <ele>47.042831</ele>
        <time>2019-09-17T12:36:44.065Z</time>
      </trkpt>
      <trkpt lat="50.63037" lon="3.43725">
        <ele>47.159277</ele>
        <time>2019-09-17T12:36:59.309Z</time>
      </trkpt>
      <trkpt lat="50.63189" lon="3.43594">
        <ele>45.858864</ele>
        <time>2019-09-17T12:37:28.802Z</time>
      </trkpt>
      <trkpt lat="50.63424" lon="3.43357">
        <ele>41.037724</ele>
        <time>2019-09-17T12:38:12.663Z</time>
      </trkpt>
      <trkpt lat="50.63666" lon="3.43116">
        <ele>40.468337</ele>
        <time>2019-09-17T12:39:10.250Z</time>
      </trkpt>
      <trkpt lat="50.63866" lon="3.42917">
        <ele>40.322916</ele>
        <time>2019-09-17T12:39:59.046Z</time>
      </trkpt>
      <trkpt lat="50.63982" lon="3.4315">
        <ele>38.065837</ele>
        <time>2019-09-17T12:40:30.417Z</time>
      </trkpt>
      <trkpt lat="50.64111" lon="3.43497">
        <ele>34.368424</ele>
        <time>2019-09-17T12:41:12.251Z</time>
      </trkpt>
      <trkpt lat="50.64124" lon="3.43476">
        <ele>34.119996</ele>
        <time>2019-09-17T12:41:15.476Z</time>
      </trkpt>
      <trkpt lat="50.64159" lon="3.43431">
        <ele>33.530811</ele>
        <time>2019-09-17T12:41:23.084Z</time>
      </trkpt>
      <trkpt lat="50.64304" lon="3.43238">
        <ele>31.676173</ele>
        <time>2019-09-17T12:41:56.062Z</time>
      </trkpt>
      <trkpt lat="50.64338" lon="3.43192">
        <ele>31.377208</ele>
        <time>2019-09-17T12:42:04.273Z</time>
      </trkpt>
      <trkpt lat="50.64331" lon="3.43168">
        <ele>31.341196</ele>
        <time>2019-09-17T12:42:06.534Z</time>
      </trkpt>
      <trkpt lat="50.64325" lon="3.43126">
        <ele>31.28012</ele>
        <time>2019-09-17T12:42:10.331Z</time>
      </trkpt>
      <trkpt lat="50.64326" lon="3.4297">
        <ele>31.061608</ele>
        <time>2019-09-17T12:42:24.886Z</time>
      </trkpt>
      <trkpt lat="50.64328" lon="3.42754">
        <ele>30.872646</ele>
        <time>2019-09-17T12:42:45.262Z</time>
      </trkpt>
      <trkpt lat="50.64328" lon="3.42719">
        <ele>30.845492</ele>
        <time>2019-09-17T12:42:48.365Z</time>
      </trkpt>
      <trkpt lat="50.64326" lon="3.42676">
        <ele>30.812122</ele>
        <time>2019-09-17T12:42:52.138Z</time>
      </trkpt>
      <trkpt lat="50.64286" lon="3.42515">
        <ele>30.374227</ele>
        <time>2019-09-17T12:43:07.004Z</time>
      </trkpt>
      <trkpt lat="50.64278" lon="3.42396">
        <ele>30.037089</ele>
        <time>2019-09-17T12:43:17.093Z</time>
      </trkpt>
      <trkpt lat="50.64269" lon="3.42265">
        <ele>29.681289</ele>
        <time>2019-09-17T12:43:28.358Z</time>
      </trkpt>
      <trkpt lat="50.64221" lon="3.4199">
        <ele>28.740052</ele>
        <time>2019-09-17T12:43:52.648Z</time>
      </trkpt>
      <trkpt lat="50.64208" lon="3.4191">
        <ele>28.40119</ele>
        <time>2019-09-17T12:43:59.371Z</time>
      </trkpt>
      <trkpt lat="50.64235" lon="3.41916">
        <ele>28.223934</ele>
        <time>2019-09-17T12:44:02.821Z</time>
      </trkpt>
      <trkpt lat="50.64318" lon="3.41961">
        <ele>27.386474</ele>
        <time>2019-09-17T12:44:13.550Z</time>
      </trkpt>
      <trkpt lat="50.64328" lon="3.41974">
        <ele>27.244365</ele>
        <time>2019-09-17T12:44:15.125Z</time>
      </trkpt>
      <trkpt lat="50.64341" lon="3.41994">
        <ele>27.050691</ele>
        <time>2019-09-17T12:44:17.253Z</time>
      </trkpt>
      <trkpt lat="50.64345" lon="3.41973">
        <ele>26.89446</ele>
        <time>2019-09-17T12:44:19.726Z</time>
      </trkpt>
      <trkpt lat="50.64355" lon="3.41935">
        <ele>26.615528</ele>
        <time>2019-09-17T12:44:24.154Z</time>
      </trkpt>
      <trkpt lat="50.64364" lon="3.41874">
        <ele>26.187037</ele>
        <time>2019-09-17T12:44:30.922Z</time>
      </trkpt>
      <trkpt lat="50.6437" lon="3.4181">
        <ele>25.73419</ele>
        <time>2019-09-17T12:44:37.974Z</time>
      </trkpt>
      <trkpt lat="50.64371" lon="3.41749">
        <ele>25.316667</ele>
        <time>2019-09-17T12:44:44.434Z</time>
      </trkpt>
      <trkpt lat="50.64331" lon="3.4158">
        <ele>24.103412</ele>
        <time>2019-09-17T12:45:04.279Z</time>
      </trkpt>
      <trkpt lat="50.64325" lon="3.41541">
        <ele>23.954465</ele>
        <time>2019-09-17T12:45:08.803Z</time>
      </trkpt>
      <trkpt lat="50.64334" lon="3.41347">
        <ele>23.233808</ele>
        <time>2019-09-17T12:45:31.615Z</time>
      </trkpt>
      <trkpt lat="50.64335" lon="3.41332">
        <ele>23.18134</ele>
        <time>2019-09-17T12:45:33.232Z</time>
      </trkpt>
      <trkpt lat="50.64328" lon="3.41289">
        <ele>23.08306</ele>
        <time>2019-09-17T12:45:38.685Z</time>
      </trkpt>
      <trkpt lat="50.64302" lon="3.41185">
        <ele>23.015644</ele>
        <time>2019-09-17T12:45:52.613Z</time>
      </trkpt>
      <trkpt lat="50.64292" lon="3.41155">
        <ele>22.995864</ele>
        <time>2019-09-17T12:45:56.811Z</time>
      </trkpt>
      <trkpt lat="50.64283" lon="3.41119">
        <ele>22.972184</ele>
        <time>2019-09-17T12:46:01.816Z</time>
      </trkpt>
      <trkpt lat="50.64257" lon="3.41008">
        <ele>22.966763</ele>
        <time>2019-09-17T12:46:17.571Z</time>
      </trkpt>
      <trkpt lat="50.64223" lon="3.4083">
        <ele>23.150673</ele>
        <time>2019-09-17T12:46:42.010Z</time>
      </trkpt>
      <trkpt lat="50.64199" lon="3.40589">
        <ele>23.502686</ele>
        <time>2019-09-17T12:47:14.842Z</time>
      </trkpt>
      <trkpt lat="50.64206" lon="3.4034">
        <ele>23.552449</ele>
        <time>2019-09-17T12:47:48.408Z</time>
      </trkpt>
      <trkpt lat="50.64164" lon="3.40131">
        <ele>22.986805</ele>
        <time>2019-09-17T12:48:14.461Z</time>
      </trkpt>
      <trkpt lat="50.64142" lon="3.40029">
        <ele>22.406566</ele>
        <time>2019-09-17T12:48:26.268Z</time>
      </trkpt>
      <trkpt lat="50.64132" lon="3.39975">
        <ele>22.103865</ele>
        <time>2019-09-17T12:48:32.419Z</time>
      </trkpt>
      <trkpt lat="50.64119" lon="3.39964">
        <ele>21.978482</ele>
        <time>2019-09-17T12:48:34.168Z</time>
      </trkpt>
      <trkpt lat="50.641" lon="3.39951">
        <ele>21.909246</ele>
        <time>2019-09-17T12:48:36.707Z</time>
      </trkpt>
      <trkpt lat="50.64069" lon="3.3994">
        <ele>21.862277</ele>
        <time>2019-09-17T12:48:40.667Z</time>
      </trkpt>
      <trkpt lat="50.64051" lon="3.39935">
        <ele>21.836155</ele>
        <time>2019-09-17T12:48:42.966Z</time>
      </trkpt>
      <trkpt lat="50.64015" lon="3.39927">
        <ele>21.782018</ele>
        <time>2019-09-17T12:48:47.992Z</time>
      </trkpt>
      <trkpt lat="50.63994" lon="3.39921">
        <ele>21.751336</ele>
        <time>2019-09-17T12:48:51.088Z</time>
      </trkpt>
      <trkpt lat="50.63983" lon="3.39917">
        <ele>21.734264</ele>
        <time>2019-09-17T12:48:52.907Z</time>
      </trkpt>
      <trkpt lat="50.63962" lon="3.39911">
        <ele>21.70279</ele>
        <time>2019-09-17T12:48:56.504Z</time>
      </trkpt>
      <trkpt lat="50.63948" lon="3.39789">
        <ele>22.030139</ele>
        <time>2019-09-17T12:49:15.530Z</time>
      </trkpt>
      <trkpt lat="50.63951" lon="3.39599">
        <ele>22.846906</ele>
        <time>2019-09-17T12:49:43.070Z</time>
      </trkpt>
      <trkpt lat="50.63954" lon="3.39546">
        <ele>23.100505</ele>
        <time>2019-09-17T12:49:50.399Z</time>
      </trkpt>
      <trkpt lat="50.63955" lon="3.395">
        <ele>23.322166</ele>
        <time>2019-09-17T12:49:56.951Z</time>
      </trkpt>
      <trkpt lat="50.63955" lon="3.39451">
        <ele>23.557145</ele>
        <time>2019-09-17T12:50:04.089Z</time>
      </trkpt>
      <trkpt lat="50.63957" lon="3.39421">
        <ele>23.706623</ele>
        <time>2019-09-17T12:50:08.612Z</time>
      </trkpt>
      <trkpt lat="50.63966" lon="3.39352">
        <ele>24.047684</ele>
        <time>2019-09-17T12:50:19.035Z</time>
      </trkpt>
      <trkpt lat="50.63971" lon="3.39331">
        <ele>24.15208</ele>
        <time>2019-09-17T12:50:22.264Z</time>
      </trkpt>
      <trkpt lat="50.64008" lon="3.3935">
        <ele>24.826375</ele>
        <time>2019-09-17T12:50:31.388Z</time>
      </trkpt>
      <trkpt lat="50.64135" lon="3.39374">
        <ele>27.65371</ele>
        <time>2019-09-17T12:51:08.839Z</time>
      </trkpt>
      <trkpt lat="50.64492" lon="3.39416">
        <ele>40.891413</ele>
        <time>2019-09-17T12:53:13.944Z</time>
      </trkpt>
      <trkpt lat="50.64533" lon="3.39412">
        <ele>42.779713</ele>
        <time>2019-09-17T12:53:30.849Z</time>
      </trkpt>
      <trkpt lat="50.64625" lon="3.39401">
        <ele>48.003868</ele>
        <time>2019-09-17T12:54:10.714Z</time>
      </trkpt>
      <trkpt lat="50.64803" lon="3.39392">
        <ele>58.312094</ele>
        <time>2019-09-17T12:55:28.982Z</time>
      </trkpt>
      <trkpt lat="50.64873" lon="3.39368">
        <ele>62.570395</ele>
        <time>2019-09-17T12:56:00.950Z</time>
      </trkpt>
      <trkpt lat="50.64893" lon="3.39348">
        <ele>63.977069</ele>
        <time>2019-09-17T12:56:11.531Z</time>
      </trkpt>
      <trkpt lat="50.64986" lon="3.39367">
        <ele>69.471283</ele>
        <time>2019-09-17T12:56:50.322Z</time>
      </trkpt>
      <trkpt lat="50.64999" lon="3.39365">
        <ele>70.223742</ele>
        <time>2019-09-17T12:56:56.669Z</time>
      </trkpt>
      <trkpt lat="50.65044" lon="3.39341">
        <ele>73.045728</ele>
        <time>2019-09-17T12:57:18.223Z</time>
      </trkpt>
      <trkpt lat="50.65063" lon="3.39343">
        <ele>74.426799</ele>
        <time>2019-09-17T12:57:26.634Z</time>
      </trkpt>
      <trkpt lat="50.65087" lon="3.39352">
        <ele>76.323373</ele>
        <time>2019-09-17T12:57:37.476Z</time>
      </trkpt>
      <trkpt lat="50.65107" lon="3.39373">
        <ele>78.203153</ele>
        <time>2019-09-17T12:57:49.441Z</time>
      </trkpt>
      <trkpt lat="50.65118" lon="3.39401">
        <ele>79.839878</ele>
        <time>2019-09-17T12:57:59.375Z</time>
      </trkpt>
      <trkpt lat="50.65168" lon="3.39474">
        <ele>85.130546</ele>
        <time>2019-09-17T12:58:35.558Z</time>
      </trkpt>
      <trkpt lat="50.6522" lon="3.39537">
        <ele>90.79608</ele>
        <time>2019-09-17T12:59:14.987Z</time>
      </trkpt>
      <trkpt lat="50.65277" lon="3.39556">
        <ele>96.068377</ele>
        <time>2019-09-17T12:59:48.967Z</time>
      </trkpt>
      <trkpt lat="50.6536" lon="3.39584">
        <ele>103.860602</ele>
        <time>2019-09-17T13:00:37.446Z</time>
      </trkpt>
      <trkpt lat="50.65372" lon="3.39607">
        <ele>105.131118</ele>
        <time>2019-09-17T13:00:47.832Z</time>
      </trkpt>
      <trkpt lat="50.65401" lon="3.39634">
        <ele>107.356805</ele>
        <time>2019-09-17T13:01:04.540Z</time>
      </trkpt>
      <trkpt lat="50.6545" lon="3.39641">
        <ele>110.668285</ele>
        <time>2019-09-17T13:01:25.718Z</time>
      </trkpt>
      <trkpt lat="50.65501" lon="3.39675">
        <ele>114.345365</ele>
        <time>2019-09-17T13:01:50.224Z</time>
      </trkpt>
      <trkpt lat="50.65528" lon="3.39721">
        <ele>116.941381</ele>
        <time>2019-09-17T13:02:06.482Z</time>
      </trkpt>
      <trkpt lat="50.65542" lon="3.39724">
        <ele>117.913451</ele>
        <time>2019-09-17T13:02:14.644Z</time>
      </trkpt>
      <trkpt lat="50.65558" lon="3.39709">
        <ele>119.095558</ele>
        <time>2019-09-17T13:02:21.902Z</time>
      </trkpt>
      <trkpt lat="50.65571" lon="3.39685">
        <ele>120.453465</ele>
        <time>2019-09-17T13:02:33.326Z</time>
      </trkpt>
      <trkpt lat="50.65578" lon="3.39731">
        <ele>122.439044</ele>
        <time>2019-09-17T13:02:48.334Z</time>
      </trkpt>
      <trkpt lat="50.65592" lon="3.39822">
        <ele>126.345023</ele>
        <time>2019-09-17T13:03:14.565Z</time>
      </trkpt>
      <trkpt lat="50.65593" lon="3.39836">
        <ele>126.926387</ele>
        <time>2019-09-17T13:03:20.020Z</time>
      </trkpt>
      <trkpt lat="50.65593" lon="3.3985">
        <ele>127.503581</ele>
        <time>2019-09-17T13:03:24.376Z</time>
      </trkpt>
      <trkpt lat="50.65586" lon="3.3988">
        <ele>128.098983</ele>
        <time>2019-09-17T13:03:32.154Z</time>
      </trkpt>
      <trkpt lat="50.65579" lon="3.39904">
        <ele>128.471977</ele>
        <time>2019-09-17T13:03:41.018Z</time>
      </trkpt>
      <trkpt lat="50.65572" lon="3.39934">
        <ele>128.945256</ele>
        <time>2019-09-17T13:03:49.071Z</time>
      </trkpt>
      <trkpt lat="50.65567" lon="3.39964">
        <ele>129.388935</ele>
        <time>2019-09-17T13:03:57.655Z</time>
      </trkpt>
      <trkpt lat="50.65565" lon="3.39984">
        <ele>129.675255</ele>
        <time>2019-09-17T13:03:59.606Z</time>
      </trkpt>
      <trkpt lat="50.65545" lon="3.40158">
        <ele>131.311426</ele>
        <time>2019-09-17T13:04:23.336Z</time>
      </trkpt>
      <trkpt lat="50.65536" lon="3.40182">
        <ele>130.874792</ele>
        <time>2019-09-17T13:04:26.296Z</time>
      </trkpt>
      <trkpt lat="50.65535" lon="3.40186">
        <ele>130.808055</ele>
        <time>2019-09-17T13:04:26.779Z</time>
      </trkpt>
      <trkpt lat="50.65533" lon="3.40189">
        <ele>130.738605</ele>
        <time>2019-09-17T13:04:27.114Z</time>
      </trkpt>
      <trkpt lat="50.65508" lon="3.40242">
        <ele>129.695754</ele>
        <time>2019-09-17T13:04:33.419Z</time>
      </trkpt>
      <trkpt lat="50.65498" lon="3.40251">
        <ele>129.409048</ele>
        <time>2019-09-17T13:04:35.091Z</time>
      </trkpt>
      <trkpt lat="50.65491" lon="3.4012">
        <ele>127.326491</ele>
        <time>2019-09-17T13:04:47.327Z</time>
      </trkpt>
      <trkpt lat="50.65492" lon="3.40081">
        <ele>126.248851</ele>
        <time>2019-09-17T13:04:50.724Z</time>
      </trkpt>
      <trkpt lat="50.65491" lon="3.4012">
        <ele>125.162811</ele>
        <time>2019-09-17T13:04:54.433Z</time>
      </trkpt>
      <trkpt lat="50.65498" lon="3.40251">
        <ele>121.440786</ele>
        <time>2019-09-17T13:05:06.218Z</time>
      </trkpt>
      <trkpt lat="50.65495" lon="3.40271">
        <ele>120.86052</ele>
        <time>2019-09-17T13:05:07.976Z</time>
      </trkpt>
      <trkpt lat="50.65489" lon="3.40319">
        <ele>119.487217</ele>
        <time>2019-09-17T13:05:12.051Z</time>
      </trkpt>
      <trkpt lat="50.65485" lon="3.40349">
        <ele>118.094195</ele>
        <time>2019-09-17T13:05:14.621Z</time>
      </trkpt>
      <trkpt lat="50.65482" lon="3.40369">
        <ele>117.113905</ele>
        <time>2019-09-17T13:05:16.201Z</time>
      </trkpt>
      <trkpt lat="50.65478" lon="3.40403">
        <ele>115.407298</ele>
        <time>2019-09-17T13:05:19.097Z</time>
      </trkpt>
      <trkpt lat="50.65475" lon="3.40415">
        <ele>114.770374</ele>
        <time>2019-09-17T13:05:20.085Z</time>
      </trkpt>
      <trkpt lat="50.65256" lon="3.40487">
        <ele>99.118597</ele>
        <time>2019-09-17T13:05:48.012Z</time>
      </trkpt>
      <trkpt lat="50.65252" lon="3.40488">
        <ele>98.831741</ele>
        <time>2019-09-17T13:05:48.549Z</time>
      </trkpt>
      <trkpt lat="50.65223" lon="3.40496">
        <ele>97.049784</ele>
        <time>2019-09-17T13:05:52.986Z</time>
      </trkpt>
      <trkpt lat="50.65217" lon="3.40497">
        <ele>96.663477</ele>
        <time>2019-09-17T13:05:53.744Z</time>
      </trkpt>
      <trkpt lat="50.65211" lon="3.40502">
        <ele>96.247244</ele>
        <time>2019-09-17T13:05:54.922Z</time>
      </trkpt>
      <trkpt lat="50.65205" lon="3.4051">
        <ele>95.769939</ele>
        <time>2019-09-17T13:05:56.231Z</time>
      </trkpt>
      <trkpt lat="50.65202" lon="3.40521">
        <ele>95.313226</ele>
        <time>2019-09-17T13:05:57.364Z</time>
      </trkpt>
      <trkpt lat="50.65207" lon="3.40526">
        <ele>94.955984</ele>
        <time>2019-09-17T13:05:58.038Z</time>
      </trkpt>
      <trkpt lat="50.65237" lon="3.40567">
        <ele>94.426704</ele>
        <time>2019-09-17T13:06:02.299Z</time>
      </trkpt>
      <trkpt lat="50.65247" lon="3.40586">
        <ele>94.472104</ele>
        <time>2019-09-17T13:06:03.965Z</time>
      </trkpt>
      <trkpt lat="50.65312" lon="3.40696">
        <ele>94.750116</ele>
        <time>2019-09-17T13:06:22.207Z</time>
      </trkpt>
      <trkpt lat="50.65465" lon="3.41075">
        <ele>99.832919</ele>
        <time>2019-09-17T13:07:30.110Z</time>
      </trkpt>
      <trkpt lat="50.65489" lon="3.41169">
        <ele>100.832282</ele>
        <time>2019-09-17T13:07:44.074Z</time>
      </trkpt>
      <trkpt lat="50.65499" lon="3.41243">
        <ele>101.576977</ele>
        <time>2019-09-17T13:07:52.360Z</time>
      </trkpt>
      <trkpt lat="50.65502" lon="3.41273">
        <ele>101.550413</ele>
        <time>2019-09-17T13:07:55.953Z</time>
      </trkpt>
      <trkpt lat="50.65518" lon="3.41358">
        <ele>101.377438</ele>
        <time>2019-09-17T13:08:04.287Z</time>
      </trkpt>
      <trkpt lat="50.6555" lon="3.41455">
        <ele>101.165444</ele>
        <time>2019-09-17T13:08:13.570Z</time>
      </trkpt>
      <trkpt lat="50.65565" lon="3.41501">
        <ele>101.064693</ele>
        <time>2019-09-17T13:08:17.727Z</time>
      </trkpt>
      <trkpt lat="50.65582" lon="3.41522">
        <ele>100.652275</ele>
        <time>2019-09-17T13:08:20.218Z</time>
      </trkpt>
      <trkpt lat="50.65601" lon="3.41528">
        <ele>100.210246</ele>
        <time>2019-09-17T13:08:22.426Z</time>
      </trkpt>
      <trkpt lat="50.65703" lon="3.41515">
        <ele>97.830827</ele>
        <time>2019-09-17T13:08:33.761Z</time>
      </trkpt>
      <trkpt lat="50.65738" lon="3.41516">
        <ele>97.023947</ele>
        <time>2019-09-17T13:08:37.316Z</time>
      </trkpt>
      <trkpt lat="50.65817" lon="3.41541">
        <ele>92.366477</ele>
        <time>2019-09-17T13:08:44.906Z</time>
      </trkpt>
      <trkpt lat="50.65894" lon="3.41552">
        <ele>87.685284</ele>
        <time>2019-09-17T13:08:51.828Z</time>
      </trkpt>
      <trkpt lat="50.6607" lon="3.41541">
        <ele>75.736027</ele>
        <time>2019-09-17T13:09:07.518Z</time>
      </trkpt>
      <trkpt lat="50.66106" lon="3.4154">
        <ele>73.516797</ele>
        <time>2019-09-17T13:09:10.851Z</time>
      </trkpt>
      <trkpt lat="50.66109" lon="3.41556">
        <ele>73.3163</ele>
        <time>2019-09-17T13:09:11.914Z</time>
      </trkpt>
      <trkpt lat="50.6611" lon="3.41619">
        <ele>72.57982</ele>
        <time>2019-09-17T13:09:15.880Z</time>
      </trkpt>
      <trkpt lat="50.66088" lon="3.41783">
        <ele>70.632523</ele>
        <time>2019-09-17T13:09:28.796Z</time>
      </trkpt>
      <trkpt lat="50.66077" lon="3.41846">
        <ele>70.656018</ele>
        <time>2019-09-17T13:09:37.095Z</time>
      </trkpt>
      <trkpt lat="50.66065" lon="3.41921">
        <ele>71.410358</ele>
        <time>2019-09-17T13:09:47.528Z</time>
      </trkpt>
      <trkpt lat="50.66054" lon="3.41977">
        <ele>71.98104</ele>
        <time>2019-09-17T13:09:55.755Z</time>
      </trkpt>
      <trkpt lat="50.66051" lon="3.42054">
        <ele>72.736788</ele>
        <time>2019-09-17T13:10:06.982Z</time>
      </trkpt>
      <trkpt lat="50.66044" lon="3.42089">
        <ele>73.080225</ele>
        <time>2019-09-17T13:10:12.549Z</time>
      </trkpt>
      <trkpt lat="50.66001" lon="3.42204">
        <ele>73.487591</ele>
        <time>2019-09-17T13:10:30.590Z</time>
      </trkpt>
      <trkpt lat="50.65983" lon="3.42289">
        <ele>73.76094</ele>
        <time>2019-09-17T13:10:39.030Z</time>
      </trkpt>
      <trkpt lat="50.65948" lon="3.42378">
        <ele>73.055968</ele>
        <time>2019-09-17T13:10:46.894Z</time>
      </trkpt>
      <trkpt lat="50.65936" lon="3.42386">
        <ele>72.672804</ele>
        <time>2019-09-17T13:10:48.407Z</time>
      </trkpt>
      <trkpt lat="50.65923" lon="3.42397">
        <ele>72.217744</ele>
        <time>2019-09-17T13:10:49.937Z</time>
      </trkpt>
      <trkpt lat="50.65913" lon="3.42417">
        <ele>71.723612</ele>
        <time>2019-09-17T13:10:51.716Z</time>
      </trkpt>
      <trkpt lat="50.65853" lon="3.42587">
        <ele>67.933252</ele>
        <time>2019-09-17T13:11:03.779Z</time>
      </trkpt>
      <trkpt lat="50.65856" lon="3.42643">
        <ele>66.706241</ele>
        <time>2019-09-17T13:11:07.298Z</time>
      </trkpt>
      <trkpt lat="50.65857" lon="3.42659">
        <ele>66.359614</ele>
        <time>2019-09-17T13:11:08.274Z</time>
      </trkpt>
      <trkpt lat="50.65854" lon="3.4278">
        <ele>63.730694</ele>
        <time>2019-09-17T13:11:15.989Z</time>
      </trkpt>
      <trkpt lat="50.65836" lon="3.4287">
        <ele>62.018434</ele>
        <time>2019-09-17T13:11:22.166Z</time>
      </trkpt>
      <trkpt lat="50.65847" lon="3.42991">
        <ele>60.716253</ele>
        <time>2019-09-17T13:11:30.966Z</time>
      </trkpt>
      <trkpt lat="50.65845" lon="3.43095">
        <ele>59.622497</ele>
        <time>2019-09-17T13:11:38.830Z</time>
      </trkpt>
      <trkpt lat="50.65849" lon="3.43116">
        <ele>59.390669</ele>
        <time>2019-09-17T13:11:40.556Z</time>
      </trkpt>
      <trkpt lat="50.65858" lon="3.43129">
        <ele>59.290475</ele>
        <time>2019-09-17T13:11:42.047Z</time>
      </trkpt>
      <trkpt lat="50.65889" lon="3.43161">
        <ele>59.075166</ele>
        <time>2019-09-17T13:11:46.842Z</time>
      </trkpt>
      <trkpt lat="50.65893" lon="3.43186">
        <ele>58.980401</ele>
        <time>2019-09-17T13:11:48.957Z</time>
      </trkpt>
      <trkpt lat="50.65891" lon="3.43209">
        <ele>58.896703</ele>
        <time>2019-09-17T13:11:50.817Z</time>
      </trkpt>
      <trkpt lat="50.65884" lon="3.43243">
        <ele>58.766238</ele>
        <time>2019-09-17T13:11:53.725Z</time>
      </trkpt>
      <trkpt lat="50.65856" lon="3.43381">
        <ele>58.31864</ele>
        <time>2019-09-17T13:12:05.951Z</time>
      </trkpt>
      <trkpt lat="50.658" lon="3.43509">
        <ele>58.404336</ele>
        <time>2019-09-17T13:12:21.539Z</time>
      </trkpt>
      <trkpt lat="50.65779" lon="3.43498">
        <ele>58.423839</ele>
        <time>2019-09-17T13:12:25.880Z</time>
      </trkpt>
      <trkpt lat="50.65718" lon="3.43468">
        <ele>58.22457</ele>
        <time>2019-09-17T13:12:35.099Z</time>
      </trkpt>
      <trkpt lat="50.65671" lon="3.43464">
        <ele>57.545068</ele>
        <time>2019-09-17T13:12:41.381Z</time>
      </trkpt>
      <trkpt lat="50.65632" lon="3.43472">
        <ele>56.992034</ele>
        <time>2019-09-17T13:12:46.201Z</time>
      </trkpt>
      <trkpt lat="50.6563" lon="3.43572">
        <ele>56.083769</ele>
        <time>2019-09-17T13:12:53.099Z</time>
      </trkpt>
      <trkpt lat="50.65616" lon="3.43725">
        <ele>52.87599</ele>
        <time>2019-09-17T13:13:02.865Z</time>
      </trkpt>
      <trkpt lat="50.656" lon="3.4382">
        <ele>50.64366</ele>
        <time>2019-09-17T13:13:08.970Z</time>
      </trkpt>
      <trkpt lat="50.65571" lon="3.43951">
        <ele>47.925407</ele>
        <time>2019-09-17T13:13:17.803Z</time>
      </trkpt>
      <trkpt lat="50.65513" lon="3.4415">
        <ele>44.081991</ele>
        <time>2019-09-17T13:13:32.445Z</time>
      </trkpt>
      <trkpt lat="50.65509" lon="3.44161">
        <ele>43.888929</ele>
        <time>2019-09-17T13:13:33.341Z</time>
      </trkpt>
      <trkpt lat="50.65498" lon="3.44194">
        <ele>43.357163</ele>
        <time>2019-09-17T13:13:35.946Z</time>
      </trkpt>
      <trkpt lat="50.65411" lon="3.4435">
        <ele>40.343699</ele>
        <time>2019-09-17T13:13:50.183Z</time>
      </trkpt>
      <trkpt lat="50.6532" lon="3.44422">
        <ele>38.457454</ele>
        <time>2019-09-17T13:14:01.217Z</time>
      </trkpt>
      <trkpt lat="50.65317" lon="3.44432">
        <ele>38.316949</ele>
        <time>2019-09-17T13:14:02.050Z</time>
      </trkpt>
      <trkpt lat="50.65315" lon="3.44445">
        <ele>38.160243</ele>
        <time>2019-09-17T13:14:02.976Z</time>
      </trkpt>
      <trkpt lat="50.65335" lon="3.44515">
        <ele>37.256082</ele>
        <time>2019-09-17T13:14:08.420Z</time>
      </trkpt>
      <trkpt lat="50.65336" lon="3.44581">
        <ele>36.971129</ele>
        <time>2019-09-17T13:14:13.276Z</time>
      </trkpt>
      <trkpt lat="50.65371" lon="3.44714">
        <ele>37.026366</ele>
        <time>2019-09-17T13:14:25.848Z</time>
      </trkpt>
      <trkpt lat="50.65375" lon="3.44729">
        <ele>37.032836</ele>
        <time>2019-09-17T13:14:27.562Z</time>
      </trkpt>
      <trkpt lat="50.65381" lon="3.44753">
        <ele>37.042842</ele>
        <time>2019-09-17T13:14:30.804Z</time>
      </trkpt>
      <trkpt lat="50.65403" lon="3.44837">
        <ele>37.552546</ele>
        <time>2019-09-17T13:14:42.746Z</time>
      </trkpt>
      <trkpt lat="50.65406" lon="3.44859">
        <ele>37.884018</ele>
        <time>2019-09-17T13:14:46.039Z</time>
      </trkpt>
      <trkpt lat="50.65404" lon="3.4488">
        <ele>38.196891</ele>
        <time>2019-09-17T13:14:49.162Z</time>
      </trkpt>
      <trkpt lat="50.65397" lon="3.44915">
        <ele>38.746134</ele>
        <time>2019-09-17T13:14:54.640Z</time>
      </trkpt>
      <trkpt lat="50.65389" lon="3.44922">
        <ele>38.959271</ele>
        <time>2019-09-17T13:14:56.986Z</time>
      </trkpt>
      <trkpt lat="50.65375" lon="3.44939">
        <ele>39.367296</ele>
        <time>2019-09-17T13:15:00.971Z</time>
      </trkpt>
      <trkpt lat="50.65367" lon="3.44943">
        <ele>39.553485</ele>
        <time>2019-09-17T13:15:03.158Z</time>
      </trkpt>
      <trkpt lat="50.65374" lon="3.44965">
        <ele>39.921873</ele>
        <time>2019-09-17T13:15:07.248Z</time>
      </trkpt>
      <trkpt lat="50.65333" lon="3.45004">
        <ele>41.038203</ele>
        <time>2019-09-17T13:15:19.640Z</time>
      </trkpt>
      <trkpt lat="50.6529" lon="3.45037">
        <ele>42.372904</ele>
        <time>2019-09-17T13:15:32.797Z</time>
      </trkpt>
      <trkpt lat="50.65228" lon="3.4503">
        <ele>44.202307</ele>
        <time>2019-09-17T13:15:49.468Z</time>
      </trkpt>
      <trkpt lat="50.65194" lon="3.45042">
        <ele>45.209841</ele>
        <time>2019-09-17T13:15:58.661Z</time>
      </trkpt>
      <trkpt lat="50.65163" lon="3.45063">
        <ele>46.195175</ele>
        <time>2019-09-17T13:16:07.375Z</time>
      </trkpt>
      <trkpt lat="50.65111" lon="3.45119">
        <ele>47.874262</ele>
        <time>2019-09-17T13:16:23.581Z</time>
      </trkpt>
      <trkpt lat="50.65104" lon="3.45124">
        <ele>48.058297</ele>
        <time>2019-09-17T13:16:25.753Z</time>
      </trkpt>
      <trkpt lat="50.65093" lon="3.45133">
        <ele>48.386126</ele>
        <time>2019-09-17T13:16:29.111Z</time>
      </trkpt>
      <trkpt lat="50.65076" lon="3.45148">
        <ele>48.899996</ele>
        <time>2019-09-17T13:16:33.872Z</time>
      </trkpt>
      <trkpt lat="50.65049" lon="3.45189">
        <ele>49.888396</ele>
        <time>2019-09-17T13:16:43.534Z</time>
      </trkpt>
      <trkpt lat="50.65029" lon="3.45234">
        <ele>50.7951</ele>
        <time>2019-09-17T13:16:52.086Z</time>
      </trkpt>
      <trkpt lat="50.64968" lon="3.45377">
        <ele>53.328012</ele>
        <time>2019-09-17T13:17:18.413Z</time>
      </trkpt>
      <trkpt lat="50.64956" lon="3.45423">
        <ele>54.034238</ele>
        <time>2019-09-17T13:17:25.988Z</time>
      </trkpt>
      <trkpt lat="50.64942" lon="3.455">
        <ele>55.179562</ele>
        <time>2019-09-17T13:17:37.821Z</time>
      </trkpt>
      <trkpt lat="50.64923" lon="3.456">
        <ele>56.473568</ele>
        <time>2019-09-17T13:17:53.288Z</time>
      </trkpt>
      <trkpt lat="50.64921" lon="3.45607">
        <ele>56.569473</ele>
        <time>2019-09-17T13:17:54.381Z</time>
      </trkpt>
      <trkpt lat="50.64911" lon="3.45649">
        <ele>57.112391</ele>
        <time>2019-09-17T13:18:00.958Z</time>
      </trkpt>
      <trkpt lat="50.64868" lon="3.45742">
        <ele>58.522035</ele>
        <time>2019-09-17T13:18:17.635Z</time>
      </trkpt>
      <trkpt lat="50.64791" lon="3.45877">
        <ele>59.652304</ele>
        <time>2019-09-17T13:18:40.545Z</time>
      </trkpt>
      <trkpt lat="50.64537" lon="3.46302">
        <ele>60.710204</ele>
        <time>2019-09-17T13:19:37.902Z</time>
      </trkpt>
      <trkpt lat="50.64459" lon="3.4661">
        <ele>60.896959</ele>
        <time>2019-09-17T13:20:08.642Z</time>
      </trkpt>
      <trkpt lat="50.64394" lon="3.46898">
        <ele>61.944969</ele>
        <time>2019-09-17T13:20:41.494Z</time>
      </trkpt>
      <trkpt lat="50.64393" lon="3.46902">
        <ele>61.963218</ele>
        <time>2019-09-17T13:20:42.058Z</time>
      </trkpt>
      <trkpt lat="50.64375" lon="3.46964">
        <ele>62.446722</ele>
        <time>2019-09-17T13:20:50.600Z</time>
      </trkpt>
      <trkpt lat="50.64292" lon="3.47148">
        <ele>64.580743</ele>
        <time>2019-09-17T13:21:21.734Z</time>
      </trkpt>
      <trkpt lat="50.64257" lon="3.47199">
        <ele>64.893782</ele>
        <time>2019-09-17T13:21:31.120Z</time>
      </trkpt>
      <trkpt lat="50.64256" lon="3.47201">
        <ele>64.903089</ele>
        <time>2019-09-17T13:21:31.914Z</time>
      </trkpt>
      <trkpt lat="50.64203" lon="3.47276">
        <ele>65.16929</ele>
        <time>2019-09-17T13:21:45.010Z</time>
      </trkpt>
      <trkpt lat="50.64145" lon="3.47375">
        <ele>65.130563</ele>
        <time>2019-09-17T13:21:56.238Z</time>
      </trkpt>
      <trkpt lat="50.64102" lon="3.47418">
        <ele>64.055989</ele>
        <time>2019-09-17T13:22:01.942Z</time>
      </trkpt>
      <trkpt lat="50.64092" lon="3.47422">
        <ele>63.827721</ele>
        <time>2019-09-17T13:22:03.168Z</time>
      </trkpt>
      <trkpt lat="50.64087" lon="3.47424">
        <ele>63.721288</ele>
        <time>2019-09-17T13:22:03.663Z</time>
      </trkpt>
      <trkpt lat="50.63999" lon="3.47435">
        <ele>61.84993</ele>
        <time>2019-09-17T13:22:16.993Z</time>
      </trkpt>
      <trkpt lat="50.63873" lon="3.47451">
        <ele>58.750365</ele>
        <time>2019-09-17T13:22:35.490Z</time>
      </trkpt>
      <trkpt lat="50.63837" lon="3.47455">
        <ele>57.85973</ele>
        <time>2019-09-17T13:22:41.069Z</time>
      </trkpt>
      <trkpt lat="50.63834" lon="3.47456">
        <ele>57.7902</ele>
        <time>2019-09-17T13:22:41.518Z</time>
      </trkpt>
      <trkpt lat="50.63808" lon="3.47516">
        <ele>57.295445</ele>
        <time>2019-09-17T13:22:49.109Z</time>
      </trkpt>
      <trkpt lat="50.63806" lon="3.4752">
        <ele>57.314515</ele>
        <time>2019-09-17T13:22:49.531Z</time>
      </trkpt>
      <trkpt lat="50.63619" lon="3.47957">
        <ele>61.25133</ele>
        <time>2019-09-17T13:24:14.413Z</time>
      </trkpt>
      <trkpt lat="50.63606" lon="3.47988">
        <ele>61.995728</ele>
        <time>2019-09-17T13:24:23.420Z</time>
      </trkpt>
      <trkpt lat="50.6359" lon="3.48024">
        <ele>62.866723</ele>
        <time>2019-09-17T13:24:33.234Z</time>
      </trkpt>
      <trkpt lat="50.63567" lon="3.48077">
        <ele>64.175792</ele>
        <time>2019-09-17T13:24:48.509Z</time>
      </trkpt>
      <trkpt lat="50.63455" lon="3.48333">
        <ele>68.21915</ele>
        <time>2019-09-17T13:26:24.692Z</time>
      </trkpt>
      <trkpt lat="50.63427" lon="3.48343">
        <ele>68.535359</ele>
        <time>2019-09-17T13:26:34.890Z</time>
      </trkpt>
      <trkpt lat="50.63355" lon="3.48359">
        <ele>67.769012</ele>
        <time>2019-09-17T13:26:58.257Z</time>
      </trkpt>
      <trkpt lat="50.63294" lon="3.48371">
        <ele>65.211678</ele>
        <time>2019-09-17T13:27:15.874Z</time>
      </trkpt>
      <trkpt lat="50.6324" lon="3.48393">
        <ele>62.9005</ele>
        <time>2019-09-17T13:27:31.146Z</time>
      </trkpt>
      <trkpt lat="50.6315" lon="3.4841">
        <ele>58.499337</ele>
        <time>2019-09-17T13:27:55.078Z</time>
      </trkpt>
      <trkpt lat="50.6308" lon="3.48435">
        <ele>54.758426</ele>
        <time>2019-09-17T13:28:14.273Z</time>
      </trkpt>
      <trkpt lat="50.63065" lon="3.4844">
        <ele>53.923052</ele>
        <time>2019-09-17T13:28:18.587Z</time>
      </trkpt>
      <trkpt lat="50.63028" lon="3.48453">
        <ele>52.077271</ele>
        <time>2019-09-17T13:28:23.941Z</time>
      </trkpt>
      <trkpt lat="50.62978" lon="3.48466">
        <ele>51.764332</ele>
        <time>2019-09-17T13:28:31.857Z</time>
      </trkpt>
      <trkpt lat="50.62975" lon="3.48464">
        <ele>51.742126</ele>
        <time>2019-09-17T13:28:32.376Z</time>
      </trkpt>
      <trkpt lat="50.62922" lon="3.48482">
        <ele>51.409821</ele>
        <time>2019-09-17T13:28:41.462Z</time>
      </trkpt>
      <trkpt lat="50.62855" lon="3.48514">
        <ele>51.004642</ele>
        <time>2019-09-17T13:29:00.381Z</time>
      </trkpt>
      <trkpt lat="50.6282" lon="3.48502">
        <ele>51.744249</ele>
        <time>2019-09-17T13:29:11.058Z</time>
      </trkpt>
      <trkpt lat="50.62785" lon="3.48508">
        <ele>52.469621</ele>
        <time>2019-09-17T13:29:22.087Z</time>
      </trkpt>
      <trkpt lat="50.6274" lon="3.48478">
        <ele>53.492331</ele>
        <time>2019-09-17T13:29:36.683Z</time>
      </trkpt>
      <trkpt lat="50.62694" lon="3.48472">
        <ele>54.462583</ele>
        <time>2019-09-17T13:29:49.728Z</time>
      </trkpt>
      <trkpt lat="50.62649" lon="3.48485">
        <ele>54.811709</ele>
        <time>2019-09-17T13:30:01.610Z</time>
      </trkpt>
      <trkpt lat="50.62619" lon="3.48505">
        <ele>54.889473</ele>
        <time>2019-09-17T13:30:09.018Z</time>
      </trkpt>
      <trkpt lat="50.62596" lon="3.4851">
        <ele>54.947133</ele>
        <time>2019-09-17T13:30:14.293Z</time>
      </trkpt>
      <trkpt lat="50.62564" lon="3.48511">
        <ele>55.02475</ele>
        <time>2019-09-17T13:30:20.818Z</time>
      </trkpt>
      <trkpt lat="50.6249" lon="3.48499">
        <ele>54.927502</ele>
        <time>2019-09-17T13:30:34.048Z</time>
      </trkpt>
      <trkpt lat="50.62474" lon="3.48499">
        <ele>54.651032</ele>
        <time>2019-09-17T13:30:36.858Z</time>
      </trkpt>
      <trkpt lat="50.62441" lon="3.48508">
        <ele>54.102283</ele>
        <time>2019-09-17T13:30:42.441Z</time>
      </trkpt>
      <trkpt lat="50.62406" lon="3.48523">
        <ele>53.513674</ele>
        <time>2019-09-17T13:30:48.268Z</time>
      </trkpt>
      <trkpt lat="50.62406" lon="3.48553">
        <ele>53.204663</ele>
        <time>2019-09-17T13:30:51.290Z</time>
      </trkpt>
      <trkpt lat="50.62411" lon="3.48602">
        <ele>52.686048</ele>
        <time>2019-09-17T13:30:56.275Z</time>
      </trkpt>
      <trkpt lat="50.62428" lon="3.48625">
        <ele>52.32065</ele>
        <time>2019-09-17T13:30:59.728Z</time>
      </trkpt>
      <trkpt lat="50.62437" lon="3.48656">
        <ele>51.753788</ele>
        <time>2019-09-17T13:31:03.025Z</time>
      </trkpt>
      <trkpt lat="50.6244" lon="3.4869">
        <ele>51.061524</ele>
        <time>2019-09-17T13:31:06.392Z</time>
      </trkpt>
      <trkpt lat="50.62418" lon="3.48748">
        <ele>49.693088</ele>
        <time>2019-09-17T13:31:12.652Z</time>
      </trkpt>
      <trkpt lat="50.62352" lon="3.48864">
        <ele>46.549491</ele>
        <time>2019-09-17T13:31:26.994Z</time>
      </trkpt>
      <trkpt lat="50.62348" lon="3.48871">
        <ele>46.341589</ele>
        <time>2019-09-17T13:31:27.759Z</time>
      </trkpt>
      <trkpt lat="50.62304" lon="3.48913">
        <ele>44.424803</ele>
        <time>2019-09-17T13:31:35.054Z</time>
      </trkpt>
      <trkpt lat="50.62251" lon="3.48963">
        <ele>42.152308</ele>
        <time>2019-09-17T13:31:43.653Z</time>
      </trkpt>
      <trkpt lat="50.62237" lon="3.48978">
        <ele>41.506019</ele>
        <time>2019-09-17T13:31:46.109Z</time>
      </trkpt>
      <trkpt lat="50.62135" lon="3.49196">
        <ele>36.436467</ele>
        <time>2019-09-17T13:32:11.196Z</time>
      </trkpt>
      <trkpt lat="50.62126" lon="3.49226">
        <ele>35.87497</ele>
        <time>2019-09-17T13:32:14.504Z</time>
      </trkpt>
      <trkpt lat="50.62116" lon="3.4932">
        <ele>34.804132</ele>
        <time>2019-09-17T13:32:24.359Z</time>
      </trkpt>
      <trkpt lat="50.62116" lon="3.49347">
        <ele>34.684277</ele>
        <time>2019-09-17T13:32:27.276Z</time>
      </trkpt>
      <trkpt lat="50.62174" lon="3.49545">
        <ele>33.770199</ele>
        <time>2019-09-17T13:32:53.418Z</time>
      </trkpt>
      <trkpt lat="50.62184" lon="3.49642">
        <ele>34.01256</ele>
        <time>2019-09-17T13:33:06.795Z</time>
      </trkpt>
      <trkpt lat="50.62184" lon="3.49648">
        <ele>34.028261</ele>
        <time>2019-09-17T13:33:07.843Z</time>
      </trkpt>
      <trkpt lat="50.62188" lon="3.49704">
        <ele>34.16694</ele>
        <time>2019-09-17T13:33:15.695Z</time>
      </trkpt>
      <trkpt lat="50.62205" lon="3.49879">
        <ele>34.691838</ele>
        <time>2019-09-17T13:33:41.278Z</time>
      </trkpt>
      <trkpt lat="50.62235" lon="3.49989">
        <ele>35.162267</ele>
        <time>2019-09-17T13:33:58.312Z</time>
      </trkpt>
      <trkpt lat="50.62245" lon="3.50048">
        <ele>35.404865</ele>
        <time>2019-09-17T13:34:07.143Z</time>
      </trkpt>
      <trkpt lat="50.62256" lon="3.50303">
        <ele>36.865485</ele>
        <time>2019-09-17T13:34:45.331Z</time>
      </trkpt>
      <trkpt lat="50.62255" lon="3.50359">
        <ele>37.207496</ele>
        <time>2019-09-17T13:34:54.169Z</time>
      </trkpt>
      <trkpt lat="50.62278" lon="3.50438">
        <ele>38.27933</ele>
        <time>2019-09-17T13:35:08.230Z</time>
      </trkpt>
      <trkpt lat="50.62277" lon="3.50467">
        <ele>38.675958</ele>
        <time>2019-09-17T13:35:13.098Z</time>
      </trkpt>
      <trkpt lat="50.62261" lon="3.50577">
        <ele>40.220694</ele>
        <time>2019-09-17T13:35:34.787Z</time>
      </trkpt>
      <trkpt lat="50.62265" lon="3.50598">
        <ele>40.511311</ele>
        <time>2019-09-17T13:35:38.794Z</time>
      </trkpt>
      <trkpt lat="50.62276" lon="3.50608">
        <ele>40.774177</ele>
        <time>2019-09-17T13:35:42.629Z</time>
      </trkpt>
      <trkpt lat="50.62337" lon="3.50637">
        <ele>42.714603</ele>
        <time>2019-09-17T13:36:03.252Z</time>
      </trkpt>
      <trkpt lat="50.62358" lon="3.50651">
        <ele>43.465641</ele>
        <time>2019-09-17T13:36:11.335Z</time>
      </trkpt>
      <trkpt lat="50.62349" lon="3.50687">
        <ele>44.289113</ele>
        <time>2019-09-17T13:36:19.955Z</time>
      </trkpt>
      <trkpt lat="50.62336" lon="3.5081">
        <ele>46.936194</ele>
        <time>2019-09-17T13:36:47.797Z</time>
      </trkpt>
      <trkpt lat="50.6235" lon="3.50828">
        <ele>47.32051</ele>
        <time>2019-09-17T13:36:53.463Z</time>
      </trkpt>
      <trkpt lat="50.62394" lon="3.50876">
        <ele>47.963176</ele>
        <time>2019-09-17T13:37:10.334Z</time>
      </trkpt>
      <trkpt lat="50.62374" lon="3.50965">
        <ele>48.683363</ele>
        <time>2019-09-17T13:37:25.263Z</time>
      </trkpt>
      <trkpt lat="50.62366" lon="3.51">
        <ele>48.966432</ele>
        <time>2019-09-17T13:37:30.668Z</time>
      </trkpt>
      <trkpt lat="50.62362" lon="3.51022">
        <ele>49.138561</ele>
        <time>2019-09-17T13:37:33.692Z</time>
      </trkpt>
      <trkpt lat="50.62355" lon="3.51246">
        <ele>46.9567</ele>
        <time>2019-09-17T13:37:56.450Z</time>
      </trkpt>
      <trkpt lat="50.62349" lon="3.51273">
        <ele>46.603285</ele>
        <time>2019-09-17T13:37:59.091Z</time>
      </trkpt>
      <trkpt lat="50.6234" lon="3.51376">
        <ele>45.565632</ele>
        <time>2019-09-17T13:38:09.079Z</time>
      </trkpt>
      <trkpt lat="50.62334" lon="3.51401">
        <ele>45.368409</ele>
        <time>2019-09-17T13:38:11.779Z</time>
      </trkpt>
      <trkpt lat="50.62325" lon="3.51411">
        <ele>45.232611</ele>
        <time>2019-09-17T13:38:13.622Z</time>
      </trkpt>
      <trkpt lat="50.62259" lon="3.51449">
        <ele>44.419426</ele>
        <time>2019-09-17T13:38:25.302Z</time>
      </trkpt>
      <trkpt lat="50.62159" lon="3.51468">
        <ele>43.7899</ele>
        <time>2019-09-17T13:38:46.935Z</time>
      </trkpt>
      <trkpt lat="50.62059" lon="3.51483">
        <ele>43.751732</ele>
        <time>2019-09-17T13:39:07.915Z</time>
      </trkpt>
      <trkpt lat="50.62064" lon="3.51531">
        <ele>43.736408</ele>
        <time>2019-09-17T13:39:13.929Z</time>
      </trkpt>
      <trkpt lat="50.62098" lon="3.51668">
        <ele>42.827472</ele>
        <time>2019-09-17T13:39:30.347Z</time>
      </trkpt>
      <trkpt lat="50.62146" lon="3.5186">
        <ele>42.09795</ele>
        <time>2019-09-17T13:39:52.327Z</time>
      </trkpt>
      <trkpt lat="50.62159" lon="3.51883">
        <ele>42.147039</ele>
        <time>2019-09-17T13:39:55.739Z</time>
      </trkpt>
      <trkpt lat="50.62248" lon="3.5196">
        <ele>42.408958</ele>
        <time>2019-09-17T13:40:18.217Z</time>
      </trkpt>
      <trkpt lat="50.62564" lon="3.52137">
        <ele>50.756922</ele>
        <time>2019-09-17T13:42:02.515Z</time>
      </trkpt>
      <trkpt lat="50.62586" lon="3.52161">
        <ele>51.463674</ele>
        <time>2019-09-17T13:42:10.712Z</time>
      </trkpt>
      <trkpt lat="50.62645" lon="3.52268">
        <ele>53.333368</ele>
        <time>2019-09-17T13:42:38.045Z</time>
      </trkpt>
      <trkpt lat="50.62664" lon="3.52291">
        <ele>53.814565</ele>
        <time>2019-09-17T13:42:45.089Z</time>
      </trkpt>
      <trkpt lat="50.62766" lon="3.52359">
        <ele>55.573908</ele>
        <time>2019-09-17T13:43:14.038Z</time>
      </trkpt>
      <trkpt lat="50.628" lon="3.52382">
        <ele>55.820292</ele>
        <time>2019-09-17T13:43:22.852Z</time>
      </trkpt>
      <trkpt lat="50.62956" lon="3.52488">
        <ele>57.117151</ele>
        <time>2019-09-17T13:43:58.990Z</time>
      </trkpt>
      <trkpt lat="50.63039" lon="3.5256">
        <ele>58.041812</ele>
        <time>2019-09-17T13:44:21.916Z</time>
      </trkpt>
      <trkpt lat="50.63044" lon="3.52566">
        <ele>58.101163</ele>
        <time>2019-09-17T13:44:23.445Z</time>
      </trkpt>
      <trkpt lat="50.63051" lon="3.52546">
        <ele>58.237539</ele>
        <time>2019-09-17T13:44:27.412Z</time>
      </trkpt>
      <trkpt lat="50.63071" lon="3.52452">
        <ele>59.878994</ele>
        <time>2019-09-17T13:44:46.054Z</time>
      </trkpt>
      <trkpt lat="50.63087" lon="3.52385">
        <ele>61.105575</ele>
        <time>2019-09-17T13:45:00.068Z</time>
      </trkpt>
      <trkpt lat="50.63081" lon="3.52377">
        <ele>61.329853</ele>
        <time>2019-09-17T13:45:03.040Z</time>
      </trkpt>
      <trkpt lat="50.6305" lon="3.52349">
        <ele>62.290305</ele>
        <time>2019-09-17T13:45:14.441Z</time>
      </trkpt>
      <trkpt lat="50.6304" lon="3.52327">
        <ele>62.778412</ele>
        <time>2019-09-17T13:45:19.770Z</time>
      </trkpt>
      <trkpt lat="50.62995" lon="3.52079">
        <ele>68.533055</ele>
        <time>2019-09-17T13:46:17.332Z</time>
      </trkpt>
      <trkpt lat="50.62992" lon="3.5206">
        <ele>68.977763</ele>
        <time>2019-09-17T13:46:22.487Z</time>
      </trkpt>
      <trkpt lat="50.62994" lon="3.52041">
        <ele>69.426811</ele>
        <time>2019-09-17T13:46:26.259Z</time>
      </trkpt>
      <trkpt lat="50.63002" lon="3.52022">
        <ele>69.936959</ele>
        <time>2019-09-17T13:46:31.101Z</time>
      </trkpt>
      <trkpt lat="50.63173" lon="3.5189">
        <ele>76.405919</ele>
        <time>2019-09-17T13:47:34.587Z</time>
      </trkpt>
      <trkpt lat="50.63236" lon="3.51857">
        <ele>78.914894</ele>
        <time>2019-09-17T13:47:57.596Z</time>
      </trkpt>
      <trkpt lat="50.63242" lon="3.51844">
        <ele>79.290273</ele>
        <time>2019-09-17T13:48:01.382Z</time>
      </trkpt>
      <trkpt lat="50.63236" lon="3.51807">
        <ele>80.211716</ele>
        <time>2019-09-17T13:48:09.768Z</time>
      </trkpt>
      <trkpt lat="50.63217" lon="3.51766">
        <ele>81.415336</ele>
        <time>2019-09-17T13:48:21.359Z</time>
      </trkpt>
      <trkpt lat="50.63212" lon="3.51736">
        <ele>82.149815</ele>
        <time>2019-09-17T13:48:29.482Z</time>
      </trkpt>
      <trkpt lat="50.63209" lon="3.51712">
        <ele>82.646381</ele>
        <time>2019-09-17T13:48:35.255Z</time>
      </trkpt>
      <trkpt lat="50.63214" lon="3.51643">
        <ele>83.693621</ele>
        <time>2019-09-17T13:48:50.918Z</time>
      </trkpt>
      <trkpt lat="50.6322" lon="3.51606">
        <ele>84.274686</ele>
        <time>2019-09-17T13:48:59.558Z</time>
      </trkpt>
      <trkpt lat="50.63237" lon="3.51559">
        <ele>85.082223</ele>
        <time>2019-09-17T13:49:10.467Z</time>
      </trkpt>
      <trkpt lat="50.63264" lon="3.51514">
        <ele>86.010897</ele>
        <time>2019-09-17T13:49:21.563Z</time>
      </trkpt>
      <trkpt lat="50.63274" lon="3.51523">
        <ele>86.285622</ele>
        <time>2019-09-17T13:49:23.765Z</time>
      </trkpt>
      <trkpt lat="50.63317" lon="3.51535">
        <ele>86.248903</ele>
        <time>2019-09-17T13:49:32.804Z</time>
      </trkpt>
      <trkpt lat="50.63488" lon="3.51483">
        <ele>82.254594</ele>
        <time>2019-09-17T13:49:59.048Z</time>
      </trkpt>
      <trkpt lat="50.63509" lon="3.5148">
        <ele>81.528161</ele>
        <time>2019-09-17T13:50:01.906Z</time>
      </trkpt>
      <trkpt lat="50.63533" lon="3.51477">
        <ele>80.647083</ele>
        <time>2019-09-17T13:50:05.356Z</time>
      </trkpt>
      <trkpt lat="50.63586" lon="3.51442">
        <ele>78.596417</ele>
        <time>2019-09-17T13:50:13.482Z</time>
      </trkpt>
      <trkpt lat="50.63624" lon="3.51422">
        <ele>77.173393</ele>
        <time>2019-09-17T13:50:19.087Z</time>
      </trkpt>
      <trkpt lat="50.63638" lon="3.51466">
        <ele>76.116293</ele>
        <time>2019-09-17T13:50:22.168Z</time>
      </trkpt>
      <trkpt lat="50.63642" lon="3.51517">
        <ele>75.106189</ele>
        <time>2019-09-17T13:50:25.464Z</time>
      </trkpt>
      <trkpt lat="50.63644" lon="3.51539">
        <ele>74.67659</ele>
        <time>2019-09-17T13:50:26.867Z</time>
      </trkpt>
      <trkpt lat="50.6369" lon="3.51979">
        <ele>66.450947</ele>
        <time>2019-09-17T13:50:56.226Z</time>
      </trkpt>
      <trkpt lat="50.63745" lon="3.52198">
        <ele>62.588431</ele>
        <time>2019-09-17T13:51:12.212Z</time>
      </trkpt>
      <trkpt lat="50.6376" lon="3.52321">
        <ele>60.245171</ele>
        <time>2019-09-17T13:51:20.480Z</time>
      </trkpt>
      <trkpt lat="50.63759" lon="3.5246">
        <ele>57.0529</ele>
        <time>2019-09-17T13:51:29.274Z</time>
      </trkpt>
      <trkpt lat="50.63776" lon="3.52578">
        <ele>54.25912</ele>
        <time>2019-09-17T13:51:36.752Z</time>
      </trkpt>
      <trkpt lat="50.63799" lon="3.5271">
        <ele>50.987972</ele>
        <time>2019-09-17T13:51:45.244Z</time>
      </trkpt>
      <trkpt lat="50.63807" lon="3.52845">
        <ele>47.909323</ele>
        <time>2019-09-17T13:51:53.760Z</time>
      </trkpt>
      <trkpt lat="50.63812" lon="3.53167">
        <ele>44.165505</ele>
        <time>2019-09-17T13:52:16.142Z</time>
      </trkpt>
      <trkpt lat="50.63813" lon="3.53251">
        <ele>44.265657</ele>
        <time>2019-09-17T13:52:23.204Z</time>
      </trkpt>
      <trkpt lat="50.6381" lon="3.53265">
        <ele>44.282761</ele>
        <time>2019-09-17T13:52:24.777Z</time>
      </trkpt>
      <trkpt lat="50.63771" lon="3.53339">
        <ele>44.397267</ele>
        <time>2019-09-17T13:52:36.060Z</time>
      </trkpt>
      <trkpt lat="50.63723" lon="3.53429">
        <ele>46.202192</ele>
        <time>2019-09-17T13:52:54.845Z</time>
      </trkpt>
      <trkpt lat="50.63705" lon="3.53461">
        <ele>47.140009</ele>
        <time>2019-09-17T13:53:02.760Z</time>
      </trkpt>
      <trkpt lat="50.63703" lon="3.53497">
        <ele>47.933453</ele>
        <time>2019-09-17T13:53:10.383Z</time>
      </trkpt>
      <trkpt lat="50.637" lon="3.53627">
        <ele>50.759684</ele>
        <time>2019-09-17T13:53:36.267Z</time>
      </trkpt>
      <trkpt lat="50.63698" lon="3.53769">
        <ele>53.32006</ele>
        <time>2019-09-17T13:54:02.688Z</time>
      </trkpt>
      <trkpt lat="50.63693" lon="3.53782">
        <ele>53.590884</ele>
        <time>2019-09-17T13:54:04.964Z</time>
      </trkpt>
      <trkpt lat="50.6367" lon="3.53812">
        <ele>54.446782</ele>
        <time>2019-09-17T13:54:12.158Z</time>
      </trkpt>
      <trkpt lat="50.63641" lon="3.53862">
        <ele>55.670267</ele>
        <time>2019-09-17T13:54:21.913Z</time>
      </trkpt>
      <trkpt lat="50.636" lon="3.53954">
        <ele>56.268468</ele>
        <time>2019-09-17T13:54:35.398Z</time>
      </trkpt>
      <trkpt lat="50.63593" lon="3.53977">
        <ele>56.385632</ele>
        <time>2019-09-17T13:54:37.832Z</time>
      </trkpt>
      <trkpt lat="50.63574" lon="3.54023">
        <ele>56.632884</ele>
        <time>2019-09-17T13:54:43.470Z</time>
      </trkpt>
      <trkpt lat="50.63471" lon="3.5415">
        <ele>56.770028</ele>
        <time>2019-09-17T13:55:05.218Z</time>
      </trkpt>
      <trkpt lat="50.63458" lon="3.54169">
        <ele>56.692594</ele>
        <time>2019-09-17T13:55:07.762Z</time>
      </trkpt>
      <trkpt lat="50.63454" lon="3.54191">
        <ele>56.630583</ele>
        <time>2019-09-17T13:55:09.764Z</time>
      </trkpt>
      <trkpt lat="50.63463" lon="3.54227">
        <ele>56.522041</ele>
        <time>2019-09-17T13:55:12.971Z</time>
      </trkpt>
      <trkpt lat="50.63466" lon="3.5425">
        <ele>56.458226</ele>
        <time>2019-09-17T13:55:14.832Z</time>
      </trkpt>
      <trkpt lat="50.63463" lon="3.54271">
        <ele>56.396258</ele>
        <time>2019-09-17T13:55:16.572Z</time>
      </trkpt>
      <trkpt lat="50.63455" lon="3.54306">
        <ele>56.294551</ele>
        <time>2019-09-17T13:55:19.375Z</time>
      </trkpt>
      <trkpt lat="50.63547" lon="3.54632">
        <ele>51.649376</ele>
        <time>2019-09-17T13:55:43.719Z</time>
      </trkpt>
      <trkpt lat="50.63588" lon="3.5469">
        <ele>50.593176</ele>
        <time>2019-09-17T13:55:49.627Z</time>
      </trkpt>
      <trkpt lat="50.63759" lon="3.548">
        <ele>47.922778</ele>
        <time>2019-09-17T13:56:10.782Z</time>
      </trkpt>
      <trkpt lat="50.63835" lon="3.54698">
        <ele>47.185863</ele>
        <time>2019-09-17T13:56:24.017Z</time>
      </trkpt>
      <trkpt lat="50.63905" lon="3.54617">
        <ele>47.432863</ele>
        <time>2019-09-17T13:56:37.758Z</time>
      </trkpt>
      <trkpt lat="50.63967" lon="3.54545">
        <ele>47.655246</ele>
        <time>2019-09-17T13:56:51.643Z</time>
      </trkpt>
      <trkpt lat="50.63995" lon="3.54517">
        <ele>47.764805</ele>
        <time>2019-09-17T13:56:57.978Z</time>
      </trkpt>
      <trkpt lat="50.64133" lon="3.54416">
        <ele>48.028086</ele>
        <time>2019-09-17T13:57:22.239Z</time>
      </trkpt>
      <trkpt lat="50.64154" lon="3.54409">
        <ele>47.723496</ele>
        <time>2019-09-17T13:57:25.292Z</time>
      </trkpt>
      <trkpt lat="50.64165" lon="3.5442">
        <ele>47.542307</ele>
        <time>2019-09-17T13:57:26.776Z</time>
      </trkpt>
      <trkpt lat="50.64371" lon="3.54739">
        <ele>42.750196</ele>
        <time>2019-09-17T13:57:58.851Z</time>
      </trkpt>
      <trkpt lat="50.64457" lon="3.54873">
        <ele>41.244113</ele>
        <time>2019-09-17T13:58:12.492Z</time>
      </trkpt>
      <trkpt lat="50.64476" lon="3.54916">
        <ele>40.877108</ele>
        <time>2019-09-17T13:58:16.437Z</time>
      </trkpt>
      <trkpt lat="50.64558" lon="3.55286">
        <ele>41.041045</ele>
        <time>2019-09-17T13:58:54.780Z</time>
      </trkpt>
      <trkpt lat="50.64563" lon="3.55303">
        <ele>41.208842</ele>
        <time>2019-09-17T13:58:57.152Z</time>
      </trkpt>
      <trkpt lat="50.64569" lon="3.55322">
        <ele>41.402438</ele>
        <time>2019-09-17T13:58:59.890Z</time>
      </trkpt>
      <trkpt lat="50.64575" lon="3.55338">
        <ele>41.565431</ele>
        <time>2019-09-17T13:59:02.680Z</time>
      </trkpt>
      <trkpt lat="50.64638" lon="3.55486">
        <ele>43.173215</ele>
        <time>2019-09-17T13:59:27.526Z</time>
      </trkpt>
      <trkpt lat="50.64661" lon="3.55538">
        <ele>43.644809</ele>
        <time>2019-09-17T13:59:36.354Z</time>
      </trkpt>
      <trkpt lat="50.64685" lon="3.55573">
        <ele>43.999759</ele>
        <time>2019-09-17T13:59:42.654Z</time>
      </trkpt>
      <trkpt lat="50.64708" lon="3.55604">
        <ele>44.34433</ele>
        <time>2019-09-17T13:59:48.685Z</time>
      </trkpt>
      <trkpt lat="50.64721" lon="3.55621">
        <ele>44.521641</ele>
        <time>2019-09-17T13:59:51.758Z</time>
      </trkpt>
      <trkpt lat="50.64743" lon="3.55648">
        <ele>44.832145</ele>
        <time>2019-09-17T13:59:57.020Z</time>
      </trkpt>
      <trkpt lat="50.64715" lon="3.55707">
        <ele>45.30761</ele>
        <time>2019-09-17T14:00:07.851Z</time>
      </trkpt>
      <trkpt lat="50.64678" lon="3.55805">
        <ele>45.542578</ele>
        <time>2019-09-17T14:00:23.662Z</time>
      </trkpt>
      <trkpt lat="50.64638" lon="3.55884">
        <ele>45.749003</ele>
        <time>2019-09-17T14:00:37.435Z</time>
      </trkpt>
      <trkpt lat="50.64624" lon="3.55932">
        <ele>45.857353</ele>
        <time>2019-09-17T14:00:44.347Z</time>
      </trkpt>
      <trkpt lat="50.6461" lon="3.56112">
        <ele>45.616623</ele>
        <time>2019-09-17T14:01:06.857Z</time>
      </trkpt>
      <trkpt lat="50.64617" lon="3.56329">
        <ele>45.580923</ele>
        <time>2019-09-17T14:01:33.027Z</time>
      </trkpt>
      <trkpt lat="50.64591" lon="3.56466">
        <ele>45.751676</ele>
        <time>2019-09-17T14:01:52.106Z</time>
      </trkpt>
      <trkpt lat="50.64586" lon="3.5653">
        <ele>46.302073</ele>
        <time>2019-09-17T14:02:01.302Z</time>
      </trkpt>
      <trkpt lat="50.64583" lon="3.56542">
        <ele>46.520997</ele>
        <time>2019-09-17T14:02:03.328Z</time>
      </trkpt>
      <trkpt lat="50.64582" lon="3.56549">
        <ele>46.640112</ele>
        <time>2019-09-17T14:02:04.606Z</time>
      </trkpt>
      <trkpt lat="50.64564" lon="3.56585">
        <ele>47.420571</ele>
        <time>2019-09-17T14:02:11.197Z</time>
      </trkpt>
      <trkpt lat="50.64555" lon="3.56599">
        <ele>47.752102</ele>
        <time>2019-09-17T14:02:14.701Z</time>
      </trkpt>
      <trkpt lat="50.64512" lon="3.56661">
        <ele>49.296538</ele>
        <time>2019-09-17T14:02:29.905Z</time>
      </trkpt>
      <trkpt lat="50.64487" lon="3.56705">
        <ele>50.309511</ele>
        <time>2019-09-17T14:02:41.211Z</time>
      </trkpt>
      <trkpt lat="50.64484" lon="3.56713">
        <ele>50.455019</ele>
        <time>2019-09-17T14:02:43.196Z</time>
      </trkpt>
      <trkpt lat="50.64479" lon="3.5674">
        <ele>51.160857</ele>
        <time>2019-09-17T14:02:49.309Z</time>
      </trkpt>
      <trkpt lat="50.64463" lon="3.56796">
        <ele>52.825907</ele>
        <time>2019-09-17T14:03:01.746Z</time>
      </trkpt>
      <trkpt lat="50.64391" lon="3.56944">
        <ele>57.894718</ele>
        <time>2019-09-17T14:03:41.908Z</time>
      </trkpt>
      <trkpt lat="50.6435" lon="3.56998">
        <ele>59.007119</ele>
        <time>2019-09-17T14:03:56.228Z</time>
      </trkpt>
      <trkpt lat="50.64339" lon="3.57043">
        <ele>59.508568</ele>
        <time>2019-09-17T14:04:03.361Z</time>
      </trkpt>
      <trkpt lat="50.64333" lon="3.57073">
        <ele>59.822058</ele>
        <time>2019-09-17T14:04:08.004Z</time>
      </trkpt>
      <trkpt lat="50.64319" lon="3.57131">
        <ele>60.460659</ele>
        <time>2019-09-17T14:04:15.305Z</time>
      </trkpt>
      <trkpt lat="50.6432" lon="3.57144">
        <ele>60.596181</ele>
        <time>2019-09-17T14:04:16.421Z</time>
      </trkpt>
      <trkpt lat="50.64334" lon="3.57175">
        <ele>60.991967</ele>
        <time>2019-09-17T14:04:20.550Z</time>
      </trkpt>
      <trkpt lat="50.64345" lon="3.57199">
        <ele>61.252831</ele>
        <time>2019-09-17T14:04:22.864Z</time>
      </trkpt>
      <trkpt lat="50.64373" lon="3.57262">
        <ele>61.594097</ele>
        <time>2019-09-17T14:04:29.172Z</time>
      </trkpt>
      <trkpt lat="50.64398" lon="3.57289">
        <ele>61.802078</ele>
        <time>2019-09-17T14:04:33.571Z</time>
      </trkpt>
      <trkpt lat="50.64418" lon="3.57303">
        <ele>61.952299</ele>
        <time>2019-09-17T14:04:37.203Z</time>
      </trkpt>
      <trkpt lat="50.6446" lon="3.5733">
        <ele>62.265627</ele>
        <time>2019-09-17T14:04:45.011Z</time>
      </trkpt>
      <trkpt lat="50.64497" lon="3.57353">
        <ele>63.061581</ele>
        <time>2019-09-17T14:04:54.414Z</time>
      </trkpt>
      <trkpt lat="50.64503" lon="3.57356">
        <ele>63.37594</ele>
        <time>2019-09-17T14:04:55.424Z</time>
      </trkpt>
      <trkpt lat="50.64496" lon="3.57362">
        <ele>63.782826</ele>
        <time>2019-09-17T14:04:58.843Z</time>
      </trkpt>
      <trkpt lat="50.64449" lon="3.57393">
        <ele>66.481421</ele>
        <time>2019-09-17T14:05:14.479Z</time>
      </trkpt>
      <trkpt lat="50.64381" lon="3.5741">
        <ele>70.080138</ele>
        <time>2019-09-17T14:05:41.720Z</time>
      </trkpt>
      <trkpt lat="50.6434" lon="3.57437">
        <ele>72.549694</ele>
        <time>2019-09-17T14:06:01.856Z</time>
      </trkpt>
      <trkpt lat="50.64201" lon="3.57557">
        <ele>83.722992</ele>
        <time>2019-09-17T14:07:14.390Z</time>
      </trkpt>
      <trkpt lat="50.64076" lon="3.57743">
        <ele>89.459177</ele>
        <time>2019-09-17T14:08:07.445Z</time>
      </trkpt>
      <trkpt lat="50.64074" lon="3.57748">
        <ele>89.581358</ele>
        <time>2019-09-17T14:08:07.802Z</time>
      </trkpt>
      <trkpt lat="50.63953" lon="3.57873">
        <ele>86.479614</ele>
        <time>2019-09-17T14:08:22.941Z</time>
      </trkpt>
      <trkpt lat="50.63939" lon="3.57894">
        <ele>85.92594</ele>
        <time>2019-09-17T14:08:24.770Z</time>
      </trkpt>
      <trkpt lat="50.6392" lon="3.5792">
        <ele>85.223047</ele>
        <time>2019-09-17T14:08:27.151Z</time>
      </trkpt>
      <trkpt lat="50.63852" lon="3.58029">
        <ele>81.826455</ele>
        <time>2019-09-17T14:08:36.569Z</time>
      </trkpt>
      <trkpt lat="50.6384" lon="3.58043">
        <ele>81.271409</ele>
        <time>2019-09-17T14:08:38.038Z</time>
      </trkpt>
      <trkpt lat="50.63819" lon="3.58098">
        <ele>79.822443</ele>
        <time>2019-09-17T14:08:44.031Z</time>
      </trkpt>
      <trkpt lat="50.63793" lon="3.58133">
        <ele>78.611957</ele>
        <time>2019-09-17T14:08:49.356Z</time>
      </trkpt>
      <trkpt lat="50.63742" lon="3.5817">
        <ele>77.664614</ele>
        <time>2019-09-17T14:08:58.295Z</time>
      </trkpt>
      <trkpt lat="50.63732" lon="3.58181">
        <ele>77.458858</ele>
        <time>2019-09-17T14:08:59.560Z</time>
      </trkpt>
      <trkpt lat="50.63694" lon="3.58217">
        <ele>76.713353</ele>
        <time>2019-09-17T14:09:06.966Z</time>
      </trkpt>
      <trkpt lat="50.63658" lon="3.58269">
        <ele>75.885131</ele>
        <time>2019-09-17T14:09:15.147Z</time>
      </trkpt>
      <trkpt lat="50.636" lon="3.58335">
        <ele>74.726439</ele>
        <time>2019-09-17T14:09:26.995Z</time>
      </trkpt>
      <trkpt lat="50.6355" lon="3.58409">
        <ele>73.63884</ele>
        <time>2019-09-17T14:09:38.165Z</time>
      </trkpt>
      <trkpt lat="50.63523" lon="3.58456">
        <ele>72.99665</ele>
        <time>2019-09-17T14:09:44.764Z</time>
      </trkpt>
      <trkpt lat="50.63455" lon="3.58522">
        <ele>71.527327</ele>
        <time>2019-09-17T14:09:57.646Z</time>
      </trkpt>
      <trkpt lat="50.63426" lon="3.58564">
        <ele>70.762916</ele>
        <time>2019-09-17T14:10:04.030Z</time>
      </trkpt>
      <trkpt lat="50.63422" lon="3.58586">
        <ele>70.481752</ele>
        <time>2019-09-17T14:10:06.380Z</time>
      </trkpt>
      <trkpt lat="50.63423" lon="3.58634">
        <ele>69.891745</ele>
        <time>2019-09-17T14:10:11.235Z</time>
      </trkpt>
      <trkpt lat="50.63418" lon="3.5865">
        <ele>69.666349</ele>
        <time>2019-09-17T14:10:13.081Z</time>
      </trkpt>
      <trkpt lat="50.63073" lon="3.58804">
        <ele>59.786502</ele>
        <time>2019-09-17T14:11:06.387Z</time>
      </trkpt>
      <trkpt lat="50.62869" lon="3.58888">
        <ele>54.426762</ele>
        <time>2019-09-17T14:11:37.672Z</time>
      </trkpt>
      <trkpt lat="50.62846" lon="3.58887">
        <ele>54.507885</ele>
        <time>2019-09-17T14:11:41.801Z</time>
      </trkpt>
      <trkpt lat="50.62785" lon="3.58943">
        <ele>54.754847</ele>
        <time>2019-09-17T14:11:56.338Z</time>
      </trkpt>
      <trkpt lat="50.62703" lon="3.5898">
        <ele>55.152563</ele>
        <time>2019-09-17T14:12:19.430Z</time>
      </trkpt>
      <trkpt lat="50.62644" lon="3.58991">
        <ele>56.320443</ele>
        <time>2019-09-17T14:12:37.117Z</time>
      </trkpt>
      <trkpt lat="50.62561" lon="3.59041">
        <ele>58.041093</ele>
        <time>2019-09-17T14:13:02.482Z</time>
      </trkpt>
      <trkpt lat="50.62504" lon="3.5904">
        <ele>58.749407</ele>
        <time>2019-09-17T14:13:17.864Z</time>
      </trkpt>
      <trkpt lat="50.62335" lon="3.59026">
        <ele>59.747191</ele>
        <time>2019-09-17T14:13:54.953Z</time>
      </trkpt>
      <trkpt lat="50.6233" lon="3.59084">
        <ele>59.670164</ele>
        <time>2019-09-17T14:14:00.057Z</time>
      </trkpt>
      <trkpt lat="50.62327" lon="3.59101">
        <ele>59.647675</ele>
        <time>2019-09-17T14:14:01.523Z</time>
      </trkpt>
      <trkpt lat="50.62301" lon="3.59121">
        <ele>59.586999</ele>
        <time>2019-09-17T14:14:05.481Z</time>
      </trkpt>
      <trkpt lat="50.62289" lon="3.5914">
        <ele>59.552602</ele>
        <time>2019-09-17T14:14:07.684Z</time>
      </trkpt>
      <trkpt lat="50.6226" lon="3.59249">
        <ele>59.428705</ele>
        <time>2019-09-17T14:14:17.940Z</time>
      </trkpt>
      <trkpt lat="50.62213" lon="3.59335">
        <ele>59.498173</ele>
        <time>2019-09-17T14:14:28.480Z</time>
      </trkpt>
      <trkpt lat="50.62212" lon="3.59339">
        <ele>59.501167</ele>
        <time>2019-09-17T14:14:29.127Z</time>
      </trkpt>
      <trkpt lat="50.62153" lon="3.59543">
        <ele>59.612311</ele>
        <time>2019-09-17T14:14:51.705Z</time>
      </trkpt>
      <trkpt lat="50.6208" lon="3.59712">
        <ele>59.663915</ele>
        <time>2019-09-17T14:15:11.328Z</time>
      </trkpt>
      <trkpt lat="50.62049" lon="3.5983">
        <ele>59.154753</ele>
        <time>2019-09-17T14:15:22.184Z</time>
      </trkpt>
      <trkpt lat="50.62037" lon="3.59863">
        <ele>58.997461</ele>
        <time>2019-09-17T14:15:25.305Z</time>
      </trkpt>
      <trkpt lat="50.62017" lon="3.59897">
        <ele>58.804575</ele>
        <time>2019-09-17T14:15:29.056Z</time>
      </trkpt>
      <trkpt lat="50.61994" lon="3.59925">
        <ele>58.61667</ele>
        <time>2019-09-17T14:15:32.575Z</time>
      </trkpt>
      <trkpt lat="50.61968" lon="3.60101">
        <ele>56.932585</ele>
        <time>2019-09-17T14:15:46.057Z</time>
      </trkpt>
      <trkpt lat="50.61964" lon="3.60249">
        <ele>55.372699</ele>
        <time>2019-09-17T14:15:56.404Z</time>
      </trkpt>
      <trkpt lat="50.61961" lon="3.6039">
        <ele>53.666709</ele>
        <time>2019-09-17T14:16:06.077Z</time>
      </trkpt>
      <trkpt lat="50.61942" lon="3.60418">
        <ele>53.165436</ele>
        <time>2019-09-17T14:16:10.296Z</time>
      </trkpt>
      <trkpt lat="50.61919" lon="3.60441">
        <ele>52.655569</ele>
        <time>2019-09-17T14:16:14.643Z</time>
      </trkpt>
      <trkpt lat="50.61874" lon="3.60443">
        <ele>52.016796</ele>
        <time>2019-09-17T14:16:22.113Z</time>
      </trkpt>
      <trkpt lat="50.6187" lon="3.60446">
        <ele>51.988014</ele>
        <time>2019-09-17T14:16:22.820Z</time>
      </trkpt>
      <trkpt lat="50.61867" lon="3.60453">
        <ele>51.958719</ele>
        <time>2019-09-17T14:16:23.643Z</time>
      </trkpt>
      <trkpt lat="50.61866" lon="3.60458">
        <ele>51.936445</ele>
        <time>2019-09-17T14:16:24.275Z</time>
      </trkpt>
      <trkpt lat="50.61866" lon="3.60467">
        <ele>51.902446</ele>
        <time>2019-09-17T14:16:25.262Z</time>
      </trkpt>
      <trkpt lat="50.61811" lon="3.60483">
        <ele>51.575209</ele>
        <time>2019-09-17T14:16:34.945Z</time>
      </trkpt>
      <trkpt lat="50.61807" lon="3.605">
        <ele>51.504982</ele>
        <time>2019-09-17T14:16:37.024Z</time>
      </trkpt>
      <trkpt lat="50.61801" lon="3.60514">
        <ele>51.442929</ele>
        <time>2019-09-17T14:16:39.067Z</time>
      </trkpt>
      <trkpt lat="50.61795" lon="3.60531">
        <ele>51.368087</ele>
        <time>2019-09-17T14:16:41.730Z</time>
      </trkpt>
      <trkpt lat="50.61783" lon="3.60531">
        <ele>51.298546</ele>
        <time>2019-09-17T14:16:43.124Z</time>
      </trkpt>
      <trkpt lat="50.6165" lon="3.60615">
        <ele>52.15343</ele>
        <time>2019-09-17T14:17:07.954Z</time>
      </trkpt>
      <trkpt lat="50.61637" lon="3.60602">
        <ele>52.327864</ele>
        <time>2019-09-17T14:17:11.174Z</time>
      </trkpt>
      <trkpt lat="50.6162" lon="3.60557">
        <ele>52.687605</ele>
        <time>2019-09-17T14:17:18.184Z</time>
      </trkpt>
      <trkpt lat="50.6154" lon="3.60343">
        <ele>55.395371</ele>
        <time>2019-09-17T14:17:54.346Z</time>
      </trkpt>
      <trkpt lat="50.61493" lon="3.6021">
        <ele>56.918856</ele>
        <time>2019-09-17T14:18:15.506Z</time>
      </trkpt>
      <trkpt lat="50.61402" lon="3.59956">
        <ele>59.124958</ele>
        <time>2019-09-17T14:18:50.289Z</time>
      </trkpt>
      <trkpt lat="50.61313" lon="3.59639">
        <ele>61.876446</ele>
        <time>2019-09-17T14:19:32.807Z</time>
      </trkpt>
      <trkpt lat="50.61292" lon="3.59536">
        <ele>62.913481</ele>
        <time>2019-09-17T14:19:47.829Z</time>
      </trkpt>
      <trkpt lat="50.61283" lon="3.59436">
        <ele>64.205804</ele>
        <time>2019-09-17T14:20:02.715Z</time>
      </trkpt>
      <trkpt lat="50.61283" lon="3.59102">
        <ele>68.655379</ele>
        <time>2019-09-17T14:20:54.475Z</time>
      </trkpt>
      <trkpt lat="50.61279" lon="3.59037">
        <ele>69.39445</ele>
        <time>2019-09-17T14:21:03.909Z</time>
      </trkpt>
      <trkpt lat="50.61234" lon="3.58851">
        <ele>70.536131</ele>
        <time>2019-09-17T14:21:27.754Z</time>
      </trkpt>
      <trkpt lat="50.61224" lon="3.58761">
        <ele>70.556831</ele>
        <time>2019-09-17T14:21:36.213Z</time>
      </trkpt>
      <trkpt lat="50.61244" lon="3.58513">
        <ele>69.435593</ele>
        <time>2019-09-17T14:21:55.607Z</time>
      </trkpt>
      <trkpt lat="50.61259" lon="3.58355">
        <ele>68.458494</ele>
        <time>2019-09-17T14:22:07.481Z</time>
      </trkpt>
      <trkpt lat="50.61264" lon="3.58301">
        <ele>68.374743</ele>
        <time>2019-09-17T14:22:11.890Z</time>
      </trkpt>
      <trkpt lat="50.61247" lon="3.583">
        <ele>68.333134</ele>
        <time>2019-09-17T14:22:14.703Z</time>
      </trkpt>
      <trkpt lat="50.6123" lon="3.58307">
        <ele>68.290368</ele>
        <time>2019-09-17T14:22:18.633Z</time>
      </trkpt>
      <trkpt lat="50.61247" lon="3.583">
        <ele>68.247602</ele>
        <time>2019-09-17T14:22:21.656Z</time>
      </trkpt>
      <trkpt lat="50.61264" lon="3.58301">
        <ele>68.205993</ele>
        <time>2019-09-17T14:22:25.718Z</time>
      </trkpt>
      <trkpt lat="50.61277" lon="3.58199">
        <ele>68.222714</ele>
        <time>2019-09-17T14:22:36.248Z</time>
      </trkpt>
      <trkpt lat="50.61355" lon="3.5793">
        <ele>70.658221</ele>
        <time>2019-09-17T14:23:15.877Z</time>
      </trkpt>
      <trkpt lat="50.61386" lon="3.57799">
        <ele>71.494405</ele>
        <time>2019-09-17T14:23:33.931Z</time>
      </trkpt>
      <trkpt lat="50.61393" lon="3.57755">
        <ele>71.765104</ele>
        <time>2019-09-17T14:23:38.968Z</time>
      </trkpt>
      <trkpt lat="50.61385" lon="3.57659">
        <ele>71.935527</ele>
        <time>2019-09-17T14:23:48.629Z</time>
      </trkpt>
      <trkpt lat="50.61376" lon="3.57629">
        <ele>71.65776</ele>
        <time>2019-09-17T14:23:51.736Z</time>
      </trkpt>
      <trkpt lat="50.61335" lon="3.57651">
        <ele>71.078292</ele>
        <time>2019-09-17T14:23:57.178Z</time>
      </trkpt>
      <trkpt lat="50.61241" lon="3.57712">
        <ele>69.628585</ele>
        <time>2019-09-17T14:24:08.418Z</time>
      </trkpt>
      <trkpt lat="50.61225" lon="3.57715">
        <ele>69.007393</ele>
        <time>2019-09-17T14:24:10.042Z</time>
      </trkpt>
      <trkpt lat="50.61111" lon="3.57701">
        <ele>64.554535</ele>
        <time>2019-09-17T14:24:21.311Z</time>
      </trkpt>
      <trkpt lat="50.61079" lon="3.57704">
        <ele>63.308015</ele>
        <time>2019-09-17T14:24:24.374Z</time>
      </trkpt>
      <trkpt lat="50.61048" lon="3.57727">
        <ele>61.829556</ele>
        <time>2019-09-17T14:24:27.661Z</time>
      </trkpt>
      <trkpt lat="50.60969" lon="3.57755">
        <ele>58.210574</ele>
        <time>2019-09-17T14:24:35.277Z</time>
      </trkpt>
      <trkpt lat="50.60869" lon="3.57808">
        <ele>54.242258</ele>
        <time>2019-09-17T14:24:45.469Z</time>
      </trkpt>
      <trkpt lat="50.60832" lon="3.57806">
        <ele>53.586497</ele>
        <time>2019-09-17T14:24:49.338Z</time>
      </trkpt>
      <trkpt lat="50.60786" lon="3.57791">
        <ele>52.750766</ele>
        <time>2019-09-17T14:24:54.617Z</time>
      </trkpt>
      <trkpt lat="50.60754" lon="3.578">
        <ele>52.172556</ele>
        <time>2019-09-17T14:24:58.590Z</time>
      </trkpt>
      <trkpt lat="50.60732" lon="3.57803">
        <ele>51.777886</ele>
        <time>2019-09-17T14:25:01.906Z</time>
      </trkpt>
      <trkpt lat="50.60687" lon="3.57804">
        <ele>51.863392</ele>
        <time>2019-09-17T14:25:09.282Z</time>
      </trkpt>
      <trkpt lat="50.60669" lon="3.57792">
        <ele>52.068141</ele>
        <time>2019-09-17T14:25:12.927Z</time>
      </trkpt>
      <trkpt lat="50.60627" lon="3.57744">
        <ele>52.605245</ele>
        <time>2019-09-17T14:25:22.775Z</time>
      </trkpt>
      <trkpt lat="50.60603" lon="3.57719">
        <ele>52.911466</ele>
        <time>2019-09-17T14:25:29.045Z</time>
      </trkpt>
      <trkpt lat="50.60607" lon="3.57697">
        <ele>53.059783</ele>
        <time>2019-09-17T14:25:31.990Z</time>
      </trkpt>
      <trkpt lat="50.60635" lon="3.57611">
        <ele>53.887793</ele>
        <time>2019-09-17T14:25:44.881Z</time>
      </trkpt>
      <trkpt lat="50.60705" lon="3.57461">
        <ele>55.94578</ele>
        <time>2019-09-17T14:26:10.550Z</time>
      </trkpt>
      <trkpt lat="50.60687" lon="3.57453">
        <ele>56.274995</ele>
        <time>2019-09-17T14:26:14.977Z</time>
      </trkpt>
      <trkpt lat="50.60601" lon="3.57424">
        <ele>57.959929</ele>
        <time>2019-09-17T14:26:35.228Z</time>
      </trkpt>
      <trkpt lat="50.60529" lon="3.57392">
        <ele>59.413461</ele>
        <time>2019-09-17T14:26:52.661Z</time>
      </trkpt>
      <trkpt lat="50.60522" lon="3.57367">
        <ele>59.745963</ele>
        <time>2019-09-17T14:26:57.556Z</time>
      </trkpt>
      <trkpt lat="50.6046" lon="3.57152">
        <ele>61.439813</ele>
        <time>2019-09-17T14:27:35.671Z</time>
      </trkpt>
      <trkpt lat="50.60386" lon="3.56988">
        <ele>62.246282</ele>
        <time>2019-09-17T14:28:02.268Z</time>
      </trkpt>
      <trkpt lat="50.60383" lon="3.56979">
        <ele>62.273948</ele>
        <time>2019-09-17T14:28:03.508Z</time>
      </trkpt>
      <trkpt lat="50.60375" lon="3.5696">
        <ele>62.330925</ele>
        <time>2019-09-17T14:28:06.655Z</time>
      </trkpt>
      <trkpt lat="50.60337" lon="3.56838">
        <ele>62.795841</ele>
        <time>2019-09-17T14:28:25.931Z</time>
      </trkpt>
      <trkpt lat="50.60336" lon="3.56833">
        <ele>62.854616</ele>
        <time>2019-09-17T14:28:26.613Z</time>
      </trkpt>
      <trkpt lat="50.60331" lon="3.56819">
        <ele>63.002333</ele>
        <time>2019-09-17T14:28:29.079Z</time>
      </trkpt>
      <trkpt lat="50.60288" lon="3.56714">
        <ele>64.217877</ele>
        <time>2019-09-17T14:28:49.716Z</time>
      </trkpt>
      <trkpt lat="50.60249" lon="3.56583">
        <ele>65.758498</ele>
        <time>2019-09-17T14:29:15.275Z</time>
      </trkpt>
      <trkpt lat="50.60244" lon="3.56574">
        <ele>65.963441</ele>
        <time>2019-09-17T14:29:18.045Z</time>
      </trkpt>
      <trkpt lat="50.60166" lon="3.56453">
        <ele>68.703096</ele>
        <time>2019-09-17T14:29:50.729Z</time>
      </trkpt>
      <trkpt lat="50.60041" lon="3.56226">
        <ele>74.096552</ele>
        <time>2019-09-17T14:30:51.449Z</time>
      </trkpt>
      <trkpt lat="50.59985" lon="3.56136">
        <ele>76.168347</ele>
        <time>2019-09-17T14:31:17.946Z</time>
      </trkpt>
      <trkpt lat="50.59946" lon="3.56088">
        <ele>77.316125</ele>
        <time>2019-09-17T14:31:33.093Z</time>
      </trkpt>
      <trkpt lat="50.59938" lon="3.56078">
        <ele>77.550551</ele>
        <time>2019-09-17T14:31:36.863Z</time>
      </trkpt>
      <trkpt lat="50.59928" lon="3.5609">
        <ele>77.840228</ele>
        <time>2019-09-17T14:31:40.201Z</time>
      </trkpt>
      <trkpt lat="50.59858" lon="3.56167">
        <ele>79.281909</ele>
        <time>2019-09-17T14:32:02.902Z</time>
      </trkpt>
      <trkpt lat="50.59833" lon="3.56204">
        <ele>79.197721</ele>
        <time>2019-09-17T14:32:10.938Z</time>
      </trkpt>
      <trkpt lat="50.59763" lon="3.56344">
        <ele>78.919354</ele>
        <time>2019-09-17T14:32:31.584Z</time>
      </trkpt>
      <trkpt lat="50.59757" lon="3.56367">
        <ele>78.785214</ele>
        <time>2019-09-17T14:32:34.175Z</time>
      </trkpt>
      <trkpt lat="50.59764" lon="3.56521">
        <ele>76.408389</ele>
        <time>2019-09-17T14:32:49.364Z</time>
      </trkpt>
      <trkpt lat="50.59767" lon="3.56589">
        <ele>75.35751</ele>
        <time>2019-09-17T14:32:55.804Z</time>
      </trkpt>
      <trkpt lat="50.59763" lon="3.567">
        <ele>73.382396</ele>
        <time>2019-09-17T14:33:06.122Z</time>
      </trkpt>
      <trkpt lat="50.59754" lon="3.56762">
        <ele>72.104575</ele>
        <time>2019-09-17T14:33:12.008Z</time>
      </trkpt>
      <trkpt lat="50.59729" lon="3.56858">
        <ele>70.042434</ele>
        <time>2019-09-17T14:33:21.557Z</time>
      </trkpt>
      <trkpt lat="50.59718" lon="3.56958">
        <ele>68.2078</ele>
        <time>2019-09-17T14:33:31.080Z</time>
      </trkpt>
      <trkpt lat="50.59685" lon="3.57127">
        <ele>65.46196</ele>
        <time>2019-09-17T14:33:48.244Z</time>
      </trkpt>
      <trkpt lat="50.59674" lon="3.57219">
        <ele>64.076785</ele>
        <time>2019-09-17T14:33:57.763Z</time>
      </trkpt>
      <trkpt lat="50.59651" lon="3.5733">
        <ele>62.55045</ele>
        <time>2019-09-17T14:34:09.545Z</time>
      </trkpt>
      <trkpt lat="50.59651" lon="3.57367">
        <ele>62.072706</ele>
        <time>2019-09-17T14:34:13.191Z</time>
      </trkpt>
      <trkpt lat="50.59676" lon="3.57467">
        <ele>60.635586</ele>
        <time>2019-09-17T14:34:23.906Z</time>
      </trkpt>
      <trkpt lat="50.59676" lon="3.57483">
        <ele>60.363496</ele>
        <time>2019-09-17T14:34:25.475Z</time>
      </trkpt>
      <trkpt lat="50.59648" lon="3.57499">
        <ele>59.561847</ele>
        <time>2019-09-17T14:34:28.696Z</time>
      </trkpt>
      <trkpt lat="50.59561" lon="3.57581">
        <ele>56.855171</ele>
        <time>2019-09-17T14:34:39.311Z</time>
      </trkpt>
      <trkpt lat="50.59508" lon="3.57612">
        <ele>55.381971</ele>
        <time>2019-09-17T14:34:44.992Z</time>
      </trkpt>
      <trkpt lat="50.59448" lon="3.57631">
        <ele>53.808167</ele>
        <time>2019-09-17T14:34:51.488Z</time>
      </trkpt>
      <trkpt lat="50.59439" lon="3.57632">
        <ele>53.59003</ele>
        <time>2019-09-17T14:34:52.332Z</time>
      </trkpt>
      <trkpt lat="50.59434" lon="3.57628">
        <ele>53.438079</ele>
        <time>2019-09-17T14:34:52.943Z</time>
      </trkpt>
      <trkpt lat="50.59367" lon="3.57524">
        <ele>51.174644</ele>
        <time>2019-09-17T14:35:03.079Z</time>
      </trkpt>
      <trkpt lat="50.59295" lon="3.57512">
        <ele>50.107996</ele>
        <time>2019-09-17T14:35:11.221Z</time>
      </trkpt>
      <trkpt lat="50.59284" lon="3.5751">
        <ele>49.948717</ele>
        <time>2019-09-17T14:35:12.382Z</time>
      </trkpt>
      <trkpt lat="50.59299" lon="3.57623">
        <ele>48.876501</ele>
        <time>2019-09-17T14:35:21.236Z</time>
      </trkpt>
      <trkpt lat="50.59212" lon="3.57683">
        <ele>48.621731</ele>
        <time>2019-09-17T14:35:38.938Z</time>
      </trkpt>
      <trkpt lat="50.59184" lon="3.57701">
        <ele>48.58472</ele>
        <time>2019-09-17T14:35:45.429Z</time>
      </trkpt>
      <trkpt lat="50.59177" lon="3.57705">
        <ele>48.575142</ele>
        <time>2019-09-17T14:35:47.146Z</time>
      </trkpt>
      <trkpt lat="50.59156" lon="3.57716">
        <ele>48.548256</ele>
        <time>2019-09-17T14:35:51.739Z</time>
      </trkpt>
      <trkpt lat="50.59114" lon="3.57724">
        <ele>48.57019</ele>
        <time>2019-09-17T14:36:00.715Z</time>
      </trkpt>
      <trkpt lat="50.59055" lon="3.57737">
        <ele>49.083048</ele>
        <time>2019-09-17T14:36:13.849Z</time>
      </trkpt>
      <trkpt lat="50.59041" lon="3.57748">
        <ele>49.221779</ele>
        <time>2019-09-17T14:36:17.671Z</time>
      </trkpt>
      <trkpt lat="50.58877" lon="3.57881">
        <ele>51.142623</ele>
        <time>2019-09-17T14:37:03.841Z</time>
      </trkpt>
      <trkpt lat="50.58871" lon="3.57886">
        <ele>51.229418</ele>
        <time>2019-09-17T14:37:06.011Z</time>
      </trkpt>
      <trkpt lat="50.58813" lon="3.5791">
        <ele>51.976902</ele>
        <time>2019-09-17T14:37:20.652Z</time>
      </trkpt>
      <trkpt lat="50.58759" lon="3.5792">
        <ele>52.488505</ele>
        <time>2019-09-17T14:37:34.423Z</time>
      </trkpt>
      <trkpt lat="50.58728" lon="3.57922">
        <ele>52.692524</ele>
        <time>2019-09-17T14:37:42.225Z</time>
      </trkpt>
      <trkpt lat="50.58574" lon="3.57915">
        <ele>53.465544</ele>
        <time>2019-09-17T14:38:15.964Z</time>
      </trkpt>
      <trkpt lat="50.58533" lon="3.57924">
        <ele>53.436116</ele>
        <time>2019-09-17T14:38:24.170Z</time>
      </trkpt>
      <trkpt lat="50.58519" lon="3.57935">
        <ele>53.425168</ele>
        <time>2019-09-17T14:38:27.329Z</time>
      </trkpt>
      <trkpt lat="50.58512" lon="3.57942">
        <ele>53.419344</ele>
        <time>2019-09-17T14:38:29.129Z</time>
      </trkpt>
      <trkpt lat="50.58505" lon="3.57949">
        <ele>53.413544</ele>
        <time>2019-09-17T14:38:30.612Z</time>
      </trkpt>
      <trkpt lat="50.58491" lon="3.5797">
        <ele>53.400349</ele>
        <time>2019-09-17T14:38:34.432Z</time>
      </trkpt>
      <trkpt lat="50.58476" lon="3.5801">
        <ele>53.379301</ele>
        <time>2019-09-17T14:38:40.324Z</time>
      </trkpt>
      <trkpt lat="50.58452" lon="3.58064">
        <ele>53.297724</ele>
        <time>2019-09-17T14:38:48.066Z</time>
      </trkpt>
      <trkpt lat="50.58402" lon="3.58003">
        <ele>53.059996</ele>
        <time>2019-09-17T14:38:59.547Z</time>
      </trkpt>
      <trkpt lat="50.58348" lon="3.57973">
        <ele>52.847924</ele>
        <time>2019-09-17T14:39:10.192Z</time>
      </trkpt>
      <trkpt lat="50.58345" lon="3.57989">
        <ele>52.809827</ele>
        <time>2019-09-17T14:39:12.202Z</time>
      </trkpt>
      <trkpt lat="50.58345" lon="3.5799">
        <ele>52.806885</ele>
        <time>2019-09-17T14:39:12.329Z</time>
      </trkpt>
      <trkpt lat="50.58332" lon="3.58063">
        <ele>52.768918</ele>
        <time>2019-09-17T14:39:22.118Z</time>
      </trkpt>
      <trkpt lat="50.58314" lon="3.58076">
        <ele>52.85979</ele>
        <time>2019-09-17T14:39:26.391Z</time>
      </trkpt>
      <trkpt lat="50.58283" lon="3.58096">
        <ele>53.011849</ele>
        <time>2019-09-17T14:39:33.291Z</time>
      </trkpt>
      <trkpt lat="50.58257" lon="3.58084">
        <ele>53.136247</ele>
        <time>2019-09-17T14:39:39.053Z</time>
      </trkpt>
      <trkpt lat="50.58232" lon="3.58054">
        <ele>53.279468</ele>
        <time>2019-09-17T14:39:45.926Z</time>
      </trkpt>
      <trkpt lat="50.58198" lon="3.5801">
        <ele>53.480358</ele>
        <time>2019-09-17T14:39:56.449Z</time>
      </trkpt>
      <trkpt lat="50.5809" lon="3.57877">
        <ele>55.198381</ele>
        <time>2019-09-17T14:40:31.612Z</time>
      </trkpt>
      <trkpt lat="50.58072" lon="3.57854">
        <ele>55.496704</ele>
        <time>2019-09-17T14:40:37.745Z</time>
      </trkpt>
      <trkpt lat="50.58031" lon="3.57803">
        <ele>56.141177</ele>
        <time>2019-09-17T14:40:50.858Z</time>
      </trkpt>
      <trkpt lat="50.58018" lon="3.57788">
        <ele>56.324434</ele>
        <time>2019-09-17T14:40:55.113Z</time>
      </trkpt>
      <trkpt lat="50.57955" lon="3.57699">
        <ele>57.305228</ele>
        <time>2019-09-17T14:41:16.044Z</time>
      </trkpt>
      <trkpt lat="50.57779" lon="3.57415">
        <ele>59.799344</ele>
        <time>2019-09-17T14:42:17.203Z</time>
      </trkpt>
      <trkpt lat="50.57735" lon="3.57343">
        <ele>60.18276</ele>
        <time>2019-09-17T14:42:31.905Z</time>
      </trkpt>
      <trkpt lat="50.57711" lon="3.57305">
        <ele>60.394835</ele>
        <time>2019-09-17T14:42:39.739Z</time>
      </trkpt>
      <trkpt lat="50.57699" lon="3.57293">
        <ele>60.479644</ele>
        <time>2019-09-17T14:42:42.631Z</time>
      </trkpt>
      <trkpt lat="50.57685" lon="3.57295">
        <ele>60.565214</ele>
        <time>2019-09-17T14:42:45.821Z</time>
      </trkpt>
      <trkpt lat="50.57677" lon="3.57303">
        <ele>60.620597</ele>
        <time>2019-09-17T14:42:47.934Z</time>
      </trkpt>
      <trkpt lat="50.57672" lon="3.57318">
        <ele>60.685404</ele>
        <time>2019-09-17T14:42:50.056Z</time>
      </trkpt>
      <trkpt lat="50.57663" lon="3.57376">
        <ele>60.861106</ele>
        <time>2019-09-17T14:42:58.394Z</time>
      </trkpt>
      <trkpt lat="50.57651" lon="3.57396">
        <ele>60.921701</ele>
        <time>2019-09-17T14:43:02.147Z</time>
      </trkpt>
      <trkpt lat="50.5753" lon="3.57323">
        <ele>61.377186</ele>
        <time>2019-09-17T14:43:29.464Z</time>
      </trkpt>
      <trkpt lat="50.57514" lon="3.57325">
        <ele>61.476318</ele>
        <time>2019-09-17T14:43:33.357Z</time>
      </trkpt>
      <trkpt lat="50.57474" lon="3.57344">
        <ele>61.897716</ele>
        <time>2019-09-17T14:43:43.079Z</time>
      </trkpt>
      <trkpt lat="50.57426" lon="3.57372">
        <ele>62.406108</ele>
        <time>2019-09-17T14:43:55.388Z</time>
      </trkpt>
      <trkpt lat="50.57397" lon="3.57303">
        <ele>62.930205</ele>
        <time>2019-09-17T14:44:05.644Z</time>
      </trkpt>
      <trkpt lat="50.57358" lon="3.57216">
        <ele>63.724793</ele>
        <time>2019-09-17T14:44:19.454Z</time>
      </trkpt>
      <trkpt lat="50.57353" lon="3.57203">
        <ele>63.841662</ele>
        <time>2019-09-17T14:44:21.449Z</time>
      </trkpt>
      <trkpt lat="50.57352" lon="3.57194">
        <ele>63.920018</ele>
        <time>2019-09-17T14:44:22.786Z</time>
      </trkpt>
      <trkpt lat="50.57365" lon="3.57123">
        <ele>64.514734</ele>
        <time>2019-09-17T14:44:32.179Z</time>
      </trkpt>
      <trkpt lat="50.57361" lon="3.57103">
        <ele>64.68158</ele>
        <time>2019-09-17T14:44:34.776Z</time>
      </trkpt>
      <trkpt lat="50.57274" lon="3.56941">
        <ele>66.087416</ele>
        <time>2019-09-17T14:45:01.135Z</time>
      </trkpt>
      <trkpt lat="50.57194" lon="3.56777">
        <ele>66.863468</ele>
        <time>2019-09-17T14:45:24.280Z</time>
      </trkpt>
      <trkpt lat="50.57163" lon="3.5671">
        <ele>66.560169</ele>
        <time>2019-09-17T14:45:31.721Z</time>
      </trkpt>
      <trkpt lat="50.57116" lon="3.56609">
        <ele>66.103238</ele>
        <time>2019-09-17T14:45:41.774Z</time>
      </trkpt>
      <trkpt lat="50.57081" lon="3.56548">
        <ele>65.449608</ele>
        <time>2019-09-17T14:45:47.733Z</time>
      </trkpt>
      <trkpt lat="50.57052" lon="3.56466">
        <ele>64.281665</ele>
        <time>2019-09-17T14:45:54.322Z</time>
      </trkpt>
      <trkpt lat="50.57042" lon="3.56362">
        <ele>62.970021</ele>
        <time>2019-09-17T14:46:01.562Z</time>
      </trkpt>
      <trkpt lat="50.5703" lon="3.56333">
        <ele>62.54264</ele>
        <time>2019-09-17T14:46:03.920Z</time>
      </trkpt>
      <trkpt lat="50.5692" lon="3.56103">
        <ele>58.983707</ele>
        <time>2019-09-17T14:46:23.975Z</time>
      </trkpt>
      <trkpt lat="50.5687" lon="3.56039">
        <ele>58.203485</ele>
        <time>2019-09-17T14:46:31.524Z</time>
      </trkpt>
      <trkpt lat="50.56844" lon="3.56019">
        <ele>57.858456</ele>
        <time>2019-09-17T14:46:35.034Z</time>
      </trkpt>
      <trkpt lat="50.56752" lon="3.5596">
        <ele>56.72365</ele>
        <time>2019-09-17T14:46:47.451Z</time>
      </trkpt>
      <trkpt lat="50.56724" lon="3.55934">
        <ele>56.446536</ele>
        <time>2019-09-17T14:46:51.434Z</time>
      </trkpt>
      <trkpt lat="50.56675" lon="3.55895">
        <ele>55.974973</ele>
        <time>2019-09-17T14:46:58.487Z</time>
      </trkpt>
      <trkpt lat="50.56653" lon="3.55885">
        <ele>55.780283</ele>
        <time>2019-09-17T14:47:01.388Z</time>
      </trkpt>
      <trkpt lat="50.56603" lon="3.55849">
        <ele>55.3037</ele>
        <time>2019-09-17T14:47:08.137Z</time>
      </trkpt>
      <trkpt lat="50.56564" lon="3.55809">
        <ele>54.751265</ele>
        <time>2019-09-17T14:47:13.680Z</time>
      </trkpt>
      <trkpt lat="50.56547" lon="3.55782">
        <ele>54.456546</ele>
        <time>2019-09-17T14:47:16.498Z</time>
      </trkpt>
      <trkpt lat="50.56456" lon="3.5558">
        <ele>52.534462</ele>
        <time>2019-09-17T14:47:35.254Z</time>
      </trkpt>
      <trkpt lat="50.56383" lon="3.5546">
        <ele>51.264322</ele>
        <time>2019-09-17T14:47:47.869Z</time>
      </trkpt>
      <trkpt lat="50.56313" lon="3.5538">
        <ele>50.148656</ele>
        <time>2019-09-17T14:47:58.134Z</time>
      </trkpt>
      <trkpt lat="50.56242" lon="3.55321">
        <ele>49.074927</ele>
        <time>2019-09-17T14:48:07.495Z</time>
      </trkpt>
      <trkpt lat="50.56196" lon="3.55248">
        <ele>48.22191</ele>
        <time>2019-09-17T14:48:15.114Z</time>
      </trkpt>
      <trkpt lat="50.56182" lon="3.55226">
        <ele>47.975748</ele>
        <time>2019-09-17T14:48:17.377Z</time>
      </trkpt>
      <trkpt lat="50.56166" lon="3.55201">
        <ele>47.692439</ele>
        <time>2019-09-17T14:48:20.068Z</time>
      </trkpt>
      <trkpt lat="50.56152" lon="3.55189">
        <ele>47.494345</ele>
        <time>2019-09-17T14:48:21.916Z</time>
      </trkpt>
      <trkpt lat="50.56116" lon="3.55181">
        <ele>47.042412</ele>
        <time>2019-09-17T14:48:26.181Z</time>
      </trkpt>
      <trkpt lat="50.55878" lon="3.55061">
        <ele>44.370002</ele>
        <time>2019-09-17T14:48:56.644Z</time>
      </trkpt>
      <trkpt lat="50.55832" lon="3.55038">
        <ele>44.040688</ele>
        <time>2019-09-17T14:49:02.662Z</time>
      </trkpt>
      <trkpt lat="50.55854" lon="3.54922">
        <ele>43.514095</ele>
        <time>2019-09-17T14:49:16.641Z</time>
      </trkpt>
      <trkpt lat="50.55828" lon="3.54903">
        <ele>43.319983</ele>
        <time>2019-09-17T14:49:21.837Z</time>
      </trkpt>
      <trkpt lat="50.55713" lon="3.54836">
        <ele>42.761744</ele>
        <time>2019-09-17T14:49:45.321Z</time>
      </trkpt>
      <trkpt lat="50.55629" lon="3.54826">
        <ele>42.421933</ele>
        <time>2019-09-17T14:50:01.141Z</time>
      </trkpt>
      <trkpt lat="50.55581" lon="3.54823">
        <ele>42.251483</ele>
        <time>2019-09-17T14:50:10.021Z</time>
      </trkpt>
      <trkpt lat="50.554" lon="3.54809">
        <ele>41.909154</ele>
        <time>2019-09-17T14:50:44.640Z</time>
      </trkpt>
      <trkpt lat="50.55364" lon="3.54813">
        <ele>41.972816</ele>
        <time>2019-09-17T14:50:52.268Z</time>
      </trkpt>
      <trkpt lat="50.55207" lon="3.54961">
        <ele>42.690857</ele>
        <time>2019-09-17T14:51:33.029Z</time>
      </trkpt>
      <trkpt lat="50.55191" lon="3.55031">
        <ele>42.968217</ele>
        <time>2019-09-17T14:51:44.030Z</time>
      </trkpt>
      <trkpt lat="50.55157" lon="3.55116">
        <ele>43.139916</ele>
        <time>2019-09-17T14:51:58.957Z</time>
      </trkpt>
      <trkpt lat="50.55145" lon="3.55144">
        <ele>43.109616</ele>
        <time>2019-09-17T14:52:03.302Z</time>
      </trkpt>
      <trkpt lat="50.55108" lon="3.55228">
        <ele>43.017205</ele>
        <time>2019-09-17T14:52:15.949Z</time>
      </trkpt>
      <trkpt lat="50.55094" lon="3.55255">
        <ele>42.986371</ele>
        <time>2019-09-17T14:52:20.213Z</time>
      </trkpt>
      <trkpt lat="50.55001" lon="3.55282">
        <ele>42.457632</ele>
        <time>2019-09-17T14:52:37.294Z</time>
      </trkpt>
      <trkpt lat="50.54849" lon="3.5518">
        <ele>41.233972</ele>
        <time>2019-09-17T14:53:05.662Z</time>
      </trkpt>
      <trkpt lat="50.54738" lon="3.55105">
        <ele>41.065301</ele>
        <time>2019-09-17T14:53:30.108Z</time>
      </trkpt>
      <trkpt lat="50.54693" lon="3.55074">
        <ele>41.308169</ele>
        <time>2019-09-17T14:53:41.069Z</time>
      </trkpt>
      <trkpt lat="50.54689" lon="3.55072">
        <ele>41.349833</ele>
        <time>2019-09-17T14:53:42.013Z</time>
      </trkpt>
      <trkpt lat="50.54665" lon="3.55052">
        <ele>41.637552</ele>
        <time>2019-09-17T14:53:48.663Z</time>
      </trkpt>
      <trkpt lat="50.54639" lon="3.55029">
        <ele>41.943666</ele>
        <time>2019-09-17T14:53:55.907Z</time>
      </trkpt>
      <trkpt lat="50.54611" lon="3.54994">
        <ele>42.314498</ele>
        <time>2019-09-17T14:54:05.004Z</time>
      </trkpt>
      <trkpt lat="50.54548" lon="3.54956">
        <ele>43.003068</ele>
        <time>2019-09-17T14:54:22.605Z</time>
      </trkpt>
      <trkpt lat="50.54492" lon="3.54932">
        <ele>43.566415</ele>
        <time>2019-09-17T14:54:37.113Z</time>
      </trkpt>
      <trkpt lat="50.54428" lon="3.54902">
        <ele>44.224238</ele>
        <time>2019-09-17T14:54:52.993Z</time>
      </trkpt>
      <trkpt lat="50.54348" lon="3.54866">
        <ele>44.897572</ele>
        <time>2019-09-17T14:55:11.880Z</time>
      </trkpt>
      <trkpt lat="50.54316" lon="3.54851">
        <ele>45.112475</ele>
        <time>2019-09-17T14:55:19.354Z</time>
      </trkpt>
      <trkpt lat="50.54293" lon="3.54836">
        <ele>45.277167</ele>
        <time>2019-09-17T14:55:25.320Z</time>
      </trkpt>
      <trkpt lat="50.5425" lon="3.54789">
        <ele>45.613642</ele>
        <time>2019-09-17T14:55:36.834Z</time>
      </trkpt>
      <trkpt lat="50.54189" lon="3.54724">
        <ele>46.158561</ele>
        <time>2019-09-17T14:55:53.813Z</time>
      </trkpt>
      <trkpt lat="50.54183" lon="3.54702">
        <ele>46.283812</ele>
        <time>2019-09-17T14:55:57.680Z</time>
      </trkpt>
      <trkpt lat="50.54148" lon="3.54582">
        <ele>46.967875</ele>
        <time>2019-09-17T14:56:17.549Z</time>
      </trkpt>
      <trkpt lat="50.54141" lon="3.5453">
        <ele>47.244521</ele>
        <time>2019-09-17T14:56:25.578Z</time>
      </trkpt>
      <trkpt lat="50.54138" lon="3.54508">
        <ele>47.284206</ele>
        <time>2019-09-17T14:56:29.123Z</time>
      </trkpt>
      <trkpt lat="50.54133" lon="3.54488">
        <ele>47.297273</ele>
        <time>2019-09-17T14:56:32.324Z</time>
      </trkpt>
      <trkpt lat="50.54113" lon="3.54448">
        <ele>47.328567</ele>
        <time>2019-09-17T14:56:39.559Z</time>
      </trkpt>
      <trkpt lat="50.54093" lon="3.54426">
        <ele>47.352463</ele>
        <time>2019-09-17T14:56:44.954Z</time>
      </trkpt>
      <trkpt lat="50.54011" lon="3.54358">
        <ele>47.44178</ele>
        <time>2019-09-17T14:57:03.223Z</time>
      </trkpt>
      <trkpt lat="50.54" lon="3.54351">
        <ele>47.362487</ele>
        <time>2019-09-17T14:57:05.315Z</time>
      </trkpt>
      <trkpt lat="50.53985" lon="3.54339">
        <ele>47.130194</ele>
        <time>2019-09-17T14:57:08.280Z</time>
      </trkpt>
      <trkpt lat="50.53958" lon="3.54335">
        <ele>46.751697</ele>
        <time>2019-09-17T14:57:12.974Z</time>
      </trkpt>
      <trkpt lat="50.53932" lon="3.54346">
        <ele>46.382285</ele>
        <time>2019-09-17T14:57:17.508Z</time>
      </trkpt>
      <trkpt lat="50.53806" lon="3.54383">
        <ele>44.53167</ele>
        <time>2019-09-17T14:57:38.156Z</time>
      </trkpt>
      <trkpt lat="50.53683" lon="3.5442">
        <ele>42.437385</ele>
        <time>2019-09-17T14:57:58.104Z</time>
      </trkpt>
      <trkpt lat="50.53569" lon="3.54336">
        <ele>40.763346</ele>
        <time>2019-09-17T14:58:19.163Z</time>
      </trkpt>
      <trkpt lat="50.53466" lon="3.54251">
        <ele>39.498986</ele>
        <time>2019-09-17T14:58:39.208Z</time>
      </trkpt>
      <trkpt lat="50.53452" lon="3.54235">
        <ele>39.373872</ele>
        <time>2019-09-17T14:58:42.215Z</time>
      </trkpt>
      <trkpt lat="50.53424" lon="3.54177">
        <ele>39.03394</ele>
        <time>2019-09-17T14:58:50.465Z</time>
      </trkpt>
      <trkpt lat="50.5338" lon="3.53948">
        <ele>38.174352</ele>
        <time>2019-09-17T14:59:18.911Z</time>
      </trkpt>
      <trkpt lat="50.53363" lon="3.53717">
        <ele>37.57587</ele>
        <time>2019-09-17T14:59:47.254Z</time>
      </trkpt>
      <trkpt lat="50.53338" lon="3.536">
        <ele>37.137205</ele>
        <time>2019-09-17T15:00:01.901Z</time>
      </trkpt>
      <trkpt lat="50.53181" lon="3.53222">
        <ele>35.037057</ele>
        <time>2019-09-17T15:00:53.013Z</time>
      </trkpt>
      <trkpt lat="50.53094" lon="3.52967">
        <ele>33.837276</ele>
        <time>2019-09-17T15:01:26.139Z</time>
      </trkpt>
      <trkpt lat="50.53077" lon="3.52917">
        <ele>33.681045</ele>
        <time>2019-09-17T15:01:32.935Z</time>
      </trkpt>
      <trkpt lat="50.53069" lon="3.52893">
        <ele>33.609426</ele>
        <time>2019-09-17T15:01:36.044Z</time>
      </trkpt>
      <trkpt lat="50.53059" lon="3.5286">
        <ele>33.5088</ele>
        <time>2019-09-17T15:01:40.534Z</time>
      </trkpt>
      <trkpt lat="50.53055" lon="3.5285">
        <ele>33.476113</ele>
        <time>2019-09-17T15:01:41.945Z</time>
      </trkpt>
      <trkpt lat="50.53039" lon="3.52801">
        <ele>33.326434</ele>
        <time>2019-09-17T15:01:48.694Z</time>
      </trkpt>
      <trkpt lat="50.5297" lon="3.52582">
        <ele>33.391411</ele>
        <time>2019-09-17T15:02:20.816Z</time>
      </trkpt>
      <trkpt lat="50.53017" lon="3.52536">
        <ele>33.4314</ele>
        <time>2019-09-17T15:02:29.838Z</time>
      </trkpt>
      <trkpt lat="50.53087" lon="3.52472">
        <ele>33.456419</ele>
        <time>2019-09-17T15:02:42.144Z</time>
      </trkpt>
      <trkpt lat="50.53075" lon="3.524">
        <ele>33.471059</ele>
        <time>2019-09-17T15:02:51.507Z</time>
      </trkpt>
      <trkpt lat="50.53069" lon="3.52383">
        <ele>33.474928</ele>
        <time>2019-09-17T15:02:53.863Z</time>
      </trkpt>
      <trkpt lat="50.53017" lon="3.52251">
        <ele>33.457285</ele>
        <time>2019-09-17T15:03:13.586Z</time>
      </trkpt>
      <trkpt lat="50.53004" lon="3.52202">
        <ele>33.446423</ele>
        <time>2019-09-17T15:03:20.200Z</time>
      </trkpt>
      <trkpt lat="50.53008" lon="3.52185">
        <ele>33.442821</ele>
        <time>2019-09-17T15:03:22.325Z</time>
      </trkpt>
      <trkpt lat="50.53009" lon="3.5217">
        <ele>33.439634</ele>
        <time>2019-09-17T15:03:24.294Z</time>
      </trkpt>
      <trkpt lat="50.53012" lon="3.52147">
        <ele>33.434894</ele>
        <time>2019-09-17T15:03:27.041Z</time>
      </trkpt>
      <trkpt lat="50.53017" lon="3.52125">
        <ele>33.429949</ele>
        <time>2019-09-17T15:03:30.261Z</time>
      </trkpt>
      <trkpt lat="50.5303" lon="3.52086">
        <ele>33.458345</ele>
        <time>2019-09-17T15:03:36.137Z</time>
      </trkpt>
      <trkpt lat="50.53034" lon="3.52074">
        <ele>33.489898</ele>
        <time>2019-09-17T15:03:37.999Z</time>
      </trkpt>
      <trkpt lat="50.5306" lon="3.5203">
        <ele>33.639867</ele>
        <time>2019-09-17T15:03:46.593Z</time>
      </trkpt>
      <trkpt lat="50.53079" lon="3.52013">
        <ele>33.725318</ele>
        <time>2019-09-17T15:03:51.505Z</time>
      </trkpt>
      <trkpt lat="50.53109" lon="3.51998">
        <ele>33.847691</ele>
        <time>2019-09-17T15:03:58.731Z</time>
      </trkpt>
      <trkpt lat="50.53098" lon="3.5196">
        <ele>33.95142</ele>
        <time>2019-09-17T15:04:04.939Z</time>
      </trkpt>
      <trkpt lat="50.53098" lon="3.51957">
        <ele>33.957328</ele>
        <time>2019-09-17T15:04:05.251Z</time>
      </trkpt>
      <trkpt lat="50.5309" lon="3.51933">
        <ele>34.022888</ele>
        <time>2019-09-17T15:04:08.910Z</time>
      </trkpt>
      <trkpt lat="50.5309" lon="3.51932">
        <ele>34.026676</ele>
        <time>2019-09-17T15:04:09.125Z</time>
      </trkpt>
      <trkpt lat="50.53085" lon="3.51914">
        <ele>34.074933</ele>
        <time>2019-09-17T15:04:11.843Z</time>
      </trkpt>
      <trkpt lat="50.53083" lon="3.51907">
        <ele>34.09337</ele>
        <time>2019-09-17T15:04:12.805Z</time>
      </trkpt>
      <trkpt lat="50.53076" lon="3.51886">
        <ele>34.118355</ele>
        <time>2019-09-17T15:04:15.933Z</time>
      </trkpt>
      <trkpt lat="50.53075" lon="3.51882">
        <ele>34.11718</ele>
        <time>2019-09-17T15:04:16.491Z</time>
      </trkpt>
      <trkpt lat="50.53058" lon="3.51826">
        <ele>34.098925</ele>
        <time>2019-09-17T15:04:24.486Z</time>
      </trkpt>
      <trkpt lat="50.5305" lon="3.5183">
        <ele>34.095058</ele>
        <time>2019-09-17T15:04:26.187Z</time>
      </trkpt>
      <trkpt lat="50.5304" lon="3.51833">
        <ele>34.090101</ele>
        <time>2019-09-17T15:04:28.307Z</time>
      </trkpt>
      <trkpt lat="50.53017" lon="3.51852">
        <ele>34.078155</ele>
        <time>2019-09-17T15:04:33.745Z</time>
      </trkpt>
      <trkpt lat="50.52951" lon="3.51909">
        <ele>34.043141</ele>
        <time>2019-09-17T15:04:48.336Z</time>
      </trkpt>
      <trkpt lat="50.52925" lon="3.51854">
        <ele>34.048892</ele>
        <time>2019-09-17T15:04:56.529Z</time>
      </trkpt>
      <trkpt lat="50.52908" lon="3.518">
        <ele>34.060186</ele>
        <time>2019-09-17T15:05:03.920Z</time>
      </trkpt>
      <trkpt lat="50.52879" lon="3.51748">
        <ele>34.073187</ele>
        <time>2019-09-17T15:05:12.650Z</time>
      </trkpt>
      <trkpt lat="50.52867" lon="3.51709">
        <ele>34.0812</ele>
        <time>2019-09-17T15:05:18.104Z</time>
      </trkpt>
      <trkpt lat="50.52842" lon="3.51636">
        <ele>34.207377</ele>
        <time>2019-09-17T15:05:30.395Z</time>
      </trkpt>
      <trkpt lat="50.5284" lon="3.51629">
        <ele>34.240296</ele>
        <time>2019-09-17T15:05:31.637Z</time>
      </trkpt>
      <trkpt lat="50.52822" lon="3.51588">
        <ele>34.455207</ele>
        <time>2019-09-17T15:05:39.477Z</time>
      </trkpt>
      <trkpt lat="50.52783" lon="3.5152">
        <ele>34.86037</ele>
        <time>2019-09-17T15:05:53.633Z</time>
      </trkpt>
      <trkpt lat="50.5277" lon="3.51505">
        <ele>34.967513</ele>
        <time>2019-09-17T15:05:57.102Z</time>
      </trkpt>
      <trkpt lat="50.52729" lon="3.51449">
        <ele>35.328441</ele>
        <time>2019-09-17T15:06:09.078Z</time>
      </trkpt>
      <trkpt lat="50.52774" lon="3.51363">
        <ele>35.37901</ele>
        <time>2019-09-17T15:06:23.853Z</time>
      </trkpt>
      <trkpt lat="50.52814" lon="3.51288">
        <ele>35.423687</ele>
        <time>2019-09-17T15:06:36.565Z</time>
      </trkpt>
      <trkpt lat="50.52789" lon="3.51285">
        <ele>35.441715</ele>
        <time>2019-09-17T15:06:41.465Z</time>
      </trkpt>
      <trkpt lat="50.52799" lon="3.51269">
        <ele>35.45203</ele>
        <time>2019-09-17T15:06:43.979Z</time>
      </trkpt>
      <trkpt lat="50.52867" lon="3.51134">
        <ele>36.43378</ele>
        <time>2019-09-17T15:07:07.124Z</time>
      </trkpt>
      <trkpt lat="50.52966" lon="3.50894">
        <ele>39.54119</ele>
        <time>2019-09-17T15:07:59.003Z</time>
      </trkpt>
      <trkpt lat="50.52998" lon="3.50805">
        <ele>40.993582</ele>
        <time>2019-09-17T15:08:18.884Z</time>
      </trkpt>
      <trkpt lat="50.53015" lon="3.50751">
        <ele>41.774219</ele>
        <time>2019-09-17T15:08:30.376Z</time>
      </trkpt>
      <trkpt lat="50.53061" lon="3.50585">
        <ele>44.084436</ele>
        <time>2019-09-17T15:09:03.677Z</time>
      </trkpt>
      <trkpt lat="50.53077" lon="3.50493">
        <ele>44.826738</ele>
        <time>2019-09-17T15:09:18.840Z</time>
      </trkpt>
      <trkpt lat="50.53063" lon="3.50413">
        <ele>44.886972</ele>
        <time>2019-09-17T15:09:31.707Z</time>
      </trkpt>
      <trkpt lat="50.53023" lon="3.50303">
        <ele>44.97779</ele>
        <time>2019-09-17T15:09:47.400Z</time>
      </trkpt>
      <trkpt lat="50.53014" lon="3.50277">
        <ele>44.999261</ele>
        <time>2019-09-17T15:09:50.463Z</time>
      </trkpt>
      <trkpt lat="50.53009" lon="3.50267">
        <ele>44.894217</ele>
        <time>2019-09-17T15:09:51.844Z</time>
      </trkpt>
      <trkpt lat="50.53005" lon="3.50257">
        <ele>44.733487</ele>
        <time>2019-09-17T15:09:53.138Z</time>
      </trkpt>
      <trkpt lat="50.52993" lon="3.50234">
        <ele>44.357462</ele>
        <time>2019-09-17T15:09:56.034Z</time>
      </trkpt>
      <trkpt lat="50.52963" lon="3.50179">
        <ele>43.408657</ele>
        <time>2019-09-17T15:10:01.212Z</time>
      </trkpt>
      <trkpt lat="50.52955" lon="3.50169">
        <ele>43.20317</ele>
        <time>2019-09-17T15:10:02.330Z</time>
      </trkpt>
      <trkpt lat="50.52947" lon="3.5016">
        <ele>43.001827</ele>
        <time>2019-09-17T15:10:03.348Z</time>
      </trkpt>
      <trkpt lat="50.52899" lon="3.50114">
        <ele>41.852524</ele>
        <time>2019-09-17T15:10:09.376Z</time>
      </trkpt>
      <trkpt lat="50.52877" lon="3.50086">
        <ele>41.275662</ele>
        <time>2019-09-17T15:10:12.279Z</time>
      </trkpt>
      <trkpt lat="50.52862" lon="3.50053">
        <ele>40.754288</ele>
        <time>2019-09-17T15:10:14.972Z</time>
      </trkpt>
      <trkpt lat="50.52823" lon="3.49916">
        <ele>38.854563</ele>
        <time>2019-09-17T15:10:25.275Z</time>
      </trkpt>
      <trkpt lat="50.52816" lon="3.49901">
        <ele>38.619477</ele>
        <time>2019-09-17T15:10:26.658Z</time>
      </trkpt>
      <trkpt lat="50.52782" lon="3.49813">
        <ele>37.628117</ele>
        <time>2019-09-17T15:10:34.608Z</time>
      </trkpt>
      <trkpt lat="50.52741" lon="3.4971">
        <ele>37.233303</ele>
        <time>2019-09-17T15:10:44.445Z</time>
      </trkpt>
      <trkpt lat="50.5273" lon="3.49651">
        <ele>37.033513</ele>
        <time>2019-09-17T15:10:49.833Z</time>
      </trkpt>
      <trkpt lat="50.52721" lon="3.49559">
        <ele>36.919025</ele>
        <time>2019-09-17T15:10:58.534Z</time>
      </trkpt>
      <trkpt lat="50.52714" lon="3.49533">
        <ele>37.037923</ele>
        <time>2019-09-17T15:11:01.309Z</time>
      </trkpt>
      <trkpt lat="50.52712" lon="3.49529">
        <ele>37.057865</ele>
        <time>2019-09-17T15:11:01.881Z</time>
      </trkpt>
      <trkpt lat="50.52677" lon="3.49452">
        <ele>37.441686</ele>
        <time>2019-09-17T15:11:11.714Z</time>
      </trkpt>
      <trkpt lat="50.52627" lon="3.49401">
        <ele>37.822062</ele>
        <time>2019-09-17T15:11:22.532Z</time>
      </trkpt>
      <trkpt lat="50.52606" lon="3.49393">
        <ele>37.960762</ele>
        <time>2019-09-17T15:11:26.687Z</time>
      </trkpt>
      <trkpt lat="50.5252" lon="3.49298">
        <ele>40.191787</ele>
        <time>2019-09-17T15:11:50.583Z</time>
      </trkpt>
      <trkpt lat="50.52468" lon="3.49266">
        <ele>41.407397</ele>
        <time>2019-09-17T15:12:05.063Z</time>
      </trkpt>
      <trkpt lat="50.52437" lon="3.49238">
        <ele>42.136723</ele>
        <time>2019-09-17T15:12:14.253Z</time>
      </trkpt>
      <trkpt lat="50.524" lon="3.49201">
        <ele>42.962237</ele>
        <time>2019-09-17T15:12:25.336Z</time>
      </trkpt>
      <trkpt lat="50.52401" lon="3.49197">
        <ele>43.011438</ele>
        <time>2019-09-17T15:12:25.950Z</time>
      </trkpt>
      <trkpt lat="50.52473" lon="3.48914">
        <ele>45.342073</ele>
        <time>2019-09-17T15:13:06.065Z</time>
      </trkpt>
      <trkpt lat="50.52465" lon="3.4891">
        <ele>45.352203</ele>
        <time>2019-09-17T15:13:07.814Z</time>
      </trkpt>
      <trkpt lat="50.5234" lon="3.4876">
        <ele>44.203016</ele>
        <time>2019-09-17T15:13:35.354Z</time>
      </trkpt>
      <trkpt lat="50.52295" lon="3.4872">
        <ele>43.162812</ele>
        <time>2019-09-17T15:13:43.341Z</time>
      </trkpt>
      <trkpt lat="50.52103" lon="3.48497">
        <ele>36.665745</ele>
        <time>2019-09-17T15:14:18.669Z</time>
      </trkpt>
      <trkpt lat="50.52011" lon="3.48403">
        <ele>33.820429</ele>
        <time>2019-09-17T15:14:34.782Z</time>
      </trkpt>
      <trkpt lat="50.52011" lon="3.48402">
        <ele>33.801226</ele>
        <time>2019-09-17T15:14:34.868Z</time>
      </trkpt>
      <trkpt lat="50.51792" lon="3.48157">
        <ele>29.056003</ele>
        <time>2019-09-17T15:15:18.794Z</time>
      </trkpt>
      <trkpt lat="50.51777" lon="3.48156">
        <ele>28.953483</ele>
        <time>2019-09-17T15:15:21.612Z</time>
      </trkpt>
      <trkpt lat="50.51728" lon="3.48204">
        <ele>28.57018</ele>
        <time>2019-09-17T15:15:32.040Z</time>
      </trkpt>
      <trkpt lat="50.51695" lon="3.48154">
        <ele>28.265724</ele>
        <time>2019-09-17T15:15:40.561Z</time>
      </trkpt>
      <trkpt lat="50.51648" lon="3.48057">
        <ele>27.838517</ele>
        <time>2019-09-17T15:15:55.217Z</time>
      </trkpt>
      <trkpt lat="50.51598" lon="3.47983">
        <ele>27.601132</ele>
        <time>2019-09-17T15:16:08.672Z</time>
      </trkpt>
      <trkpt lat="50.51526" lon="3.47903">
        <ele>27.280974</ele>
        <time>2019-09-17T15:16:25.290Z</time>
      </trkpt>
      <trkpt lat="50.51504" lon="3.47868">
        <ele>27.069962</ele>
        <time>2019-09-17T15:16:31.161Z</time>
      </trkpt>
      <trkpt lat="50.51481" lon="3.47797">
        <ele>26.735296</ele>
        <time>2019-09-17T15:16:40.330Z</time>
      </trkpt>
      <trkpt lat="50.51464" lon="3.47765">
        <ele>26.564152</ele>
        <time>2019-09-17T15:16:44.959Z</time>
      </trkpt>
      <trkpt lat="50.51343" lon="3.47552">
        <ele>25.384724</ele>
        <time>2019-09-17T15:17:17.608Z</time>
      </trkpt>
      <trkpt lat="50.51331" lon="3.47534">
        <ele>25.275912</ele>
        <time>2019-09-17T15:17:20.732Z</time>
      </trkpt>
      <trkpt lat="50.5128" lon="3.47442">
        <ele>24.842979</ele>
        <time>2019-09-17T15:17:35.229Z</time>
      </trkpt>
      <trkpt lat="50.51194" lon="3.47315">
        <ele>24.345761</ele>
        <time>2019-09-17T15:17:57.472Z</time>
      </trkpt>
      <trkpt lat="50.51171" lon="3.47295">
        <ele>24.235708</ele>
        <time>2019-09-17T15:18:02.337Z</time>
      </trkpt>
      <trkpt lat="50.51144" lon="3.47283">
        <ele>24.197361</ele>
        <time>2019-09-17T15:18:07.667Z</time>
      </trkpt>
      <trkpt lat="50.51091" lon="3.4727">
        <ele>24.16492</ele>
        <time>2019-09-17T15:18:18.246Z</time>
      </trkpt>
      <trkpt lat="50.51066" lon="3.47262">
        <ele>24.149445</ele>
        <time>2019-09-17T15:18:23.345Z</time>
      </trkpt>
      <trkpt lat="50.51059" lon="3.47247">
        <ele>24.14215</ele>
        <time>2019-09-17T15:18:25.179Z</time>
      </trkpt>
      <trkpt lat="50.51052" lon="3.47236">
        <ele>24.136415</ele>
        <time>2019-09-17T15:18:26.549Z</time>
      </trkpt>
      <trkpt lat="50.50985" lon="3.47169">
        <ele>24.195124</ele>
        <time>2019-09-17T15:18:38.873Z</time>
      </trkpt>
      <trkpt lat="50.50936" lon="3.47116">
        <ele>24.440902</ele>
        <time>2019-09-17T15:18:48.558Z</time>
      </trkpt>
      <trkpt lat="50.50899" lon="3.47062">
        <ele>24.649409</ele>
        <time>2019-09-17T15:18:57.197Z</time>
      </trkpt>
      <trkpt lat="50.50871" lon="3.47017">
        <ele>24.812597</ele>
        <time>2019-09-17T15:19:03.892Z</time>
      </trkpt>
      <trkpt lat="50.5085" lon="3.46978">
        <ele>24.914391</ele>
        <time>2019-09-17T15:19:09.323Z</time>
      </trkpt>
      <trkpt lat="50.5084" lon="3.46941">
        <ele>24.987863</ele>
        <time>2019-09-17T15:19:13.655Z</time>
      </trkpt>
      <trkpt lat="50.50837" lon="3.46857">
        <ele>25.139832</ele>
        <time>2019-09-17T15:19:22.634Z</time>
      </trkpt>
      <trkpt lat="50.50831" lon="3.4684">
        <ele>25.175803</ele>
        <time>2019-09-17T15:19:24.607Z</time>
      </trkpt>
      <trkpt lat="50.50821" lon="3.46826">
        <ele>25.213152</ele>
        <time>2019-09-17T15:19:26.653Z</time>
      </trkpt>
      <trkpt lat="50.50778" lon="3.46766">
        <ele>25.31241</ele>
        <time>2019-09-17T15:19:35.178Z</time>
      </trkpt>
      <trkpt lat="50.50735" lon="3.46707">
        <ele>24.96637</ele>
        <time>2019-09-17T15:19:43.158Z</time>
      </trkpt>
      <trkpt lat="50.50708" lon="3.46672">
        <ele>24.755036</ele>
        <time>2019-09-17T15:19:47.810Z</time>
      </trkpt>
      <trkpt lat="50.50681" lon="3.46651">
        <ele>24.574541</ele>
        <time>2019-09-17T15:19:51.615Z</time>
      </trkpt>
      <trkpt lat="50.50523" lon="3.46572">
        <ele>22.951728</ele>
        <time>2019-09-17T15:20:11.481Z</time>
      </trkpt>
      <trkpt lat="50.50405" lon="3.46483">
        <ele>22.22284</ele>
        <time>2019-09-17T15:20:27.269Z</time>
      </trkpt>
      <trkpt lat="50.50361" lon="3.46454">
        <ele>22.22284</ele>
        <time>2019-09-17T15:20:33.465Z</time>
      </trkpt>
      <trkpt lat="50.5034" lon="3.46438">
        <ele>22.22284</ele>
        <time>2019-09-17T15:20:36.496Z</time>
      </trkpt>
      <trkpt lat="50.50316" lon="3.46422">
        <ele>22.22284</ele>
        <time>2019-09-17T15:20:40.069Z</time>
      </trkpt>
      <trkpt lat="50.50313" lon="3.46411">
        <ele>22.22284</ele>
        <time>2019-09-17T15:20:41.050Z</time>
      </trkpt>
      <trkpt lat="50.50317" lon="3.46374">
        <ele>22.22284</ele>
        <time>2019-09-17T15:20:44.348Z</time>
      </trkpt>
      <trkpt lat="50.50321" lon="3.46347">
        <ele>22.22284</ele>
        <time>2019-09-17T15:20:46.757Z</time>
      </trkpt>
    </trkseg>
  </trk>
</gpx>